<?xml version="1.0" encoding="UTF-8" standalone="no" ?>
<gpx xmlns="http://www.topografix.com/GPX/1/1" xmlns:xsi="http://www.w3.org/2001/XMLSchema-instance" xsi:schemaLocation="http://www.topografix.com/GPX/1/1 http://www.topografix.com/GPX/1/1/gpx.xsd" version="1.1" creator="VisuGPX - https://www.visugpx.com">
  <metadata>
    <name>H-P : LE REFUGE DE CHAVAN</name>
    <desc><![CDATA[Aller-retour, en suivant en grande partie le ruisseau de Bellecombe, jusqu'au refuge de Chavan, au départ du parking de la Chèvrerie. Petite poussée vers le col de Chavan , pour faire face à la pointe de Chavannais et à la Haute pointe.
]]></desc>
  </metadata>
  <trk>
    <name><![CDATA[CHAVAN-20 16:12:28]]></name>
    <trkseg>
      <trkpt lat="46.20879" lon="6.5765">
        <ele>1104.21</ele>
        <time>2020-02-06T08:26:53Z</time>
      </trkpt>
      <trkpt lat="46.2088" lon="6.5765">
        <ele>1107.58</ele>
        <time>2020-02-06T08:26:57Z</time>
      </trkpt>
      <trkpt lat="46.2088" lon="6.5765">
        <ele>1108.54</ele>
        <time>2020-02-06T08:26:59Z</time>
      </trkpt>
      <trkpt lat="46.20881" lon="6.5765">
        <ele>1111.42</ele>
        <time>2020-02-06T08:27:04Z</time>
      </trkpt>
      <trkpt lat="46.20881" lon="6.5765">
        <ele>1112.38</ele>
        <time>2020-02-06T08:27:08Z</time>
      </trkpt>
      <trkpt lat="46.20881" lon="6.5765">
        <ele>1113.34</ele>
        <time>2020-02-06T08:27:10Z</time>
      </trkpt>
      <trkpt lat="46.20877" lon="6.57648">
        <ele>1117.19</ele>
        <time>2020-02-06T08:27:21Z</time>
      </trkpt>
      <trkpt lat="46.20874" lon="6.57645">
        <ele>1120.55</ele>
        <time>2020-02-06T08:27:41Z</time>
      </trkpt>
      <trkpt lat="46.20875" lon="6.57646">
        <ele>1121.52</ele>
        <time>2020-02-06T08:28:30Z</time>
      </trkpt>
      <trkpt lat="46.20875" lon="6.57646">
        <ele>1122</ele>
        <time>2020-02-06T08:29:42Z</time>
      </trkpt>
      <trkpt lat="46.20875" lon="6.57646">
        <ele>1121.52</ele>
        <time>2020-02-06T08:29:54Z</time>
      </trkpt>
      <trkpt lat="46.20877" lon="6.57646">
        <ele>1121.52</ele>
        <time>2020-02-06T08:30:38Z</time>
      </trkpt>
      <trkpt lat="46.20884" lon="6.57657">
        <ele>1122</ele>
        <time>2020-02-06T08:30:49Z</time>
      </trkpt>
      <trkpt lat="46.20888" lon="6.57662">
        <ele>1122</ele>
        <time>2020-02-06T08:30:54Z</time>
      </trkpt>
      <trkpt lat="46.20892" lon="6.57676">
        <ele>1122.96</ele>
        <time>2020-02-06T08:31:06Z</time>
      </trkpt>
      <trkpt lat="46.20888" lon="6.57682">
        <ele>1122.96</ele>
        <time>2020-02-06T08:31:12Z</time>
      </trkpt>
      <trkpt lat="46.20884" lon="6.57689">
        <ele>1123.92</ele>
        <time>2020-02-06T08:31:19Z</time>
      </trkpt>
      <trkpt lat="46.20882" lon="6.57692">
        <ele>1122.96</ele>
        <time>2020-02-06T08:31:22Z</time>
      </trkpt>
      <trkpt lat="46.20878" lon="6.57702">
        <ele>1124.4</ele>
        <time>2020-02-06T08:31:37Z</time>
      </trkpt>
      <trkpt lat="46.20877" lon="6.57702">
        <ele>1122.96</ele>
        <time>2020-02-06T08:32:16Z</time>
      </trkpt>
      <trkpt lat="46.20878" lon="6.57701">
        <ele>1124.4</ele>
        <time>2020-02-06T08:32:35Z</time>
      </trkpt>
      <trkpt lat="46.20879" lon="6.577">
        <ele>1124.4</ele>
        <time>2020-02-06T08:33:08Z</time>
      </trkpt>
      <trkpt lat="46.20879" lon="6.577">
        <ele>1124.88</ele>
        <time>2020-02-06T08:33:29Z</time>
      </trkpt>
      <trkpt lat="46.20879" lon="6.577">
        <ele>1124.88</ele>
        <time>2020-02-06T08:34:30Z</time>
      </trkpt>
      <trkpt lat="46.20878" lon="6.577">
        <ele>1125.36</ele>
        <time>2020-02-06T08:34:52Z</time>
      </trkpt>
      <trkpt lat="46.2087" lon="6.57709">
        <ele>1125.84</ele>
        <time>2020-02-06T08:35:04Z</time>
      </trkpt>
      <trkpt lat="46.20862" lon="6.57715">
        <ele>1126.8</ele>
        <time>2020-02-06T08:35:15Z</time>
      </trkpt>
      <trkpt lat="46.20853" lon="6.57714">
        <ele>1128.24</ele>
        <time>2020-02-06T08:35:26Z</time>
      </trkpt>
      <trkpt lat="46.20845" lon="6.57706">
        <ele>1129.69</ele>
        <time>2020-02-06T08:35:38Z</time>
      </trkpt>
      <trkpt lat="46.20844" lon="6.57704">
        <ele>1129.69</ele>
        <time>2020-02-06T08:35:39Z</time>
      </trkpt>
      <trkpt lat="46.2084" lon="6.57689">
        <ele>1131.13</ele>
        <time>2020-02-06T08:35:52Z</time>
      </trkpt>
      <trkpt lat="46.20836" lon="6.57678">
        <ele>1132.57</ele>
        <time>2020-02-06T08:36:03Z</time>
      </trkpt>
      <trkpt lat="46.2083" lon="6.5767">
        <ele>1133.05</ele>
        <time>2020-02-06T08:36:14Z</time>
      </trkpt>
      <trkpt lat="46.20829" lon="6.57667">
        <ele>1133.53</ele>
        <time>2020-02-06T08:36:18Z</time>
      </trkpt>
      <trkpt lat="46.20823" lon="6.57657">
        <ele>1134.97</ele>
        <time>2020-02-06T08:36:29Z</time>
      </trkpt>
      <trkpt lat="46.20818" lon="6.57644">
        <ele>1136.42</ele>
        <time>2020-02-06T08:36:42Z</time>
      </trkpt>
      <trkpt lat="46.20814" lon="6.57631">
        <ele>1137.86</ele>
        <time>2020-02-06T08:36:54Z</time>
      </trkpt>
      <trkpt lat="46.20814" lon="6.5763">
        <ele>1137.38</ele>
        <time>2020-02-06T08:36:55Z</time>
      </trkpt>
      <trkpt lat="46.20811" lon="6.57616">
        <ele>1139.3</ele>
        <time>2020-02-06T08:37:08Z</time>
      </trkpt>
      <trkpt lat="46.20806" lon="6.57602">
        <ele>1140.74</ele>
        <time>2020-02-06T08:37:20Z</time>
      </trkpt>
      <trkpt lat="46.208" lon="6.57591">
        <ele>1141.22</ele>
        <time>2020-02-06T08:37:31Z</time>
      </trkpt>
      <trkpt lat="46.20792" lon="6.57577">
        <ele>1141.7</ele>
        <time>2020-02-06T08:37:45Z</time>
      </trkpt>
      <trkpt lat="46.2079" lon="6.57574">
        <ele>1142.18</ele>
        <time>2020-02-06T08:37:48Z</time>
      </trkpt>
      <trkpt lat="46.20778" lon="6.57563">
        <ele>1143.14</ele>
        <time>2020-02-06T08:38:04Z</time>
      </trkpt>
      <trkpt lat="46.20769" lon="6.57556">
        <ele>1143.14</ele>
        <time>2020-02-06T08:38:15Z</time>
      </trkpt>
      <trkpt lat="46.20757" lon="6.5755">
        <ele>1143.63</ele>
        <time>2020-02-06T08:38:28Z</time>
      </trkpt>
      <trkpt lat="46.20749" lon="6.57541">
        <ele>1144.11</ele>
        <time>2020-02-06T08:38:40Z</time>
      </trkpt>
      <trkpt lat="46.20749" lon="6.57541">
        <ele>1144.11</ele>
        <time>2020-02-06T08:38:57Z</time>
      </trkpt>
      <trkpt lat="46.20746" lon="6.57539">
        <ele>1143.63</ele>
        <time>2020-02-06T08:41:23Z</time>
      </trkpt>
      <trkpt lat="46.20744" lon="6.57537">
        <ele>1144.11</ele>
        <time>2020-02-06T08:41:26Z</time>
      </trkpt>
      <trkpt lat="46.20733" lon="6.57528">
        <ele>1144.59</ele>
        <time>2020-02-06T08:41:41Z</time>
      </trkpt>
      <trkpt lat="46.20727" lon="6.57524">
        <ele>1144.59</ele>
        <time>2020-02-06T08:41:49Z</time>
      </trkpt>
      <trkpt lat="46.20716" lon="6.57517">
        <ele>1145.07</ele>
        <time>2020-02-06T08:42:01Z</time>
      </trkpt>
      <trkpt lat="46.20707" lon="6.57509">
        <ele>1146.03</ele>
        <time>2020-02-06T08:42:13Z</time>
      </trkpt>
      <trkpt lat="46.20694" lon="6.57503">
        <ele>1146.51</ele>
        <time>2020-02-06T08:42:26Z</time>
      </trkpt>
      <trkpt lat="46.20686" lon="6.57494">
        <ele>1147.47</ele>
        <time>2020-02-06T08:42:37Z</time>
      </trkpt>
      <trkpt lat="46.20683" lon="6.5749">
        <ele>1147.95</ele>
        <time>2020-02-06T08:42:42Z</time>
      </trkpt>
      <trkpt lat="46.20674" lon="6.57478">
        <ele>1148.91</ele>
        <time>2020-02-06T08:42:56Z</time>
      </trkpt>
      <trkpt lat="46.20668" lon="6.57465">
        <ele>1149.87</ele>
        <time>2020-02-06T08:43:07Z</time>
      </trkpt>
      <trkpt lat="46.20659" lon="6.57453">
        <ele>1150.35</ele>
        <time>2020-02-06T08:43:21Z</time>
      </trkpt>
      <trkpt lat="46.20648" lon="6.57446">
        <ele>1150.84</ele>
        <time>2020-02-06T08:43:33Z</time>
      </trkpt>
      <trkpt lat="46.20636" lon="6.57439">
        <ele>1151.8</ele>
        <time>2020-02-06T08:43:45Z</time>
      </trkpt>
      <trkpt lat="46.20628" lon="6.57436">
        <ele>1152.28</ele>
        <time>2020-02-06T08:43:54Z</time>
      </trkpt>
      <trkpt lat="46.20618" lon="6.57427">
        <ele>1152.76</ele>
        <time>2020-02-06T08:44:08Z</time>
      </trkpt>
      <trkpt lat="46.20615" lon="6.57425">
        <ele>1152.28</ele>
        <time>2020-02-06T08:44:11Z</time>
      </trkpt>
      <trkpt lat="46.20605" lon="6.57419">
        <ele>1152.76</ele>
        <time>2020-02-06T08:44:23Z</time>
      </trkpt>
      <trkpt lat="46.20592" lon="6.57414">
        <ele>1153.24</ele>
        <time>2020-02-06T08:44:35Z</time>
      </trkpt>
      <trkpt lat="46.20589" lon="6.57411">
        <ele>1154.2</ele>
        <time>2020-02-06T08:44:40Z</time>
      </trkpt>
      <trkpt lat="46.20576" lon="6.57405">
        <ele>1154.2</ele>
        <time>2020-02-06T08:44:52Z</time>
      </trkpt>
      <trkpt lat="46.2057" lon="6.57399">
        <ele>1154.68</ele>
        <time>2020-02-06T08:45:00Z</time>
      </trkpt>
      <trkpt lat="46.20567" lon="6.57396">
        <ele>1154.68</ele>
        <time>2020-02-06T08:45:04Z</time>
      </trkpt>
      <trkpt lat="46.20561" lon="6.57391">
        <ele>1155.16</ele>
        <time>2020-02-06T08:45:11Z</time>
      </trkpt>
      <trkpt lat="46.20551" lon="6.57382">
        <ele>1155.16</ele>
        <time>2020-02-06T08:45:24Z</time>
      </trkpt>
      <trkpt lat="46.20543" lon="6.57375">
        <ele>1156.12</ele>
        <time>2020-02-06T08:45:34Z</time>
      </trkpt>
      <trkpt lat="46.20535" lon="6.57369">
        <ele>1156.6</ele>
        <time>2020-02-06T08:45:42Z</time>
      </trkpt>
      <trkpt lat="46.2053" lon="6.57363">
        <ele>1156.6</ele>
        <time>2020-02-06T08:45:49Z</time>
      </trkpt>
      <trkpt lat="46.20528" lon="6.57362">
        <ele>1157.08</ele>
        <time>2020-02-06T08:45:51Z</time>
      </trkpt>
      <trkpt lat="46.20517" lon="6.57354">
        <ele>1157.56</ele>
        <time>2020-02-06T08:46:03Z</time>
      </trkpt>
      <trkpt lat="46.20507" lon="6.57349">
        <ele>1158.05</ele>
        <time>2020-02-06T08:46:13Z</time>
      </trkpt>
      <trkpt lat="46.20505" lon="6.57347">
        <ele>1158.05</ele>
        <time>2020-02-06T08:46:16Z</time>
      </trkpt>
      <trkpt lat="46.20494" lon="6.57339">
        <ele>1158.53</ele>
        <time>2020-02-06T08:46:29Z</time>
      </trkpt>
      <trkpt lat="46.20492" lon="6.57337">
        <ele>1159.01</ele>
        <time>2020-02-06T08:46:32Z</time>
      </trkpt>
      <trkpt lat="46.20488" lon="6.57335">
        <ele>1159.01</ele>
        <time>2020-02-06T08:46:35Z</time>
      </trkpt>
      <trkpt lat="46.20485" lon="6.57332">
        <ele>1159.01</ele>
        <time>2020-02-06T08:46:39Z</time>
      </trkpt>
      <trkpt lat="46.20475" lon="6.57322">
        <ele>1159.01</ele>
        <time>2020-02-06T08:46:53Z</time>
      </trkpt>
      <trkpt lat="46.20468" lon="6.57316">
        <ele>1160.45</ele>
        <time>2020-02-06T08:47:02Z</time>
      </trkpt>
      <trkpt lat="46.20463" lon="6.57311">
        <ele>1160.45</ele>
        <time>2020-02-06T08:47:08Z</time>
      </trkpt>
      <trkpt lat="46.20457" lon="6.57307">
        <ele>1160.93</ele>
        <time>2020-02-06T08:47:14Z</time>
      </trkpt>
      <trkpt lat="46.20455" lon="6.57305">
        <ele>1161.41</ele>
        <time>2020-02-06T08:47:16Z</time>
      </trkpt>
      <trkpt lat="46.20453" lon="6.57303">
        <ele>1161.41</ele>
        <time>2020-02-06T08:47:19Z</time>
      </trkpt>
      <trkpt lat="46.2044" lon="6.57298">
        <ele>1161.89</ele>
        <time>2020-02-06T08:47:32Z</time>
      </trkpt>
      <trkpt lat="46.20432" lon="6.57291">
        <ele>1160.93</ele>
        <time>2020-02-06T08:47:41Z</time>
      </trkpt>
      <trkpt lat="46.20422" lon="6.57283">
        <ele>1162.37</ele>
        <time>2020-02-06T08:47:54Z</time>
      </trkpt>
      <trkpt lat="46.20419" lon="6.57279">
        <ele>1162.37</ele>
        <time>2020-02-06T08:47:58Z</time>
      </trkpt>
      <trkpt lat="46.20414" lon="6.57273">
        <ele>1162.85</ele>
        <time>2020-02-06T08:48:05Z</time>
      </trkpt>
      <trkpt lat="46.20412" lon="6.57271">
        <ele>1162.85</ele>
        <time>2020-02-06T08:48:07Z</time>
      </trkpt>
      <trkpt lat="46.20411" lon="6.57268">
        <ele>1163.33</ele>
        <time>2020-02-06T08:48:09Z</time>
      </trkpt>
      <trkpt lat="46.20408" lon="6.57265">
        <ele>1163.33</ele>
        <time>2020-02-06T08:48:12Z</time>
      </trkpt>
      <trkpt lat="46.20408" lon="6.57262">
        <ele>1163.81</ele>
        <time>2020-02-06T08:48:14Z</time>
      </trkpt>
      <trkpt lat="46.204" lon="6.57248">
        <ele>1164.29</ele>
        <time>2020-02-06T08:48:27Z</time>
      </trkpt>
      <trkpt lat="46.20394" lon="6.57233">
        <ele>1165.26</ele>
        <time>2020-02-06T08:48:40Z</time>
      </trkpt>
      <trkpt lat="46.20388" lon="6.57225">
        <ele>1166.22</ele>
        <time>2020-02-06T08:48:48Z</time>
      </trkpt>
      <trkpt lat="46.20387" lon="6.57223">
        <ele>1166.22</ele>
        <time>2020-02-06T08:48:50Z</time>
      </trkpt>
      <trkpt lat="46.20386" lon="6.57221">
        <ele>1166.22</ele>
        <time>2020-02-06T08:48:52Z</time>
      </trkpt>
      <trkpt lat="46.20384" lon="6.57214">
        <ele>1166.22</ele>
        <time>2020-02-06T08:48:58Z</time>
      </trkpt>
      <trkpt lat="46.20377" lon="6.57203">
        <ele>1167.18</ele>
        <time>2020-02-06T08:49:08Z</time>
      </trkpt>
      <trkpt lat="46.20373" lon="6.57192">
        <ele>1167.18</ele>
        <time>2020-02-06T08:49:17Z</time>
      </trkpt>
      <trkpt lat="46.20365" lon="6.57179">
        <ele>1168.62</ele>
        <time>2020-02-06T08:49:29Z</time>
      </trkpt>
      <trkpt lat="46.20361" lon="6.57174">
        <ele>1168.62</ele>
        <time>2020-02-06T08:49:36Z</time>
      </trkpt>
      <trkpt lat="46.20349" lon="6.57165">
        <ele>1169.58</ele>
        <time>2020-02-06T08:49:49Z</time>
      </trkpt>
      <trkpt lat="46.20342" lon="6.5716">
        <ele>1169.58</ele>
        <time>2020-02-06T08:49:57Z</time>
      </trkpt>
      <trkpt lat="46.20331" lon="6.57156">
        <ele>1170.54</ele>
        <time>2020-02-06T08:50:08Z</time>
      </trkpt>
      <trkpt lat="46.2032" lon="6.57151">
        <ele>1170.54</ele>
        <time>2020-02-06T08:50:21Z</time>
      </trkpt>
      <trkpt lat="46.20309" lon="6.57147">
        <ele>1170.54</ele>
        <time>2020-02-06T08:50:32Z</time>
      </trkpt>
      <trkpt lat="46.20308" lon="6.57147">
        <ele>1170.54</ele>
        <time>2020-02-06T08:50:34Z</time>
      </trkpt>
      <trkpt lat="46.20298" lon="6.57142">
        <ele>1171.02</ele>
        <time>2020-02-06T08:50:46Z</time>
      </trkpt>
      <trkpt lat="46.2029" lon="6.57139">
        <ele>1171.02</ele>
        <time>2020-02-06T08:50:54Z</time>
      </trkpt>
      <trkpt lat="46.20279" lon="6.57134">
        <ele>1171.5</ele>
        <time>2020-02-06T08:51:06Z</time>
      </trkpt>
      <trkpt lat="46.20267" lon="6.5713">
        <ele>1171.98</ele>
        <time>2020-02-06T08:51:18Z</time>
      </trkpt>
      <trkpt lat="46.20261" lon="6.57129">
        <ele>1172.47</ele>
        <time>2020-02-06T08:51:26Z</time>
      </trkpt>
      <trkpt lat="46.20259" lon="6.57126">
        <ele>1172.47</ele>
        <time>2020-02-06T08:51:29Z</time>
      </trkpt>
      <trkpt lat="46.20253" lon="6.57124">
        <ele>1171.98</ele>
        <time>2020-02-06T08:51:34Z</time>
      </trkpt>
      <trkpt lat="46.20242" lon="6.57121">
        <ele>1171.98</ele>
        <time>2020-02-06T08:51:45Z</time>
      </trkpt>
      <trkpt lat="46.20238" lon="6.5712">
        <ele>1172.47</ele>
        <time>2020-02-06T08:51:49Z</time>
      </trkpt>
      <trkpt lat="46.20228" lon="6.57116">
        <ele>1172.47</ele>
        <time>2020-02-06T08:51:59Z</time>
      </trkpt>
      <trkpt lat="46.20226" lon="6.57114">
        <ele>1172.47</ele>
        <time>2020-02-06T08:52:04Z</time>
      </trkpt>
      <trkpt lat="46.20214" lon="6.57111">
        <ele>1172.47</ele>
        <time>2020-02-06T08:52:17Z</time>
      </trkpt>
      <trkpt lat="46.20205" lon="6.57107">
        <ele>1173.43</ele>
        <time>2020-02-06T08:52:27Z</time>
      </trkpt>
      <trkpt lat="46.20202" lon="6.57105">
        <ele>1172.47</ele>
        <time>2020-02-06T08:52:30Z</time>
      </trkpt>
      <trkpt lat="46.20188" lon="6.57102">
        <ele>1173.43</ele>
        <time>2020-02-06T08:52:43Z</time>
      </trkpt>
      <trkpt lat="46.20177" lon="6.57098">
        <ele>1173.91</ele>
        <time>2020-02-06T08:52:55Z</time>
      </trkpt>
      <trkpt lat="46.20174" lon="6.57096">
        <ele>1174.87</ele>
        <time>2020-02-06T08:53:13Z</time>
      </trkpt>
      <trkpt lat="46.20174" lon="6.57096">
        <ele>1174.39</ele>
        <time>2020-02-06T08:54:50Z</time>
      </trkpt>
      <trkpt lat="46.20165" lon="6.57094">
        <ele>1175.35</ele>
        <time>2020-02-06T08:55:05Z</time>
      </trkpt>
      <trkpt lat="46.20161" lon="6.57093">
        <ele>1175.35</ele>
        <time>2020-02-06T08:55:10Z</time>
      </trkpt>
      <trkpt lat="46.20158" lon="6.57092">
        <ele>1175.83</ele>
        <time>2020-02-06T08:55:15Z</time>
      </trkpt>
      <trkpt lat="46.20149" lon="6.57089">
        <ele>1176.31</ele>
        <time>2020-02-06T08:55:27Z</time>
      </trkpt>
      <trkpt lat="46.20146" lon="6.57087">
        <ele>1176.31</ele>
        <time>2020-02-06T08:55:34Z</time>
      </trkpt>
      <trkpt lat="46.20139" lon="6.57086">
        <ele>1176.31</ele>
        <time>2020-02-06T08:55:43Z</time>
      </trkpt>
      <trkpt lat="46.20124" lon="6.57084">
        <ele>1177.27</ele>
        <time>2020-02-06T08:55:55Z</time>
      </trkpt>
      <trkpt lat="46.20116" lon="6.57083">
        <ele>1177.27</ele>
        <time>2020-02-06T08:56:04Z</time>
      </trkpt>
      <trkpt lat="46.20107" lon="6.57083">
        <ele>1178.71</ele>
        <time>2020-02-06T08:56:15Z</time>
      </trkpt>
      <trkpt lat="46.20097" lon="6.57081">
        <ele>1178.23</ele>
        <time>2020-02-06T08:56:25Z</time>
      </trkpt>
      <trkpt lat="46.20093" lon="6.57078">
        <ele>1179.19</ele>
        <time>2020-02-06T08:56:34Z</time>
      </trkpt>
      <trkpt lat="46.20092" lon="6.57078">
        <ele>1179.19</ele>
        <time>2020-02-06T08:56:53Z</time>
      </trkpt>
      <trkpt lat="46.20092" lon="6.57078">
        <ele>1179.19</ele>
        <time>2020-02-06T08:59:07Z</time>
      </trkpt>
      <trkpt lat="46.20087" lon="6.57084">
        <ele>1179.19</ele>
        <time>2020-02-06T09:00:58Z</time>
      </trkpt>
      <trkpt lat="46.20086" lon="6.57084">
        <ele>1179.67</ele>
        <time>2020-02-06T09:01:01Z</time>
      </trkpt>
      <trkpt lat="46.20083" lon="6.57087">
        <ele>1179.19</ele>
        <time>2020-02-06T09:01:06Z</time>
      </trkpt>
      <trkpt lat="46.20077" lon="6.5709">
        <ele>1180.16</ele>
        <time>2020-02-06T09:01:13Z</time>
      </trkpt>
      <trkpt lat="46.20072" lon="6.57095">
        <ele>1181.12</ele>
        <time>2020-02-06T09:01:23Z</time>
      </trkpt>
      <trkpt lat="46.20066" lon="6.57097">
        <ele>1183.04</ele>
        <time>2020-02-06T09:01:34Z</time>
      </trkpt>
      <trkpt lat="46.20059" lon="6.57102">
        <ele>1184</ele>
        <time>2020-02-06T09:01:45Z</time>
      </trkpt>
      <trkpt lat="46.20051" lon="6.57103">
        <ele>1184.96</ele>
        <time>2020-02-06T09:01:55Z</time>
      </trkpt>
      <trkpt lat="46.20045" lon="6.57101">
        <ele>1185.92</ele>
        <time>2020-02-06T09:02:05Z</time>
      </trkpt>
      <trkpt lat="46.20037" lon="6.57095">
        <ele>1186.4</ele>
        <time>2020-02-06T09:02:14Z</time>
      </trkpt>
      <trkpt lat="46.2003" lon="6.57092">
        <ele>1187.37</ele>
        <time>2020-02-06T09:02:25Z</time>
      </trkpt>
      <trkpt lat="46.2002" lon="6.57082">
        <ele>1187.85</ele>
        <time>2020-02-06T09:02:37Z</time>
      </trkpt>
      <trkpt lat="46.20013" lon="6.57074">
        <ele>1188.81</ele>
        <time>2020-02-06T09:02:48Z</time>
      </trkpt>
      <trkpt lat="46.20005" lon="6.57071">
        <ele>1190.25</ele>
        <time>2020-02-06T09:02:59Z</time>
      </trkpt>
      <trkpt lat="46.20003" lon="6.5707">
        <ele>1189.29</ele>
        <time>2020-02-06T09:03:01Z</time>
      </trkpt>
      <trkpt lat="46.19993" lon="6.57068">
        <ele>1191.21</ele>
        <time>2020-02-06T09:03:11Z</time>
      </trkpt>
      <trkpt lat="46.19985" lon="6.57063">
        <ele>1191.69</ele>
        <time>2020-02-06T09:03:20Z</time>
      </trkpt>
      <trkpt lat="46.19976" lon="6.57055">
        <ele>1192.17</ele>
        <time>2020-02-06T09:03:32Z</time>
      </trkpt>
      <trkpt lat="46.19966" lon="6.57046">
        <ele>1192.65</ele>
        <time>2020-02-06T09:03:47Z</time>
      </trkpt>
      <trkpt lat="46.19959" lon="6.57041">
        <ele>1193.13</ele>
        <time>2020-02-06T09:03:56Z</time>
      </trkpt>
      <trkpt lat="46.19955" lon="6.57037">
        <ele>1193.13</ele>
        <time>2020-02-06T09:04:03Z</time>
      </trkpt>
      <trkpt lat="46.19947" lon="6.57028">
        <ele>1193.61</ele>
        <time>2020-02-06T09:04:14Z</time>
      </trkpt>
      <trkpt lat="46.1994" lon="6.57021">
        <ele>1194.09</ele>
        <time>2020-02-06T09:04:24Z</time>
      </trkpt>
      <trkpt lat="46.19939" lon="6.5702">
        <ele>1194.58</ele>
        <time>2020-02-06T09:04:26Z</time>
      </trkpt>
      <trkpt lat="46.19933" lon="6.57014">
        <ele>1194.58</ele>
        <time>2020-02-06T09:04:34Z</time>
      </trkpt>
      <trkpt lat="46.19923" lon="6.57007">
        <ele>1194.58</ele>
        <time>2020-02-06T09:04:45Z</time>
      </trkpt>
      <trkpt lat="46.19917" lon="6.57003">
        <ele>1194.09</ele>
        <time>2020-02-06T09:04:55Z</time>
      </trkpt>
      <trkpt lat="46.19909" lon="6.57001">
        <ele>1193.61</ele>
        <time>2020-02-06T09:05:08Z</time>
      </trkpt>
      <trkpt lat="46.19906" lon="6.56998">
        <ele>1193.61</ele>
        <time>2020-02-06T09:05:21Z</time>
      </trkpt>
      <trkpt lat="46.19902" lon="6.56994">
        <ele>1194.09</ele>
        <time>2020-02-06T09:05:29Z</time>
      </trkpt>
      <trkpt lat="46.19896" lon="6.5699">
        <ele>1195.54</ele>
        <time>2020-02-06T09:05:38Z</time>
      </trkpt>
      <trkpt lat="46.19893" lon="6.56989">
        <ele>1195.54</ele>
        <time>2020-02-06T09:05:42Z</time>
      </trkpt>
      <trkpt lat="46.19886" lon="6.56988">
        <ele>1196.98</ele>
        <time>2020-02-06T09:05:53Z</time>
      </trkpt>
      <trkpt lat="46.19878" lon="6.56988">
        <ele>1197.94</ele>
        <time>2020-02-06T09:06:02Z</time>
      </trkpt>
      <trkpt lat="46.19866" lon="6.56985">
        <ele>1199.38</ele>
        <time>2020-02-06T09:06:14Z</time>
      </trkpt>
      <trkpt lat="46.19861" lon="6.56984">
        <ele>1199.38</ele>
        <time>2020-02-06T09:06:26Z</time>
      </trkpt>
      <trkpt lat="46.19856" lon="6.56982">
        <ele>1200.34</ele>
        <time>2020-02-06T09:06:34Z</time>
      </trkpt>
      <trkpt lat="46.1984" lon="6.56981">
        <ele>1200.82</ele>
        <time>2020-02-06T09:06:48Z</time>
      </trkpt>
      <trkpt lat="46.19836" lon="6.56978">
        <ele>1201.3</ele>
        <time>2020-02-06T09:06:58Z</time>
      </trkpt>
      <trkpt lat="46.19836" lon="6.56978">
        <ele>1200.82</ele>
        <time>2020-02-06T09:07:20Z</time>
      </trkpt>
      <trkpt lat="46.19831" lon="6.56971">
        <ele>1201.3</ele>
        <time>2020-02-06T09:07:58Z</time>
      </trkpt>
      <trkpt lat="46.1983" lon="6.56971">
        <ele>1200.82</ele>
        <time>2020-02-06T09:07:59Z</time>
      </trkpt>
      <trkpt lat="46.19821" lon="6.56964">
        <ele>1201.3</ele>
        <time>2020-02-06T09:08:10Z</time>
      </trkpt>
      <trkpt lat="46.19817" lon="6.56961">
        <ele>1201.79</ele>
        <time>2020-02-06T09:08:16Z</time>
      </trkpt>
      <trkpt lat="46.19815" lon="6.56957">
        <ele>1202.75</ele>
        <time>2020-02-06T09:08:26Z</time>
      </trkpt>
      <trkpt lat="46.19812" lon="6.56957">
        <ele>1202.75</ele>
        <time>2020-02-06T09:08:32Z</time>
      </trkpt>
      <trkpt lat="46.19807" lon="6.56959">
        <ele>1204.19</ele>
        <time>2020-02-06T09:08:45Z</time>
      </trkpt>
      <trkpt lat="46.19797" lon="6.56959">
        <ele>1205.63</ele>
        <time>2020-02-06T09:08:56Z</time>
      </trkpt>
      <trkpt lat="46.19785" lon="6.56956">
        <ele>1206.11</ele>
        <time>2020-02-06T09:09:08Z</time>
      </trkpt>
      <trkpt lat="46.19777" lon="6.56957">
        <ele>1206.59</ele>
        <time>2020-02-06T09:09:21Z</time>
      </trkpt>
      <trkpt lat="46.19773" lon="6.56956">
        <ele>1206.59</ele>
        <time>2020-02-06T09:09:24Z</time>
      </trkpt>
      <trkpt lat="46.19763" lon="6.56957">
        <ele>1208.03</ele>
        <time>2020-02-06T09:09:35Z</time>
      </trkpt>
      <trkpt lat="46.19751" lon="6.56957">
        <ele>1209</ele>
        <time>2020-02-06T09:09:47Z</time>
      </trkpt>
      <trkpt lat="46.19744" lon="6.56955">
        <ele>1209.48</ele>
        <time>2020-02-06T09:09:56Z</time>
      </trkpt>
      <trkpt lat="46.19742" lon="6.56955">
        <ele>1209.48</ele>
        <time>2020-02-06T09:09:58Z</time>
      </trkpt>
      <trkpt lat="46.1974" lon="6.56955">
        <ele>1209.96</ele>
        <time>2020-02-06T09:10:00Z</time>
      </trkpt>
      <trkpt lat="46.1973" lon="6.56953">
        <ele>1210.92</ele>
        <time>2020-02-06T09:10:12Z</time>
      </trkpt>
      <trkpt lat="46.19724" lon="6.56948">
        <ele>1211.4</ele>
        <time>2020-02-06T09:10:21Z</time>
      </trkpt>
      <trkpt lat="46.19717" lon="6.56944">
        <ele>1212.36</ele>
        <time>2020-02-06T09:10:33Z</time>
      </trkpt>
      <trkpt lat="46.19711" lon="6.56939">
        <ele>1214.28</ele>
        <time>2020-02-06T09:10:46Z</time>
      </trkpt>
      <trkpt lat="46.19702" lon="6.56933">
        <ele>1215.24</ele>
        <time>2020-02-06T09:10:58Z</time>
      </trkpt>
      <trkpt lat="46.19694" lon="6.56931">
        <ele>1216.69</ele>
        <time>2020-02-06T09:11:09Z</time>
      </trkpt>
      <trkpt lat="46.19688" lon="6.56926">
        <ele>1217.65</ele>
        <time>2020-02-06T09:11:19Z</time>
      </trkpt>
      <trkpt lat="46.19684" lon="6.56924">
        <ele>1218.61</ele>
        <time>2020-02-06T09:11:29Z</time>
      </trkpt>
      <trkpt lat="46.19676" lon="6.56921">
        <ele>1220.53</ele>
        <time>2020-02-06T09:11:42Z</time>
      </trkpt>
      <trkpt lat="46.19668" lon="6.56916">
        <ele>1221.01</ele>
        <time>2020-02-06T09:11:53Z</time>
      </trkpt>
      <trkpt lat="46.19666" lon="6.56913">
        <ele>1221.97</ele>
        <time>2020-02-06T09:12:02Z</time>
      </trkpt>
      <trkpt lat="46.19657" lon="6.56908">
        <ele>1221.97</ele>
        <time>2020-02-06T09:12:10Z</time>
      </trkpt>
      <trkpt lat="46.19657" lon="6.56904">
        <ele>1222.45</ele>
        <time>2020-02-06T09:12:14Z</time>
      </trkpt>
      <trkpt lat="46.19643" lon="6.56897">
        <ele>1222.45</ele>
        <time>2020-02-06T09:12:26Z</time>
      </trkpt>
      <trkpt lat="46.19633" lon="6.5689">
        <ele>1221.97</ele>
        <time>2020-02-06T09:12:38Z</time>
      </trkpt>
      <trkpt lat="46.19622" lon="6.56884">
        <ele>1221.49</ele>
        <time>2020-02-06T09:12:51Z</time>
      </trkpt>
      <trkpt lat="46.19615" lon="6.56878">
        <ele>1221.97</ele>
        <time>2020-02-06T09:13:04Z</time>
      </trkpt>
      <trkpt lat="46.19608" lon="6.56873">
        <ele>1223.9</ele>
        <time>2020-02-06T09:13:16Z</time>
      </trkpt>
      <trkpt lat="46.19603" lon="6.56866">
        <ele>1224.38</ele>
        <time>2020-02-06T09:13:27Z</time>
      </trkpt>
      <trkpt lat="46.19601" lon="6.56865">
        <ele>1224.86</ele>
        <time>2020-02-06T09:13:29Z</time>
      </trkpt>
      <trkpt lat="46.19595" lon="6.56859">
        <ele>1225.34</ele>
        <time>2020-02-06T09:13:42Z</time>
      </trkpt>
      <trkpt lat="46.19592" lon="6.56856">
        <ele>1225.82</ele>
        <time>2020-02-06T09:13:46Z</time>
      </trkpt>
      <trkpt lat="46.19583" lon="6.56854">
        <ele>1226.78</ele>
        <time>2020-02-06T09:13:58Z</time>
      </trkpt>
      <trkpt lat="46.19578" lon="6.5685">
        <ele>1227.74</ele>
        <time>2020-02-06T09:14:08Z</time>
      </trkpt>
      <trkpt lat="46.19575" lon="6.56847">
        <ele>1228.22</ele>
        <time>2020-02-06T09:14:14Z</time>
      </trkpt>
      <trkpt lat="46.19567" lon="6.56841">
        <ele>1229.66</ele>
        <time>2020-02-06T09:14:26Z</time>
      </trkpt>
      <trkpt lat="46.19564" lon="6.56836">
        <ele>1230.62</ele>
        <time>2020-02-06T09:14:33Z</time>
      </trkpt>
      <trkpt lat="46.19556" lon="6.56828">
        <ele>1230.62</ele>
        <time>2020-02-06T09:14:46Z</time>
      </trkpt>
      <trkpt lat="46.1955" lon="6.56822">
        <ele>1230.62</ele>
        <time>2020-02-06T09:14:56Z</time>
      </trkpt>
      <trkpt lat="46.19543" lon="6.56818">
        <ele>1232.07</ele>
        <time>2020-02-06T09:15:05Z</time>
      </trkpt>
      <trkpt lat="46.19538" lon="6.56811">
        <ele>1233.03</ele>
        <time>2020-02-06T09:15:16Z</time>
      </trkpt>
      <trkpt lat="46.19532" lon="6.56804">
        <ele>1233.51</ele>
        <time>2020-02-06T09:15:27Z</time>
      </trkpt>
      <trkpt lat="46.19532" lon="6.56803">
        <ele>1233.99</ele>
        <time>2020-02-06T09:15:29Z</time>
      </trkpt>
      <trkpt lat="46.19529" lon="6.56798">
        <ele>1233.51</ele>
        <time>2020-02-06T09:15:35Z</time>
      </trkpt>
      <trkpt lat="46.19521" lon="6.5679">
        <ele>1234.95</ele>
        <time>2020-02-06T09:15:47Z</time>
      </trkpt>
      <trkpt lat="46.19516" lon="6.56783">
        <ele>1235.43</ele>
        <time>2020-02-06T09:15:57Z</time>
      </trkpt>
      <trkpt lat="46.19507" lon="6.56776">
        <ele>1235.91</ele>
        <time>2020-02-06T09:16:08Z</time>
      </trkpt>
      <trkpt lat="46.19507" lon="6.56776">
        <ele>1235.91</ele>
        <time>2020-02-06T09:16:09Z</time>
      </trkpt>
      <trkpt lat="46.195" lon="6.56768">
        <ele>1236.39</ele>
        <time>2020-02-06T09:16:20Z</time>
      </trkpt>
      <trkpt lat="46.19498" lon="6.56767">
        <ele>1236.87</ele>
        <time>2020-02-06T09:16:23Z</time>
      </trkpt>
      <trkpt lat="46.19488" lon="6.56754">
        <ele>1237.35</ele>
        <time>2020-02-06T09:16:38Z</time>
      </trkpt>
      <trkpt lat="46.19483" lon="6.56743">
        <ele>1236.87</ele>
        <time>2020-02-06T09:16:50Z</time>
      </trkpt>
      <trkpt lat="46.19482" lon="6.56742">
        <ele>1236.87</ele>
        <time>2020-02-06T09:16:51Z</time>
      </trkpt>
      <trkpt lat="46.19478" lon="6.56739">
        <ele>1237.35</ele>
        <time>2020-02-06T09:17:02Z</time>
      </trkpt>
      <trkpt lat="46.19477" lon="6.56738">
        <ele>1237.35</ele>
        <time>2020-02-06T09:17:15Z</time>
      </trkpt>
      <trkpt lat="46.19476" lon="6.56738">
        <ele>1236.87</ele>
        <time>2020-02-06T09:17:30Z</time>
      </trkpt>
      <trkpt lat="46.19473" lon="6.56737">
        <ele>1237.35</ele>
        <time>2020-02-06T09:17:47Z</time>
      </trkpt>
      <trkpt lat="46.19472" lon="6.56736">
        <ele>1237.35</ele>
        <time>2020-02-06T09:18:07Z</time>
      </trkpt>
      <trkpt lat="46.19473" lon="6.56738">
        <ele>1236.87</ele>
        <time>2020-02-06T09:18:29Z</time>
      </trkpt>
      <trkpt lat="46.19472" lon="6.56739">
        <ele>1235.91</ele>
        <time>2020-02-06T09:18:47Z</time>
      </trkpt>
      <trkpt lat="46.19471" lon="6.5674">
        <ele>1235.43</ele>
        <time>2020-02-06T09:20:10Z</time>
      </trkpt>
      <trkpt lat="46.19469" lon="6.56741">
        <ele>1236.87</ele>
        <time>2020-02-06T09:20:30Z</time>
      </trkpt>
      <trkpt lat="46.1947" lon="6.56741">
        <ele>1236.39</ele>
        <time>2020-02-06T09:21:08Z</time>
      </trkpt>
      <trkpt lat="46.19469" lon="6.56741">
        <ele>1236.87</ele>
        <time>2020-02-06T09:21:53Z</time>
      </trkpt>
      <trkpt lat="46.19468" lon="6.56739">
        <ele>1236.87</ele>
        <time>2020-02-06T09:22:14Z</time>
      </trkpt>
      <trkpt lat="46.19468" lon="6.56739">
        <ele>1236.39</ele>
        <time>2020-02-06T09:22:45Z</time>
      </trkpt>
      <trkpt lat="46.19468" lon="6.56732">
        <ele>1236.39</ele>
        <time>2020-02-06T09:23:15Z</time>
      </trkpt>
      <trkpt lat="46.19477" lon="6.56736">
        <ele>1236.87</ele>
        <time>2020-02-06T09:23:36Z</time>
      </trkpt>
      <trkpt lat="46.1947" lon="6.56732">
        <ele>1235.91</ele>
        <time>2020-02-06T09:24:28Z</time>
      </trkpt>
      <trkpt lat="46.19484" lon="6.56731">
        <ele>1236.39</ele>
        <time>2020-02-06T09:25:54Z</time>
      </trkpt>
      <trkpt lat="46.1948" lon="6.56727">
        <ele>1236.87</ele>
        <time>2020-02-06T09:26:43Z</time>
      </trkpt>
      <trkpt lat="46.19474" lon="6.56722">
        <ele>1236.39</ele>
        <time>2020-02-06T09:26:53Z</time>
      </trkpt>
      <trkpt lat="46.19473" lon="6.56722">
        <ele>1237.35</ele>
        <time>2020-02-06T09:26:55Z</time>
      </trkpt>
      <trkpt lat="46.19464" lon="6.56717">
        <ele>1238.8</ele>
        <time>2020-02-06T09:27:04Z</time>
      </trkpt>
      <trkpt lat="46.19451" lon="6.5671">
        <ele>1238.32</ele>
        <time>2020-02-06T09:27:16Z</time>
      </trkpt>
      <trkpt lat="46.19445" lon="6.56709">
        <ele>1239.28</ele>
        <time>2020-02-06T09:27:23Z</time>
      </trkpt>
      <trkpt lat="46.19436" lon="6.56706">
        <ele>1239.76</ele>
        <time>2020-02-06T09:27:34Z</time>
      </trkpt>
      <trkpt lat="46.19431" lon="6.56703">
        <ele>1239.76</ele>
        <time>2020-02-06T09:27:41Z</time>
      </trkpt>
      <trkpt lat="46.19425" lon="6.56699">
        <ele>1241.68</ele>
        <time>2020-02-06T09:27:50Z</time>
      </trkpt>
      <trkpt lat="46.19419" lon="6.56697">
        <ele>1241.68</ele>
        <time>2020-02-06T09:28:01Z</time>
      </trkpt>
      <trkpt lat="46.19408" lon="6.56694">
        <ele>1243.12</ele>
        <time>2020-02-06T09:28:10Z</time>
      </trkpt>
      <trkpt lat="46.19397" lon="6.56689">
        <ele>1243.6</ele>
        <time>2020-02-06T09:28:22Z</time>
      </trkpt>
      <trkpt lat="46.19388" lon="6.56682">
        <ele>1244.08</ele>
        <time>2020-02-06T09:28:34Z</time>
      </trkpt>
      <trkpt lat="46.19388" lon="6.56682">
        <ele>1244.56</ele>
        <time>2020-02-06T09:28:35Z</time>
      </trkpt>
      <trkpt lat="46.19378" lon="6.56677">
        <ele>1246.01</ele>
        <time>2020-02-06T09:28:48Z</time>
      </trkpt>
      <trkpt lat="46.1937" lon="6.5668">
        <ele>1246.97</ele>
        <time>2020-02-06T09:28:59Z</time>
      </trkpt>
      <trkpt lat="46.19362" lon="6.56679">
        <ele>1247.93</ele>
        <time>2020-02-06T09:29:08Z</time>
      </trkpt>
      <trkpt lat="46.1936" lon="6.5668">
        <ele>1247.93</ele>
        <time>2020-02-06T09:29:11Z</time>
      </trkpt>
      <trkpt lat="46.1935" lon="6.56684">
        <ele>1248.89</ele>
        <time>2020-02-06T09:29:22Z</time>
      </trkpt>
      <trkpt lat="46.19344" lon="6.56683">
        <ele>1250.33</ele>
        <time>2020-02-06T09:29:32Z</time>
      </trkpt>
      <trkpt lat="46.19335" lon="6.56682">
        <ele>1250.33</ele>
        <time>2020-02-06T09:29:41Z</time>
      </trkpt>
      <trkpt lat="46.19327" lon="6.56678">
        <ele>1252.25</ele>
        <time>2020-02-06T09:29:53Z</time>
      </trkpt>
      <trkpt lat="46.1932" lon="6.56674">
        <ele>1253.7</ele>
        <time>2020-02-06T09:30:05Z</time>
      </trkpt>
      <trkpt lat="46.19309" lon="6.56668">
        <ele>1255.14</ele>
        <time>2020-02-06T09:30:17Z</time>
      </trkpt>
      <trkpt lat="46.19302" lon="6.56665">
        <ele>1255.62</ele>
        <time>2020-02-06T09:30:27Z</time>
      </trkpt>
      <trkpt lat="46.19302" lon="6.56661">
        <ele>1256.1</ele>
        <time>2020-02-06T09:30:34Z</time>
      </trkpt>
      <trkpt lat="46.19298" lon="6.56658">
        <ele>1257.06</ele>
        <time>2020-02-06T09:30:39Z</time>
      </trkpt>
      <trkpt lat="46.19291" lon="6.56656">
        <ele>1257.54</ele>
        <time>2020-02-06T09:30:49Z</time>
      </trkpt>
      <trkpt lat="46.1929" lon="6.56656">
        <ele>1257.06</ele>
        <time>2020-02-06T09:30:50Z</time>
      </trkpt>
      <trkpt lat="46.19278" lon="6.56657">
        <ele>1257.54</ele>
        <time>2020-02-06T09:31:00Z</time>
      </trkpt>
      <trkpt lat="46.1927" lon="6.56656">
        <ele>1258.5</ele>
        <time>2020-02-06T09:31:13Z</time>
      </trkpt>
      <trkpt lat="46.19264" lon="6.56654">
        <ele>1259.46</ele>
        <time>2020-02-06T09:31:24Z</time>
      </trkpt>
      <trkpt lat="46.19254" lon="6.56653">
        <ele>1259.46</ele>
        <time>2020-02-06T09:31:35Z</time>
      </trkpt>
      <trkpt lat="46.1925" lon="6.56653">
        <ele>1258.98</ele>
        <time>2020-02-06T09:31:40Z</time>
      </trkpt>
      <trkpt lat="46.19241" lon="6.56652">
        <ele>1258.98</ele>
        <time>2020-02-06T09:31:50Z</time>
      </trkpt>
      <trkpt lat="46.19239" lon="6.56652">
        <ele>1258.98</ele>
        <time>2020-02-06T09:31:51Z</time>
      </trkpt>
      <trkpt lat="46.1923" lon="6.56651">
        <ele>1260.43</ele>
        <time>2020-02-06T09:32:02Z</time>
      </trkpt>
      <trkpt lat="46.19224" lon="6.56649">
        <ele>1260.91</ele>
        <time>2020-02-06T09:32:12Z</time>
      </trkpt>
      <trkpt lat="46.1922" lon="6.56648">
        <ele>1262.35</ele>
        <time>2020-02-06T09:32:19Z</time>
      </trkpt>
      <trkpt lat="46.19213" lon="6.56645">
        <ele>1262.35</ele>
        <time>2020-02-06T09:32:31Z</time>
      </trkpt>
      <trkpt lat="46.1921" lon="6.56643">
        <ele>1262.35</ele>
        <time>2020-02-06T09:32:50Z</time>
      </trkpt>
      <trkpt lat="46.19209" lon="6.56638">
        <ele>1261.39</ele>
        <time>2020-02-06T09:32:56Z</time>
      </trkpt>
      <trkpt lat="46.19208" lon="6.56622">
        <ele>1261.39</ele>
        <time>2020-02-06T09:33:08Z</time>
      </trkpt>
      <trkpt lat="46.19209" lon="6.56614">
        <ele>1260.91</ele>
        <time>2020-02-06T09:33:19Z</time>
      </trkpt>
      <trkpt lat="46.19206" lon="6.56613">
        <ele>1260.91</ele>
        <time>2020-02-06T09:33:32Z</time>
      </trkpt>
      <trkpt lat="46.19205" lon="6.56611">
        <ele>1261.39</ele>
        <time>2020-02-06T09:33:46Z</time>
      </trkpt>
      <trkpt lat="46.19205" lon="6.56611">
        <ele>1260.91</ele>
        <time>2020-02-06T09:34:21Z</time>
      </trkpt>
      <trkpt lat="46.19183" lon="6.56622">
        <ele>1260.91</ele>
        <time>2020-02-06T09:34:48Z</time>
      </trkpt>
      <trkpt lat="46.19179" lon="6.56617">
        <ele>1260.43</ele>
        <time>2020-02-06T09:35:06Z</time>
      </trkpt>
      <trkpt lat="46.19182" lon="6.56614">
        <ele>1260.91</ele>
        <time>2020-02-06T09:35:23Z</time>
      </trkpt>
      <trkpt lat="46.19184" lon="6.56609">
        <ele>1262.35</ele>
        <time>2020-02-06T09:35:36Z</time>
      </trkpt>
      <trkpt lat="46.19182" lon="6.56603">
        <ele>1264.27</ele>
        <time>2020-02-06T09:35:49Z</time>
      </trkpt>
      <trkpt lat="46.19176" lon="6.56601">
        <ele>1265.23</ele>
        <time>2020-02-06T09:36:03Z</time>
      </trkpt>
      <trkpt lat="46.19169" lon="6.56598">
        <ele>1266.67</ele>
        <time>2020-02-06T09:36:14Z</time>
      </trkpt>
      <trkpt lat="46.19161" lon="6.56596">
        <ele>1268.6</ele>
        <time>2020-02-06T09:36:26Z</time>
      </trkpt>
      <trkpt lat="46.19153" lon="6.56595">
        <ele>1269.56</ele>
        <time>2020-02-06T09:36:38Z</time>
      </trkpt>
      <trkpt lat="46.19143" lon="6.56599">
        <ele>1270.52</ele>
        <time>2020-02-06T09:36:51Z</time>
      </trkpt>
      <trkpt lat="46.19141" lon="6.56592">
        <ele>1272.44</ele>
        <time>2020-02-06T09:37:03Z</time>
      </trkpt>
      <trkpt lat="46.19135" lon="6.56592">
        <ele>1273.4</ele>
        <time>2020-02-06T09:37:14Z</time>
      </trkpt>
      <trkpt lat="46.1913" lon="6.5659">
        <ele>1273.88</ele>
        <time>2020-02-06T09:37:26Z</time>
      </trkpt>
      <trkpt lat="46.19124" lon="6.56593">
        <ele>1275.33</ele>
        <time>2020-02-06T09:37:37Z</time>
      </trkpt>
      <trkpt lat="46.19124" lon="6.56593">
        <ele>1276.29</ele>
        <time>2020-02-06T09:37:49Z</time>
      </trkpt>
      <trkpt lat="46.19129" lon="6.5659">
        <ele>1277.73</ele>
        <time>2020-02-06T09:38:00Z</time>
      </trkpt>
      <trkpt lat="46.19132" lon="6.56592">
        <ele>1277.73</ele>
        <time>2020-02-06T09:38:11Z</time>
      </trkpt>
      <trkpt lat="46.19132" lon="6.56594">
        <ele>1278.21</ele>
        <time>2020-02-06T09:38:23Z</time>
      </trkpt>
      <trkpt lat="46.19127" lon="6.56593">
        <ele>1279.65</ele>
        <time>2020-02-06T09:38:36Z</time>
      </trkpt>
      <trkpt lat="46.19124" lon="6.56594">
        <ele>1279.17</ele>
        <time>2020-02-06T09:39:01Z</time>
      </trkpt>
      <trkpt lat="46.19113" lon="6.56592">
        <ele>1280.61</ele>
        <time>2020-02-06T09:39:16Z</time>
      </trkpt>
      <trkpt lat="46.19111" lon="6.56593">
        <ele>1280.61</ele>
        <time>2020-02-06T09:39:18Z</time>
      </trkpt>
      <trkpt lat="46.19105" lon="6.56595">
        <ele>1282.06</ele>
        <time>2020-02-06T09:39:30Z</time>
      </trkpt>
      <trkpt lat="46.19099" lon="6.566">
        <ele>1283.02</ele>
        <time>2020-02-06T09:39:40Z</time>
      </trkpt>
      <trkpt lat="46.19098" lon="6.56603">
        <ele>1285.42</ele>
        <time>2020-02-06T09:39:57Z</time>
      </trkpt>
      <trkpt lat="46.19094" lon="6.56606">
        <ele>1286.86</ele>
        <time>2020-02-06T09:40:14Z</time>
      </trkpt>
      <trkpt lat="46.19093" lon="6.56606">
        <ele>1289.27</ele>
        <time>2020-02-06T09:40:32Z</time>
      </trkpt>
      <trkpt lat="46.19086" lon="6.56606">
        <ele>1291.67</ele>
        <time>2020-02-06T09:40:46Z</time>
      </trkpt>
      <trkpt lat="46.1908" lon="6.56607">
        <ele>1293.11</ele>
        <time>2020-02-06T09:41:01Z</time>
      </trkpt>
      <trkpt lat="46.19075" lon="6.56607">
        <ele>1294.07</ele>
        <time>2020-02-06T09:41:12Z</time>
      </trkpt>
      <trkpt lat="46.19069" lon="6.56606">
        <ele>1295.51</ele>
        <time>2020-02-06T09:41:21Z</time>
      </trkpt>
      <trkpt lat="46.19068" lon="6.56606">
        <ele>1296.96</ele>
        <time>2020-02-06T09:41:32Z</time>
      </trkpt>
      <trkpt lat="46.19064" lon="6.56605">
        <ele>1298.4</ele>
        <time>2020-02-06T09:41:44Z</time>
      </trkpt>
      <trkpt lat="46.19059" lon="6.56605">
        <ele>1300.32</ele>
        <time>2020-02-06T09:41:59Z</time>
      </trkpt>
      <trkpt lat="46.19052" lon="6.56604">
        <ele>1301.76</ele>
        <time>2020-02-06T09:42:11Z</time>
      </trkpt>
      <trkpt lat="46.19049" lon="6.56604">
        <ele>1303.69</ele>
        <time>2020-02-06T09:42:25Z</time>
      </trkpt>
      <trkpt lat="46.19042" lon="6.56601">
        <ele>1304.65</ele>
        <time>2020-02-06T09:42:38Z</time>
      </trkpt>
      <trkpt lat="46.19037" lon="6.56601">
        <ele>1306.57</ele>
        <time>2020-02-06T09:42:53Z</time>
      </trkpt>
      <trkpt lat="46.19032" lon="6.56602">
        <ele>1308.49</ele>
        <time>2020-02-06T09:43:04Z</time>
      </trkpt>
      <trkpt lat="46.19028" lon="6.56601">
        <ele>1309.93</ele>
        <time>2020-02-06T09:43:16Z</time>
      </trkpt>
      <trkpt lat="46.19023" lon="6.56603">
        <ele>1309.93</ele>
        <time>2020-02-06T09:43:21Z</time>
      </trkpt>
      <trkpt lat="46.19016" lon="6.56601">
        <ele>1311.38</ele>
        <time>2020-02-06T09:43:35Z</time>
      </trkpt>
      <trkpt lat="46.19013" lon="6.56597">
        <ele>1313.78</ele>
        <time>2020-02-06T09:43:49Z</time>
      </trkpt>
      <trkpt lat="46.19008" lon="6.56597">
        <ele>1314.74</ele>
        <time>2020-02-06T09:44:01Z</time>
      </trkpt>
      <trkpt lat="46.19007" lon="6.56599">
        <ele>1316.66</ele>
        <time>2020-02-06T09:44:14Z</time>
      </trkpt>
      <trkpt lat="46.19005" lon="6.56599">
        <ele>1318.1</ele>
        <time>2020-02-06T09:44:26Z</time>
      </trkpt>
      <trkpt lat="46.19002" lon="6.56596">
        <ele>1319.07</ele>
        <time>2020-02-06T09:44:39Z</time>
      </trkpt>
      <trkpt lat="46.19002" lon="6.56596">
        <ele>1318.1</ele>
        <time>2020-02-06T09:45:42Z</time>
      </trkpt>
      <trkpt lat="46.19005" lon="6.56596">
        <ele>1317.62</ele>
        <time>2020-02-06T09:46:44Z</time>
      </trkpt>
      <trkpt lat="46.19003" lon="6.56596">
        <ele>1318.1</ele>
        <time>2020-02-06T09:47:39Z</time>
      </trkpt>
      <trkpt lat="46.19002" lon="6.56595">
        <ele>1319.55</ele>
        <time>2020-02-06T09:47:56Z</time>
      </trkpt>
      <trkpt lat="46.18995" lon="6.56595">
        <ele>1321.95</ele>
        <time>2020-02-06T09:48:12Z</time>
      </trkpt>
      <trkpt lat="46.18991" lon="6.56595">
        <ele>1323.87</ele>
        <time>2020-02-06T09:48:27Z</time>
      </trkpt>
      <trkpt lat="46.1899" lon="6.56596">
        <ele>1325.8</ele>
        <time>2020-02-06T09:48:39Z</time>
      </trkpt>
      <trkpt lat="46.18991" lon="6.56591">
        <ele>1328.2</ele>
        <time>2020-02-06T09:49:00Z</time>
      </trkpt>
      <trkpt lat="46.18988" lon="6.56584">
        <ele>1329.16</ele>
        <time>2020-02-06T09:49:12Z</time>
      </trkpt>
      <trkpt lat="46.18983" lon="6.56583">
        <ele>1331.08</ele>
        <time>2020-02-06T09:49:24Z</time>
      </trkpt>
      <trkpt lat="46.18977" lon="6.5658">
        <ele>1332.52</ele>
        <time>2020-02-06T09:49:38Z</time>
      </trkpt>
      <trkpt lat="46.18976" lon="6.56579">
        <ele>1334.45</ele>
        <time>2020-02-06T09:49:51Z</time>
      </trkpt>
      <trkpt lat="46.18976" lon="6.56579">
        <ele>1336.85</ele>
        <time>2020-02-06T09:50:05Z</time>
      </trkpt>
      <trkpt lat="46.18971" lon="6.56579">
        <ele>1338.29</ele>
        <time>2020-02-06T09:50:17Z</time>
      </trkpt>
      <trkpt lat="46.18965" lon="6.56578">
        <ele>1340.7</ele>
        <time>2020-02-06T09:50:31Z</time>
      </trkpt>
      <trkpt lat="46.1896" lon="6.56579">
        <ele>1342.62</ele>
        <time>2020-02-06T09:50:49Z</time>
      </trkpt>
      <trkpt lat="46.18954" lon="6.56582">
        <ele>1345.02</ele>
        <time>2020-02-06T09:51:03Z</time>
      </trkpt>
      <trkpt lat="46.18945" lon="6.56584">
        <ele>1346.94</ele>
        <time>2020-02-06T09:51:20Z</time>
      </trkpt>
      <trkpt lat="46.18941" lon="6.56583">
        <ele>1349.35</ele>
        <time>2020-02-06T09:51:35Z</time>
      </trkpt>
      <trkpt lat="46.18935" lon="6.56588">
        <ele>1351.75</ele>
        <time>2020-02-06T09:51:51Z</time>
      </trkpt>
      <trkpt lat="46.18933" lon="6.5659">
        <ele>1352.71</ele>
        <time>2020-02-06T09:52:04Z</time>
      </trkpt>
      <trkpt lat="46.18928" lon="6.5659">
        <ele>1354.63</ele>
        <time>2020-02-06T09:52:22Z</time>
      </trkpt>
      <trkpt lat="46.18921" lon="6.56591">
        <ele>1357.04</ele>
        <time>2020-02-06T09:52:36Z</time>
      </trkpt>
      <trkpt lat="46.18918" lon="6.56595">
        <ele>1358.48</ele>
        <time>2020-02-06T09:52:52Z</time>
      </trkpt>
      <trkpt lat="46.18915" lon="6.56599">
        <ele>1360.4</ele>
        <time>2020-02-06T09:53:09Z</time>
      </trkpt>
      <trkpt lat="46.1891" lon="6.566">
        <ele>1360.4</ele>
        <time>2020-02-06T09:55:24Z</time>
      </trkpt>
      <trkpt lat="46.1891" lon="6.566">
        <ele>1360.4</ele>
        <time>2020-02-06T09:56:33Z</time>
      </trkpt>
      <trkpt lat="46.18916" lon="6.56605">
        <ele>1361.36</ele>
        <time>2020-02-06T09:56:49Z</time>
      </trkpt>
      <trkpt lat="46.18921" lon="6.56608">
        <ele>1363.29</ele>
        <time>2020-02-06T09:57:00Z</time>
      </trkpt>
      <trkpt lat="46.18928" lon="6.56616">
        <ele>1365.21</ele>
        <time>2020-02-06T09:57:13Z</time>
      </trkpt>
      <trkpt lat="46.18933" lon="6.56623">
        <ele>1366.65</ele>
        <time>2020-02-06T09:57:24Z</time>
      </trkpt>
      <trkpt lat="46.18935" lon="6.5663">
        <ele>1368.57</ele>
        <time>2020-02-06T09:57:38Z</time>
      </trkpt>
      <trkpt lat="46.18932" lon="6.56631">
        <ele>1370.98</ele>
        <time>2020-02-06T09:57:55Z</time>
      </trkpt>
      <trkpt lat="46.18921" lon="6.56634">
        <ele>1372.42</ele>
        <time>2020-02-06T09:58:08Z</time>
      </trkpt>
      <trkpt lat="46.18919" lon="6.56643">
        <ele>1374.82</ele>
        <time>2020-02-06T09:58:22Z</time>
      </trkpt>
      <trkpt lat="46.18922" lon="6.56649">
        <ele>1376.75</ele>
        <time>2020-02-06T09:58:36Z</time>
      </trkpt>
      <trkpt lat="46.18924" lon="6.56657">
        <ele>1378.67</ele>
        <time>2020-02-06T09:58:52Z</time>
      </trkpt>
      <trkpt lat="46.18917" lon="6.56659">
        <ele>1381.07</ele>
        <time>2020-02-06T09:59:07Z</time>
      </trkpt>
      <trkpt lat="46.18913" lon="6.5666">
        <ele>1383.96</ele>
        <time>2020-02-06T09:59:24Z</time>
      </trkpt>
      <trkpt lat="46.18912" lon="6.56664">
        <ele>1384.92</ele>
        <time>2020-02-06T09:59:40Z</time>
      </trkpt>
      <trkpt lat="46.18912" lon="6.56668">
        <ele>1387.32</ele>
        <time>2020-02-06T10:00:18Z</time>
      </trkpt>
      <trkpt lat="46.18911" lon="6.5668">
        <ele>1389.72</ele>
        <time>2020-02-06T10:00:32Z</time>
      </trkpt>
      <trkpt lat="46.18905" lon="6.56684">
        <ele>1391.17</ele>
        <time>2020-02-06T10:00:46Z</time>
      </trkpt>
      <trkpt lat="46.189" lon="6.56687">
        <ele>1394.53</ele>
        <time>2020-02-06T10:01:00Z</time>
      </trkpt>
      <trkpt lat="46.189" lon="6.56693">
        <ele>1395.97</ele>
        <time>2020-02-06T10:01:14Z</time>
      </trkpt>
      <trkpt lat="46.18899" lon="6.56694">
        <ele>1397.89</ele>
        <time>2020-02-06T10:01:26Z</time>
      </trkpt>
      <trkpt lat="46.189" lon="6.56701">
        <ele>1399.34</ele>
        <time>2020-02-06T10:01:39Z</time>
      </trkpt>
      <trkpt lat="46.18902" lon="6.56717">
        <ele>1402.22</ele>
        <time>2020-02-06T10:01:58Z</time>
      </trkpt>
      <trkpt lat="46.18903" lon="6.56728">
        <ele>1404.62</ele>
        <time>2020-02-06T10:02:14Z</time>
      </trkpt>
      <trkpt lat="46.18899" lon="6.56732">
        <ele>1406.55</ele>
        <time>2020-02-06T10:02:29Z</time>
      </trkpt>
      <trkpt lat="46.18895" lon="6.56735">
        <ele>1408.95</ele>
        <time>2020-02-06T10:02:44Z</time>
      </trkpt>
      <trkpt lat="46.1889" lon="6.5674">
        <ele>1410.87</ele>
        <time>2020-02-06T10:02:59Z</time>
      </trkpt>
      <trkpt lat="46.18887" lon="6.5674">
        <ele>1413.76</ele>
        <time>2020-02-06T10:03:18Z</time>
      </trkpt>
      <trkpt lat="46.18881" lon="6.56741">
        <ele>1415.2</ele>
        <time>2020-02-06T10:03:30Z</time>
      </trkpt>
      <trkpt lat="46.18876" lon="6.56744">
        <ele>1417.12</ele>
        <time>2020-02-06T10:03:39Z</time>
      </trkpt>
      <trkpt lat="46.1887" lon="6.56755">
        <ele>1419.04</ele>
        <time>2020-02-06T10:03:54Z</time>
      </trkpt>
      <trkpt lat="46.18869" lon="6.56756">
        <ele>1418.56</ele>
        <time>2020-02-06T10:04:11Z</time>
      </trkpt>
      <trkpt lat="46.18866" lon="6.56758">
        <ele>1420</ele>
        <time>2020-02-06T10:04:23Z</time>
      </trkpt>
      <trkpt lat="46.18864" lon="6.56761">
        <ele>1420.49</ele>
        <time>2020-02-06T10:04:50Z</time>
      </trkpt>
      <trkpt lat="46.18865" lon="6.5676">
        <ele>1420.49</ele>
        <time>2020-02-06T10:05:46Z</time>
      </trkpt>
      <trkpt lat="46.18865" lon="6.56758">
        <ele>1420</ele>
        <time>2020-02-06T10:06:27Z</time>
      </trkpt>
      <trkpt lat="46.18865" lon="6.56758">
        <ele>1420.97</ele>
        <time>2020-02-06T10:06:52Z</time>
      </trkpt>
      <trkpt lat="46.18866" lon="6.56759">
        <ele>1420.49</ele>
        <time>2020-02-06T10:08:38Z</time>
      </trkpt>
      <trkpt lat="46.18866" lon="6.56759">
        <ele>1420.49</ele>
        <time>2020-02-06T10:09:55Z</time>
      </trkpt>
      <trkpt lat="46.18869" lon="6.56758">
        <ele>1420.49</ele>
        <time>2020-02-06T10:10:31Z</time>
      </trkpt>
      <trkpt lat="46.18869" lon="6.56766">
        <ele>1421.93</ele>
        <time>2020-02-06T10:10:44Z</time>
      </trkpt>
      <trkpt lat="46.18867" lon="6.56773">
        <ele>1423.37</ele>
        <time>2020-02-06T10:10:56Z</time>
      </trkpt>
      <trkpt lat="46.18865" lon="6.56778">
        <ele>1425.29</ele>
        <time>2020-02-06T10:11:07Z</time>
      </trkpt>
      <trkpt lat="46.18862" lon="6.56786">
        <ele>1427.21</ele>
        <time>2020-02-06T10:11:21Z</time>
      </trkpt>
      <trkpt lat="46.18858" lon="6.5679">
        <ele>1429.14</ele>
        <time>2020-02-06T10:11:33Z</time>
      </trkpt>
      <trkpt lat="46.18853" lon="6.56794">
        <ele>1430.1</ele>
        <time>2020-02-06T10:11:42Z</time>
      </trkpt>
      <trkpt lat="46.18843" lon="6.56799">
        <ele>1430.58</ele>
        <time>2020-02-06T10:11:56Z</time>
      </trkpt>
      <trkpt lat="46.18829" lon="6.56805">
        <ele>1430.58</ele>
        <time>2020-02-06T10:12:10Z</time>
      </trkpt>
      <trkpt lat="46.18817" lon="6.5681">
        <ele>1432.02</ele>
        <time>2020-02-06T10:12:24Z</time>
      </trkpt>
      <trkpt lat="46.18811" lon="6.56811">
        <ele>1432.98</ele>
        <time>2020-02-06T10:12:35Z</time>
      </trkpt>
      <trkpt lat="46.18805" lon="6.56816">
        <ele>1433.94</ele>
        <time>2020-02-06T10:12:50Z</time>
      </trkpt>
      <trkpt lat="46.18795" lon="6.56823">
        <ele>1436.35</ele>
        <time>2020-02-06T10:13:05Z</time>
      </trkpt>
      <trkpt lat="46.18791" lon="6.56828">
        <ele>1438.27</ele>
        <time>2020-02-06T10:13:20Z</time>
      </trkpt>
      <trkpt lat="46.18784" lon="6.56831">
        <ele>1440.19</ele>
        <time>2020-02-06T10:13:34Z</time>
      </trkpt>
      <trkpt lat="46.1878" lon="6.56832">
        <ele>1440.67</ele>
        <time>2020-02-06T10:14:21Z</time>
      </trkpt>
      <trkpt lat="46.18771" lon="6.56841">
        <ele>1440.67</ele>
        <time>2020-02-06T10:14:34Z</time>
      </trkpt>
      <trkpt lat="46.18762" lon="6.56847">
        <ele>1442.11</ele>
        <time>2020-02-06T10:14:48Z</time>
      </trkpt>
      <trkpt lat="46.18749" lon="6.56855">
        <ele>1444.04</ele>
        <time>2020-02-06T10:15:04Z</time>
      </trkpt>
      <trkpt lat="46.18736" lon="6.56853">
        <ele>1442.6</ele>
        <time>2020-02-06T10:15:20Z</time>
      </trkpt>
      <trkpt lat="46.18726" lon="6.5685">
        <ele>1443.08</ele>
        <time>2020-02-06T10:15:31Z</time>
      </trkpt>
      <trkpt lat="46.18716" lon="6.56844">
        <ele>1442.6</ele>
        <time>2020-02-06T10:15:43Z</time>
      </trkpt>
      <trkpt lat="46.18704" lon="6.56847">
        <ele>1443.56</ele>
        <time>2020-02-06T10:15:58Z</time>
      </trkpt>
      <trkpt lat="46.18697" lon="6.56852">
        <ele>1445</ele>
        <time>2020-02-06T10:16:12Z</time>
      </trkpt>
      <trkpt lat="46.18693" lon="6.56855">
        <ele>1445.96</ele>
        <time>2020-02-06T10:16:24Z</time>
      </trkpt>
      <trkpt lat="46.18688" lon="6.56858">
        <ele>1445.96</ele>
        <time>2020-02-06T10:16:38Z</time>
      </trkpt>
      <trkpt lat="46.18687" lon="6.56859">
        <ele>1446.44</ele>
        <time>2020-02-06T10:17:08Z</time>
      </trkpt>
      <trkpt lat="46.18687" lon="6.5686">
        <ele>1446.44</ele>
        <time>2020-02-06T10:17:46Z</time>
      </trkpt>
      <trkpt lat="46.18686" lon="6.5686">
        <ele>1446.44</ele>
        <time>2020-02-06T10:18:29Z</time>
      </trkpt>
      <trkpt lat="46.18686" lon="6.5686">
        <ele>1446.92</ele>
        <time>2020-02-06T10:19:43Z</time>
      </trkpt>
      <trkpt lat="46.18686" lon="6.5686">
        <ele>1445.96</ele>
        <time>2020-02-06T10:19:44Z</time>
      </trkpt>
      <trkpt lat="46.18686" lon="6.5686">
        <ele>1446.92</ele>
        <time>2020-02-06T10:20:52Z</time>
      </trkpt>
      <trkpt lat="46.18684" lon="6.56861">
        <ele>1446.92</ele>
        <time>2020-02-06T10:22:29Z</time>
      </trkpt>
      <trkpt lat="46.18681" lon="6.56864">
        <ele>1447.4</ele>
        <time>2020-02-06T10:23:40Z</time>
      </trkpt>
      <trkpt lat="46.18675" lon="6.5687">
        <ele>1448.84</ele>
        <time>2020-02-06T10:23:53Z</time>
      </trkpt>
      <trkpt lat="46.18667" lon="6.56874">
        <ele>1448.36</ele>
        <time>2020-02-06T10:24:03Z</time>
      </trkpt>
      <trkpt lat="46.1866" lon="6.56884">
        <ele>1449.81</ele>
        <time>2020-02-06T10:24:15Z</time>
      </trkpt>
      <trkpt lat="46.18652" lon="6.56878">
        <ele>1450.29</ele>
        <time>2020-02-06T10:24:26Z</time>
      </trkpt>
      <trkpt lat="46.18643" lon="6.56871">
        <ele>1450.29</ele>
        <time>2020-02-06T10:24:40Z</time>
      </trkpt>
      <trkpt lat="46.18635" lon="6.56872">
        <ele>1449.81</ele>
        <time>2020-02-06T10:24:55Z</time>
      </trkpt>
      <trkpt lat="46.18632" lon="6.56863">
        <ele>1448.36</ele>
        <time>2020-02-06T10:25:07Z</time>
      </trkpt>
      <trkpt lat="46.18634" lon="6.56853">
        <ele>1447.4</ele>
        <time>2020-02-06T10:25:19Z</time>
      </trkpt>
      <trkpt lat="46.18631" lon="6.56847">
        <ele>1447.88</ele>
        <time>2020-02-06T10:25:31Z</time>
      </trkpt>
      <trkpt lat="46.18621" lon="6.56839">
        <ele>1448.36</ele>
        <time>2020-02-06T10:25:43Z</time>
      </trkpt>
      <trkpt lat="46.1862" lon="6.56839">
        <ele>1448.36</ele>
        <time>2020-02-06T10:25:46Z</time>
      </trkpt>
      <trkpt lat="46.18616" lon="6.56837">
        <ele>1449.32</ele>
        <time>2020-02-06T10:25:52Z</time>
      </trkpt>
      <trkpt lat="46.18613" lon="6.56835">
        <ele>1449.81</ele>
        <time>2020-02-06T10:25:56Z</time>
      </trkpt>
      <trkpt lat="46.18603" lon="6.56829">
        <ele>1450.29</ele>
        <time>2020-02-06T10:26:09Z</time>
      </trkpt>
      <trkpt lat="46.18594" lon="6.56825">
        <ele>1450.29</ele>
        <time>2020-02-06T10:26:21Z</time>
      </trkpt>
      <trkpt lat="46.18585" lon="6.56826">
        <ele>1451.25</ele>
        <time>2020-02-06T10:26:34Z</time>
      </trkpt>
      <trkpt lat="46.18575" lon="6.56825">
        <ele>1453.17</ele>
        <time>2020-02-06T10:26:48Z</time>
      </trkpt>
      <trkpt lat="46.1857" lon="6.56822">
        <ele>1454.13</ele>
        <time>2020-02-06T10:26:59Z</time>
      </trkpt>
      <trkpt lat="46.18563" lon="6.56811">
        <ele>1456.53</ele>
        <time>2020-02-06T10:27:13Z</time>
      </trkpt>
      <trkpt lat="46.18562" lon="6.56805">
        <ele>1457.5</ele>
        <time>2020-02-06T10:27:25Z</time>
      </trkpt>
      <trkpt lat="46.18561" lon="6.56799">
        <ele>1459.42</ele>
        <time>2020-02-06T10:27:38Z</time>
      </trkpt>
      <trkpt lat="46.18559" lon="6.56792">
        <ele>1461.34</ele>
        <time>2020-02-06T10:27:51Z</time>
      </trkpt>
      <trkpt lat="46.1856" lon="6.56779">
        <ele>1463.26</ele>
        <time>2020-02-06T10:28:02Z</time>
      </trkpt>
      <trkpt lat="46.18557" lon="6.56773">
        <ele>1465.19</ele>
        <time>2020-02-06T10:28:17Z</time>
      </trkpt>
      <trkpt lat="46.18554" lon="6.56767">
        <ele>1468.55</ele>
        <time>2020-02-06T10:28:32Z</time>
      </trkpt>
      <trkpt lat="46.18559" lon="6.56763">
        <ele>1470.47</ele>
        <time>2020-02-06T10:28:50Z</time>
      </trkpt>
      <trkpt lat="46.18562" lon="6.56758">
        <ele>1472.88</ele>
        <time>2020-02-06T10:29:05Z</time>
      </trkpt>
      <trkpt lat="46.18567" lon="6.56751">
        <ele>1475.28</ele>
        <time>2020-02-06T10:29:17Z</time>
      </trkpt>
      <trkpt lat="46.18564" lon="6.56745">
        <ele>1476.72</ele>
        <time>2020-02-06T10:29:31Z</time>
      </trkpt>
      <trkpt lat="46.1856" lon="6.56743">
        <ele>1478.16</ele>
        <time>2020-02-06T10:29:47Z</time>
      </trkpt>
      <trkpt lat="46.18559" lon="6.56741">
        <ele>1479.61</ele>
        <time>2020-02-06T10:29:58Z</time>
      </trkpt>
      <trkpt lat="46.18552" lon="6.56735">
        <ele>1481.53</ele>
        <time>2020-02-06T10:30:13Z</time>
      </trkpt>
      <trkpt lat="46.18548" lon="6.56729">
        <ele>1483.45</ele>
        <time>2020-02-06T10:30:28Z</time>
      </trkpt>
      <trkpt lat="46.18545" lon="6.56724">
        <ele>1485.37</ele>
        <time>2020-02-06T10:30:41Z</time>
      </trkpt>
      <trkpt lat="46.18544" lon="6.56718">
        <ele>1487.3</ele>
        <time>2020-02-06T10:30:58Z</time>
      </trkpt>
      <trkpt lat="46.18541" lon="6.56709">
        <ele>1490.18</ele>
        <time>2020-02-06T10:31:12Z</time>
      </trkpt>
      <trkpt lat="46.18533" lon="6.56702">
        <ele>1490.66</ele>
        <time>2020-02-06T10:31:24Z</time>
      </trkpt>
      <trkpt lat="46.18524" lon="6.56694">
        <ele>1492.58</ele>
        <time>2020-02-06T10:31:38Z</time>
      </trkpt>
      <trkpt lat="46.18517" lon="6.56695">
        <ele>1493.06</ele>
        <time>2020-02-06T10:31:51Z</time>
      </trkpt>
      <trkpt lat="46.1851" lon="6.56689">
        <ele>1493.06</ele>
        <time>2020-02-06T10:32:05Z</time>
      </trkpt>
      <trkpt lat="46.18508" lon="6.56688">
        <ele>1494.03</ele>
        <time>2020-02-06T10:32:24Z</time>
      </trkpt>
      <trkpt lat="46.18507" lon="6.56684">
        <ele>1494.03</ele>
        <time>2020-02-06T10:33:55Z</time>
      </trkpt>
      <trkpt lat="46.18506" lon="6.56684">
        <ele>1494.03</ele>
        <time>2020-02-06T10:34:14Z</time>
      </trkpt>
      <trkpt lat="46.18506" lon="6.56684">
        <ele>1494.03</ele>
        <time>2020-02-06T10:35:37Z</time>
      </trkpt>
      <trkpt lat="46.18506" lon="6.56685">
        <ele>1493.55</ele>
        <time>2020-02-06T10:36:55Z</time>
      </trkpt>
      <trkpt lat="46.18508" lon="6.56682">
        <ele>1494.03</ele>
        <time>2020-02-06T10:38:47Z</time>
      </trkpt>
      <trkpt lat="46.18503" lon="6.56676">
        <ele>1494.99</ele>
        <time>2020-02-06T10:39:07Z</time>
      </trkpt>
      <trkpt lat="46.185" lon="6.56669">
        <ele>1495.47</ele>
        <time>2020-02-06T10:39:19Z</time>
      </trkpt>
      <trkpt lat="46.18496" lon="6.56663">
        <ele>1496.43</ele>
        <time>2020-02-06T10:39:31Z</time>
      </trkpt>
      <trkpt lat="46.18492" lon="6.56662">
        <ele>1495.95</ele>
        <time>2020-02-06T10:39:40Z</time>
      </trkpt>
      <trkpt lat="46.18491" lon="6.56662">
        <ele>1496.91</ele>
        <time>2020-02-06T10:39:52Z</time>
      </trkpt>
      <trkpt lat="46.18486" lon="6.5665">
        <ele>1498.83</ele>
        <time>2020-02-06T10:40:06Z</time>
      </trkpt>
      <trkpt lat="46.1848" lon="6.56639">
        <ele>1500.76</ele>
        <time>2020-02-06T10:40:19Z</time>
      </trkpt>
      <trkpt lat="46.18478" lon="6.56631">
        <ele>1502.2</ele>
        <time>2020-02-06T10:40:31Z</time>
      </trkpt>
      <trkpt lat="46.18472" lon="6.5662">
        <ele>1503.16</ele>
        <time>2020-02-06T10:40:43Z</time>
      </trkpt>
      <trkpt lat="46.18471" lon="6.56619">
        <ele>1503.64</ele>
        <time>2020-02-06T10:40:44Z</time>
      </trkpt>
      <trkpt lat="46.18464" lon="6.56612">
        <ele>1504.12</ele>
        <time>2020-02-06T10:40:56Z</time>
      </trkpt>
      <trkpt lat="46.18459" lon="6.56603">
        <ele>1505.08</ele>
        <time>2020-02-06T10:41:10Z</time>
      </trkpt>
      <trkpt lat="46.18452" lon="6.56592">
        <ele>1506.04</ele>
        <time>2020-02-06T10:41:24Z</time>
      </trkpt>
      <trkpt lat="46.18444" lon="6.56581">
        <ele>1507.97</ele>
        <time>2020-02-06T10:41:39Z</time>
      </trkpt>
      <trkpt lat="46.18442" lon="6.56573">
        <ele>1509.41</ele>
        <time>2020-02-06T10:41:53Z</time>
      </trkpt>
      <trkpt lat="46.18437" lon="6.56567">
        <ele>1510.85</ele>
        <time>2020-02-06T10:42:05Z</time>
      </trkpt>
      <trkpt lat="46.18434" lon="6.56562">
        <ele>1512.77</ele>
        <time>2020-02-06T10:42:19Z</time>
      </trkpt>
      <trkpt lat="46.18428" lon="6.56556">
        <ele>1514.69</ele>
        <time>2020-02-06T10:42:33Z</time>
      </trkpt>
      <trkpt lat="46.18423" lon="6.56554">
        <ele>1515.66</ele>
        <time>2020-02-06T10:42:44Z</time>
      </trkpt>
      <trkpt lat="46.1842" lon="6.56551">
        <ele>1517.58</ele>
        <time>2020-02-06T10:42:59Z</time>
      </trkpt>
      <trkpt lat="46.18416" lon="6.56544">
        <ele>1519.02</ele>
        <time>2020-02-06T10:43:13Z</time>
      </trkpt>
      <trkpt lat="46.18419" lon="6.5653">
        <ele>1520.94</ele>
        <time>2020-02-06T10:43:25Z</time>
      </trkpt>
      <trkpt lat="46.18422" lon="6.56524">
        <ele>1522.87</ele>
        <time>2020-02-06T10:43:40Z</time>
      </trkpt>
      <trkpt lat="46.18424" lon="6.56517">
        <ele>1525.75</ele>
        <time>2020-02-06T10:43:57Z</time>
      </trkpt>
      <trkpt lat="46.18426" lon="6.56508">
        <ele>1527.19</ele>
        <time>2020-02-06T10:44:11Z</time>
      </trkpt>
      <trkpt lat="46.1843" lon="6.56501">
        <ele>1529.11</ele>
        <time>2020-02-06T10:44:26Z</time>
      </trkpt>
      <trkpt lat="46.1843" lon="6.56491">
        <ele>1531.04</ele>
        <time>2020-02-06T10:44:40Z</time>
      </trkpt>
      <trkpt lat="46.18426" lon="6.56486">
        <ele>1532</ele>
        <time>2020-02-06T10:44:54Z</time>
      </trkpt>
      <trkpt lat="46.1842" lon="6.56486">
        <ele>1533.92</ele>
        <time>2020-02-06T10:45:07Z</time>
      </trkpt>
      <trkpt lat="46.18415" lon="6.56484">
        <ele>1535.84</ele>
        <time>2020-02-06T10:45:19Z</time>
      </trkpt>
      <trkpt lat="46.18406" lon="6.56483">
        <ele>1536.8</ele>
        <time>2020-02-06T10:45:35Z</time>
      </trkpt>
      <trkpt lat="46.18404" lon="6.5648">
        <ele>1539.21</ele>
        <time>2020-02-06T10:45:47Z</time>
      </trkpt>
      <trkpt lat="46.18397" lon="6.56477">
        <ele>1540.65</ele>
        <time>2020-02-06T10:46:01Z</time>
      </trkpt>
      <trkpt lat="46.18392" lon="6.56476">
        <ele>1541.61</ele>
        <time>2020-02-06T10:46:13Z</time>
      </trkpt>
      <trkpt lat="46.18382" lon="6.56474">
        <ele>1543.53</ele>
        <time>2020-02-06T10:46:27Z</time>
      </trkpt>
      <trkpt lat="46.18376" lon="6.56463">
        <ele>1544.98</ele>
        <time>2020-02-06T10:46:40Z</time>
      </trkpt>
      <trkpt lat="46.18376" lon="6.56455">
        <ele>1546.42</ele>
        <time>2020-02-06T10:46:52Z</time>
      </trkpt>
      <trkpt lat="46.18372" lon="6.56446">
        <ele>1546.9</ele>
        <time>2020-02-06T10:47:03Z</time>
      </trkpt>
      <trkpt lat="46.18367" lon="6.56442">
        <ele>1548.82</ele>
        <time>2020-02-06T10:47:16Z</time>
      </trkpt>
      <trkpt lat="46.18362" lon="6.56435">
        <ele>1550.74</ele>
        <time>2020-02-06T10:47:30Z</time>
      </trkpt>
      <trkpt lat="46.1836" lon="6.56431">
        <ele>1551.22</ele>
        <time>2020-02-06T10:47:42Z</time>
      </trkpt>
      <trkpt lat="46.18356" lon="6.56427">
        <ele>1552.67</ele>
        <time>2020-02-06T10:47:55Z</time>
      </trkpt>
      <trkpt lat="46.18357" lon="6.56426">
        <ele>1550.74</ele>
        <time>2020-02-06T10:48:17Z</time>
      </trkpt>
      <trkpt lat="46.18358" lon="6.56425">
        <ele>1552.67</ele>
        <time>2020-02-06T10:49:35Z</time>
      </trkpt>
      <trkpt lat="46.18358" lon="6.56425">
        <ele>1551.71</ele>
        <time>2020-02-06T10:50:21Z</time>
      </trkpt>
      <trkpt lat="46.18354" lon="6.56427">
        <ele>1552.19</ele>
        <time>2020-02-06T10:50:54Z</time>
      </trkpt>
      <trkpt lat="46.1835" lon="6.56423">
        <ele>1553.63</ele>
        <time>2020-02-06T10:51:07Z</time>
      </trkpt>
      <trkpt lat="46.18345" lon="6.56426">
        <ele>1555.55</ele>
        <time>2020-02-06T10:51:19Z</time>
      </trkpt>
      <trkpt lat="46.1834" lon="6.56432">
        <ele>1556.99</ele>
        <time>2020-02-06T10:51:31Z</time>
      </trkpt>
      <trkpt lat="46.18339" lon="6.56435">
        <ele>1557.95</ele>
        <time>2020-02-06T10:51:45Z</time>
      </trkpt>
      <trkpt lat="46.18334" lon="6.56441">
        <ele>1559.4</ele>
        <time>2020-02-06T10:52:00Z</time>
      </trkpt>
      <trkpt lat="46.18331" lon="6.56447">
        <ele>1561.32</ele>
        <time>2020-02-06T10:52:13Z</time>
      </trkpt>
      <trkpt lat="46.18327" lon="6.56454">
        <ele>1562.28</ele>
        <time>2020-02-06T10:52:24Z</time>
      </trkpt>
      <trkpt lat="46.18326" lon="6.56456">
        <ele>1562.28</ele>
        <time>2020-02-06T10:52:26Z</time>
      </trkpt>
      <trkpt lat="46.18317" lon="6.56454">
        <ele>1563.72</ele>
        <time>2020-02-06T10:52:39Z</time>
      </trkpt>
      <trkpt lat="46.18308" lon="6.56449">
        <ele>1565.16</ele>
        <time>2020-02-06T10:52:52Z</time>
      </trkpt>
      <trkpt lat="46.18299" lon="6.5645">
        <ele>1565.16</ele>
        <time>2020-02-06T10:53:04Z</time>
      </trkpt>
      <trkpt lat="46.18293" lon="6.56451">
        <ele>1567.09</ele>
        <time>2020-02-06T10:53:14Z</time>
      </trkpt>
      <trkpt lat="46.18289" lon="6.56452">
        <ele>1567.57</ele>
        <time>2020-02-06T10:53:19Z</time>
      </trkpt>
      <trkpt lat="46.1828" lon="6.56449">
        <ele>1568.53</ele>
        <time>2020-02-06T10:53:32Z</time>
      </trkpt>
      <trkpt lat="46.18273" lon="6.56441">
        <ele>1569.97</ele>
        <time>2020-02-06T10:53:45Z</time>
      </trkpt>
      <trkpt lat="46.18268" lon="6.56438">
        <ele>1570.93</ele>
        <time>2020-02-06T10:53:57Z</time>
      </trkpt>
      <trkpt lat="46.18262" lon="6.56432">
        <ele>1572.37</ele>
        <time>2020-02-06T10:54:08Z</time>
      </trkpt>
      <trkpt lat="46.18258" lon="6.56426">
        <ele>1572.85</ele>
        <time>2020-02-06T10:54:21Z</time>
      </trkpt>
      <trkpt lat="46.18254" lon="6.56421">
        <ele>1574.3</ele>
        <time>2020-02-06T10:54:33Z</time>
      </trkpt>
      <trkpt lat="46.1825" lon="6.56417">
        <ele>1575.74</ele>
        <time>2020-02-06T10:54:46Z</time>
      </trkpt>
      <trkpt lat="46.18251" lon="6.56411">
        <ele>1576.22</ele>
        <time>2020-02-06T10:54:52Z</time>
      </trkpt>
      <trkpt lat="46.18254" lon="6.56406">
        <ele>1576.7</ele>
        <time>2020-02-06T10:55:05Z</time>
      </trkpt>
      <trkpt lat="46.18256" lon="6.56402">
        <ele>1577.66</ele>
        <time>2020-02-06T10:55:23Z</time>
      </trkpt>
      <trkpt lat="46.18261" lon="6.56397">
        <ele>1578.62</ele>
        <time>2020-02-06T10:55:35Z</time>
      </trkpt>
      <trkpt lat="46.18268" lon="6.56388">
        <ele>1579.58</ele>
        <time>2020-02-06T10:55:47Z</time>
      </trkpt>
      <trkpt lat="46.18273" lon="6.56377">
        <ele>1581.03</ele>
        <time>2020-02-06T10:55:59Z</time>
      </trkpt>
      <trkpt lat="46.18273" lon="6.56371">
        <ele>1581.99</ele>
        <time>2020-02-06T10:56:09Z</time>
      </trkpt>
      <trkpt lat="46.1827" lon="6.56366">
        <ele>1582.95</ele>
        <time>2020-02-06T10:56:20Z</time>
      </trkpt>
      <trkpt lat="46.18265" lon="6.56362">
        <ele>1584.39</ele>
        <time>2020-02-06T10:56:31Z</time>
      </trkpt>
      <trkpt lat="46.18261" lon="6.56354">
        <ele>1584.87</ele>
        <time>2020-02-06T10:56:41Z</time>
      </trkpt>
      <trkpt lat="46.18257" lon="6.56345">
        <ele>1585.83</ele>
        <time>2020-02-06T10:56:53Z</time>
      </trkpt>
      <trkpt lat="46.18253" lon="6.56339">
        <ele>1585.83</ele>
        <time>2020-02-06T10:57:04Z</time>
      </trkpt>
      <trkpt lat="46.18254" lon="6.56338">
        <ele>1586.79</ele>
        <time>2020-02-06T10:58:29Z</time>
      </trkpt>
      <trkpt lat="46.18254" lon="6.56337">
        <ele>1586.79</ele>
        <time>2020-02-06T10:58:47Z</time>
      </trkpt>
      <trkpt lat="46.18253" lon="6.56337">
        <ele>1586.79</ele>
        <time>2020-02-06T11:01:02Z</time>
      </trkpt>
      <trkpt lat="46.18253" lon="6.5633">
        <ele>1586.31</ele>
        <time>2020-02-06T11:02:14Z</time>
      </trkpt>
      <trkpt lat="46.18252" lon="6.56329">
        <ele>1585.83</ele>
        <time>2020-02-06T11:03:08Z</time>
      </trkpt>
      <trkpt lat="46.18249" lon="6.56326">
        <ele>1587.75</ele>
        <time>2020-02-06T11:03:36Z</time>
      </trkpt>
      <trkpt lat="46.18247" lon="6.56323">
        <ele>1588.24</ele>
        <time>2020-02-06T11:03:40Z</time>
      </trkpt>
      <trkpt lat="46.1824" lon="6.56313">
        <ele>1587.75</ele>
        <time>2020-02-06T11:03:52Z</time>
      </trkpt>
      <trkpt lat="46.18238" lon="6.5631">
        <ele>1588.24</ele>
        <time>2020-02-06T11:03:56Z</time>
      </trkpt>
      <trkpt lat="46.18231" lon="6.56302">
        <ele>1589.2</ele>
        <time>2020-02-06T11:04:08Z</time>
      </trkpt>
      <trkpt lat="46.18228" lon="6.563">
        <ele>1589.2</ele>
        <time>2020-02-06T11:04:12Z</time>
      </trkpt>
      <trkpt lat="46.18219" lon="6.56293">
        <ele>1589.2</ele>
        <time>2020-02-06T11:04:26Z</time>
      </trkpt>
      <trkpt lat="46.18212" lon="6.56288">
        <ele>1589.2</ele>
        <time>2020-02-06T11:04:45Z</time>
      </trkpt>
      <trkpt lat="46.18203" lon="6.56284">
        <ele>1589.2</ele>
        <time>2020-02-06T11:04:57Z</time>
      </trkpt>
      <trkpt lat="46.18195" lon="6.56278">
        <ele>1590.64</ele>
        <time>2020-02-06T11:05:11Z</time>
      </trkpt>
      <trkpt lat="46.18189" lon="6.5627">
        <ele>1592.08</ele>
        <time>2020-02-06T11:05:24Z</time>
      </trkpt>
      <trkpt lat="46.18183" lon="6.56264">
        <ele>1593.52</ele>
        <time>2020-02-06T11:05:38Z</time>
      </trkpt>
      <trkpt lat="46.18174" lon="6.56263">
        <ele>1595.45</ele>
        <time>2020-02-06T11:05:51Z</time>
      </trkpt>
      <trkpt lat="46.18173" lon="6.56264">
        <ele>1595.93</ele>
        <time>2020-02-06T11:05:52Z</time>
      </trkpt>
      <trkpt lat="46.18165" lon="6.56264">
        <ele>1597.37</ele>
        <time>2020-02-06T11:06:06Z</time>
      </trkpt>
      <trkpt lat="46.18157" lon="6.56264">
        <ele>1597.85</ele>
        <time>2020-02-06T11:06:21Z</time>
      </trkpt>
      <trkpt lat="46.18151" lon="6.56262">
        <ele>1598.81</ele>
        <time>2020-02-06T11:06:32Z</time>
      </trkpt>
      <trkpt lat="46.18142" lon="6.56263">
        <ele>1599.77</ele>
        <time>2020-02-06T11:06:46Z</time>
      </trkpt>
      <trkpt lat="46.18137" lon="6.56262">
        <ele>1601.21</ele>
        <time>2020-02-06T11:06:58Z</time>
      </trkpt>
      <trkpt lat="46.18134" lon="6.56256">
        <ele>1601.69</ele>
        <time>2020-02-06T11:07:11Z</time>
      </trkpt>
      <trkpt lat="46.18132" lon="6.56255">
        <ele>1603.14</ele>
        <time>2020-02-06T11:07:22Z</time>
      </trkpt>
      <trkpt lat="46.18131" lon="6.5625">
        <ele>1604.1</ele>
        <time>2020-02-06T11:07:32Z</time>
      </trkpt>
      <trkpt lat="46.18127" lon="6.56243">
        <ele>1606.02</ele>
        <time>2020-02-06T11:07:46Z</time>
      </trkpt>
      <trkpt lat="46.18124" lon="6.56238">
        <ele>1607.46</ele>
        <time>2020-02-06T11:07:59Z</time>
      </trkpt>
      <trkpt lat="46.18122" lon="6.56239">
        <ele>1608.9</ele>
        <time>2020-02-06T11:08:11Z</time>
      </trkpt>
      <trkpt lat="46.18122" lon="6.56239">
        <ele>1608.42</ele>
        <time>2020-02-06T11:09:04Z</time>
      </trkpt>
      <trkpt lat="46.1812" lon="6.56241">
        <ele>1608.42</ele>
        <time>2020-02-06T11:09:21Z</time>
      </trkpt>
      <trkpt lat="46.18114" lon="6.5625">
        <ele>1608.42</ele>
        <time>2020-02-06T11:09:32Z</time>
      </trkpt>
      <trkpt lat="46.18103" lon="6.56256">
        <ele>1608.9</ele>
        <time>2020-02-06T11:09:44Z</time>
      </trkpt>
      <trkpt lat="46.18092" lon="6.56255">
        <ele>1609.38</ele>
        <time>2020-02-06T11:09:56Z</time>
      </trkpt>
      <trkpt lat="46.18083" lon="6.56253">
        <ele>1610.83</ele>
        <time>2020-02-06T11:10:10Z</time>
      </trkpt>
      <trkpt lat="46.18075" lon="6.5625">
        <ele>1611.79</ele>
        <time>2020-02-06T11:10:24Z</time>
      </trkpt>
      <trkpt lat="46.18072" lon="6.56242">
        <ele>1612.27</ele>
        <time>2020-02-06T11:10:35Z</time>
      </trkpt>
      <trkpt lat="46.18069" lon="6.56235">
        <ele>1613.23</ele>
        <time>2020-02-06T11:10:47Z</time>
      </trkpt>
      <trkpt lat="46.18063" lon="6.56229">
        <ele>1615.63</ele>
        <time>2020-02-06T11:11:00Z</time>
      </trkpt>
      <trkpt lat="46.18056" lon="6.56226">
        <ele>1616.11</ele>
        <time>2020-02-06T11:11:12Z</time>
      </trkpt>
      <trkpt lat="46.18055" lon="6.56219">
        <ele>1617.56</ele>
        <time>2020-02-06T11:11:26Z</time>
      </trkpt>
      <trkpt lat="46.18058" lon="6.56208">
        <ele>1619</ele>
        <time>2020-02-06T11:11:39Z</time>
      </trkpt>
      <trkpt lat="46.18054" lon="6.56202">
        <ele>1619.48</ele>
        <time>2020-02-06T11:11:50Z</time>
      </trkpt>
      <trkpt lat="46.18049" lon="6.56196">
        <ele>1620.92</ele>
        <time>2020-02-06T11:12:03Z</time>
      </trkpt>
      <trkpt lat="46.18041" lon="6.56188">
        <ele>1622.36</ele>
        <time>2020-02-06T11:12:18Z</time>
      </trkpt>
      <trkpt lat="46.18035" lon="6.56181">
        <ele>1623.32</ele>
        <time>2020-02-06T11:12:32Z</time>
      </trkpt>
      <trkpt lat="46.18029" lon="6.56174">
        <ele>1625.25</ele>
        <time>2020-02-06T11:12:46Z</time>
      </trkpt>
      <trkpt lat="46.18025" lon="6.56165">
        <ele>1626.21</ele>
        <time>2020-02-06T11:13:00Z</time>
      </trkpt>
      <trkpt lat="46.18022" lon="6.5616">
        <ele>1627.65</ele>
        <time>2020-02-06T11:13:12Z</time>
      </trkpt>
      <trkpt lat="46.18018" lon="6.56153">
        <ele>1629.09</ele>
        <time>2020-02-06T11:13:23Z</time>
      </trkpt>
      <trkpt lat="46.18015" lon="6.56148">
        <ele>1630.05</ele>
        <time>2020-02-06T11:13:34Z</time>
      </trkpt>
      <trkpt lat="46.18018" lon="6.56138">
        <ele>1631.01</ele>
        <time>2020-02-06T11:13:48Z</time>
      </trkpt>
      <trkpt lat="46.18024" lon="6.56131">
        <ele>1632.46</ele>
        <time>2020-02-06T11:14:00Z</time>
      </trkpt>
      <trkpt lat="46.1803" lon="6.56123">
        <ele>1633.9</ele>
        <time>2020-02-06T11:14:12Z</time>
      </trkpt>
      <trkpt lat="46.18032" lon="6.56116">
        <ele>1635.34</ele>
        <time>2020-02-06T11:14:22Z</time>
      </trkpt>
      <trkpt lat="46.18027" lon="6.56107">
        <ele>1635.82</ele>
        <time>2020-02-06T11:14:34Z</time>
      </trkpt>
      <trkpt lat="46.18023" lon="6.56098">
        <ele>1637.26</ele>
        <time>2020-02-06T11:14:47Z</time>
      </trkpt>
      <trkpt lat="46.18019" lon="6.5609">
        <ele>1637.26</ele>
        <time>2020-02-06T11:14:58Z</time>
      </trkpt>
      <trkpt lat="46.18013" lon="6.56085">
        <ele>1638.7</ele>
        <time>2020-02-06T11:15:10Z</time>
      </trkpt>
      <trkpt lat="46.18008" lon="6.56077">
        <ele>1639.19</ele>
        <time>2020-02-06T11:15:22Z</time>
      </trkpt>
      <trkpt lat="46.18" lon="6.56071">
        <ele>1641.59</ele>
        <time>2020-02-06T11:15:36Z</time>
      </trkpt>
      <trkpt lat="46.17997" lon="6.56062">
        <ele>1642.55</ele>
        <time>2020-02-06T11:15:48Z</time>
      </trkpt>
      <trkpt lat="46.17997" lon="6.56059">
        <ele>1642.07</ele>
        <time>2020-02-06T11:15:52Z</time>
      </trkpt>
      <trkpt lat="46.18002" lon="6.56051">
        <ele>1643.51</ele>
        <time>2020-02-06T11:16:03Z</time>
      </trkpt>
      <trkpt lat="46.17996" lon="6.56045">
        <ele>1643.99</ele>
        <time>2020-02-06T11:16:15Z</time>
      </trkpt>
      <trkpt lat="46.1799" lon="6.56041">
        <ele>1646.4</ele>
        <time>2020-02-06T11:16:28Z</time>
      </trkpt>
      <trkpt lat="46.17989" lon="6.5603">
        <ele>1647.36</ele>
        <time>2020-02-06T11:16:41Z</time>
      </trkpt>
      <trkpt lat="46.17991" lon="6.56025">
        <ele>1647.36</ele>
        <time>2020-02-06T11:16:56Z</time>
      </trkpt>
      <trkpt lat="46.17991" lon="6.56025">
        <ele>1648.32</ele>
        <time>2020-02-06T11:17:15Z</time>
      </trkpt>
      <trkpt lat="46.17991" lon="6.56023">
        <ele>1647.84</ele>
        <time>2020-02-06T11:19:40Z</time>
      </trkpt>
      <trkpt lat="46.17995" lon="6.56013">
        <ele>1647.84</ele>
        <time>2020-02-06T11:20:25Z</time>
      </trkpt>
      <trkpt lat="46.17999" lon="6.55994">
        <ele>1646.88</ele>
        <time>2020-02-06T11:20:39Z</time>
      </trkpt>
      <trkpt lat="46.18" lon="6.55979">
        <ele>1648.32</ele>
        <time>2020-02-06T11:20:52Z</time>
      </trkpt>
      <trkpt lat="46.18001" lon="6.55966">
        <ele>1648.32</ele>
        <time>2020-02-06T11:21:03Z</time>
      </trkpt>
      <trkpt lat="46.18003" lon="6.55951">
        <ele>1649.76</ele>
        <time>2020-02-06T11:21:16Z</time>
      </trkpt>
      <trkpt lat="46.18004" lon="6.55938">
        <ele>1650.24</ele>
        <time>2020-02-06T11:21:27Z</time>
      </trkpt>
      <trkpt lat="46.18004" lon="6.55927">
        <ele>1651.2</ele>
        <time>2020-02-06T11:21:38Z</time>
      </trkpt>
      <trkpt lat="46.18005" lon="6.55921">
        <ele>1652.16</ele>
        <time>2020-02-06T11:21:48Z</time>
      </trkpt>
      <trkpt lat="46.18005" lon="6.55912">
        <ele>1653.12</ele>
        <time>2020-02-06T11:22:00Z</time>
      </trkpt>
      <trkpt lat="46.18008" lon="6.55902">
        <ele>1654.09</ele>
        <time>2020-02-06T11:22:12Z</time>
      </trkpt>
      <trkpt lat="46.18011" lon="6.55895">
        <ele>1655.05</ele>
        <time>2020-02-06T11:22:24Z</time>
      </trkpt>
      <trkpt lat="46.18013" lon="6.55892">
        <ele>1654.57</ele>
        <time>2020-02-06T11:22:37Z</time>
      </trkpt>
      <trkpt lat="46.18014" lon="6.55893">
        <ele>1655.53</ele>
        <time>2020-02-06T11:23:05Z</time>
      </trkpt>
      <trkpt lat="46.18014" lon="6.55894">
        <ele>1655.05</ele>
        <time>2020-02-06T11:23:36Z</time>
      </trkpt>
      <trkpt lat="46.18014" lon="6.55894">
        <ele>1655.05</ele>
        <time>2020-02-06T11:23:59Z</time>
      </trkpt>
      <trkpt lat="46.18014" lon="6.55894">
        <ele>1653.6</ele>
        <time>2020-02-06T11:24:31Z</time>
      </trkpt>
      <trkpt lat="46.18014" lon="6.55894">
        <ele>1654.09</ele>
        <time>2020-02-06T11:26:02Z</time>
      </trkpt>
      <trkpt lat="46.18015" lon="6.55894">
        <ele>1653.6</ele>
        <time>2020-02-06T11:26:58Z</time>
      </trkpt>
      <trkpt lat="46.18015" lon="6.55895">
        <ele>1654.09</ele>
        <time>2020-02-06T11:27:59Z</time>
      </trkpt>
      <trkpt lat="46.18016" lon="6.55895">
        <ele>1654.57</ele>
        <time>2020-02-06T11:29:49Z</time>
      </trkpt>
      <trkpt lat="46.18017" lon="6.55895">
        <ele>1654.57</ele>
        <time>2020-02-06T11:31:57Z</time>
      </trkpt>
      <trkpt lat="46.18018" lon="6.55891">
        <ele>1655.05</ele>
        <time>2020-02-06T11:32:29Z</time>
      </trkpt>
      <trkpt lat="46.18018" lon="6.55891">
        <ele>1654.57</ele>
        <time>2020-02-06T11:33:17Z</time>
      </trkpt>
      <trkpt lat="46.18018" lon="6.5589">
        <ele>1654.57</ele>
        <time>2020-02-06T11:34:24Z</time>
      </trkpt>
      <trkpt lat="46.18017" lon="6.5589">
        <ele>1654.57</ele>
        <time>2020-02-06T11:35:04Z</time>
      </trkpt>
      <trkpt lat="46.18017" lon="6.5589">
        <ele>1654.57</ele>
        <time>2020-02-06T11:36:50Z</time>
      </trkpt>
      <trkpt lat="46.18017" lon="6.55893">
        <ele>1654.57</ele>
        <time>2020-02-06T11:41:24Z</time>
      </trkpt>
      <trkpt lat="46.18017" lon="6.55891">
        <ele>1655.53</ele>
        <time>2020-02-06T11:42:34Z</time>
      </trkpt>
      <trkpt lat="46.18017" lon="6.55891">
        <ele>1655.05</ele>
        <time>2020-02-06T11:43:49Z</time>
      </trkpt>
      <trkpt lat="46.18017" lon="6.55891">
        <ele>1655.53</ele>
        <time>2020-02-06T11:45:14Z</time>
      </trkpt>
      <trkpt lat="46.18017" lon="6.55891">
        <ele>1656.01</ele>
        <time>2020-02-06T11:46:06Z</time>
      </trkpt>
      <trkpt lat="46.18017" lon="6.55891">
        <ele>1655.05</ele>
        <time>2020-02-06T11:47:25Z</time>
      </trkpt>
      <trkpt lat="46.18017" lon="6.55891">
        <ele>1655.53</ele>
        <time>2020-02-06T11:48:09Z</time>
      </trkpt>
      <trkpt lat="46.18017" lon="6.55895">
        <ele>1655.05</ele>
        <time>2020-02-06T11:48:28Z</time>
      </trkpt>
      <trkpt lat="46.18017" lon="6.55895">
        <ele>1655.05</ele>
        <time>2020-02-06T11:48:55Z</time>
      </trkpt>
      <trkpt lat="46.18017" lon="6.55895">
        <ele>1655.05</ele>
        <time>2020-02-06T11:49:47Z</time>
      </trkpt>
      <trkpt lat="46.18017" lon="6.55895">
        <ele>1655.05</ele>
        <time>2020-02-06T11:52:09Z</time>
      </trkpt>
      <trkpt lat="46.18017" lon="6.55895">
        <ele>1655.53</ele>
        <time>2020-02-06T11:52:45Z</time>
      </trkpt>
      <trkpt lat="46.18017" lon="6.55895">
        <ele>1654.57</ele>
        <time>2020-02-06T11:56:23Z</time>
      </trkpt>
      <trkpt lat="46.18017" lon="6.55896">
        <ele>1654.09</ele>
        <time>2020-02-06T11:58:39Z</time>
      </trkpt>
      <trkpt lat="46.18017" lon="6.55896">
        <ele>1653.6</ele>
        <time>2020-02-06T12:03:31Z</time>
      </trkpt>
      <trkpt lat="46.18017" lon="6.55895">
        <ele>1653.6</ele>
        <time>2020-02-06T12:04:20Z</time>
      </trkpt>
      <trkpt lat="46.18016" lon="6.55895">
        <ele>1653.6</ele>
        <time>2020-02-06T12:06:27Z</time>
      </trkpt>
      <trkpt lat="46.18016" lon="6.55897">
        <ele>1655.05</ele>
        <time>2020-02-06T12:08:47Z</time>
      </trkpt>
      <trkpt lat="46.18016" lon="6.55896">
        <ele>1655.53</ele>
        <time>2020-02-06T12:08:49Z</time>
      </trkpt>
      <trkpt lat="46.18016" lon="6.55898">
        <ele>1655.53</ele>
        <time>2020-02-06T12:09:00Z</time>
      </trkpt>
      <trkpt lat="46.18016" lon="6.55897">
        <ele>1655.05</ele>
        <time>2020-02-06T12:09:37Z</time>
      </trkpt>
      <trkpt lat="46.18016" lon="6.55897">
        <ele>1655.53</ele>
        <time>2020-02-06T12:10:21Z</time>
      </trkpt>
      <trkpt lat="46.18016" lon="6.55896">
        <ele>1655.53</ele>
        <time>2020-02-06T12:10:41Z</time>
      </trkpt>
      <trkpt lat="46.18016" lon="6.55897">
        <ele>1655.05</ele>
        <time>2020-02-06T12:11:10Z</time>
      </trkpt>
      <trkpt lat="46.18016" lon="6.55897">
        <ele>1656.01</ele>
        <time>2020-02-06T12:11:28Z</time>
      </trkpt>
      <trkpt lat="46.18018" lon="6.55896">
        <ele>1655.53</ele>
        <time>2020-02-06T12:11:47Z</time>
      </trkpt>
      <trkpt lat="46.18019" lon="6.55893">
        <ele>1656.01</ele>
        <time>2020-02-06T12:12:01Z</time>
      </trkpt>
      <trkpt lat="46.18019" lon="6.55894">
        <ele>1656.01</ele>
        <time>2020-02-06T12:12:36Z</time>
      </trkpt>
      <trkpt lat="46.18018" lon="6.55889">
        <ele>1656.49</ele>
        <time>2020-02-06T12:13:05Z</time>
      </trkpt>
      <trkpt lat="46.18018" lon="6.55889">
        <ele>1656.97</ele>
        <time>2020-02-06T12:13:28Z</time>
      </trkpt>
      <trkpt lat="46.18018" lon="6.55889">
        <ele>1656.49</ele>
        <time>2020-02-06T12:15:15Z</time>
      </trkpt>
      <trkpt lat="46.18016" lon="6.55889">
        <ele>1656.49</ele>
        <time>2020-02-06T12:15:55Z</time>
      </trkpt>
      <trkpt lat="46.18016" lon="6.55889">
        <ele>1656.49</ele>
        <time>2020-02-06T12:16:42Z</time>
      </trkpt>
      <trkpt lat="46.18009" lon="6.55888">
        <ele>1656.01</ele>
        <time>2020-02-06T12:16:58Z</time>
      </trkpt>
      <trkpt lat="46.18003" lon="6.55882">
        <ele>1655.53</ele>
        <time>2020-02-06T12:17:09Z</time>
      </trkpt>
      <trkpt lat="46.17995" lon="6.55877">
        <ele>1656.49</ele>
        <time>2020-02-06T12:17:20Z</time>
      </trkpt>
      <trkpt lat="46.17986" lon="6.55872">
        <ele>1657.93</ele>
        <time>2020-02-06T12:17:33Z</time>
      </trkpt>
      <trkpt lat="46.17982" lon="6.5587">
        <ele>1658.89</ele>
        <time>2020-02-06T12:17:44Z</time>
      </trkpt>
      <trkpt lat="46.17976" lon="6.55858">
        <ele>1659.37</ele>
        <time>2020-02-06T12:17:56Z</time>
      </trkpt>
      <trkpt lat="46.1797" lon="6.55845">
        <ele>1659.85</ele>
        <time>2020-02-06T12:18:08Z</time>
      </trkpt>
      <trkpt lat="46.17969" lon="6.55836">
        <ele>1660.33</ele>
        <time>2020-02-06T12:18:18Z</time>
      </trkpt>
      <trkpt lat="46.17969" lon="6.55825">
        <ele>1661.3</ele>
        <time>2020-02-06T12:18:30Z</time>
      </trkpt>
      <trkpt lat="46.17975" lon="6.55815">
        <ele>1659.37</ele>
        <time>2020-02-06T12:18:42Z</time>
      </trkpt>
      <trkpt lat="46.17981" lon="6.55808">
        <ele>1659.85</ele>
        <time>2020-02-06T12:18:55Z</time>
      </trkpt>
      <trkpt lat="46.17982" lon="6.55806">
        <ele>1661.3</ele>
        <time>2020-02-06T12:19:02Z</time>
      </trkpt>
      <trkpt lat="46.17985" lon="6.55795">
        <ele>1661.78</ele>
        <time>2020-02-06T12:19:13Z</time>
      </trkpt>
      <trkpt lat="46.17989" lon="6.5579">
        <ele>1661.3</ele>
        <time>2020-02-06T12:19:29Z</time>
      </trkpt>
      <trkpt lat="46.17989" lon="6.55789">
        <ele>1661.3</ele>
        <time>2020-02-06T12:19:30Z</time>
      </trkpt>
      <trkpt lat="46.17999" lon="6.55781">
        <ele>1657.93</ele>
        <time>2020-02-06T12:19:43Z</time>
      </trkpt>
      <trkpt lat="46.18002" lon="6.5577">
        <ele>1655.53</ele>
        <time>2020-02-06T12:19:55Z</time>
      </trkpt>
      <trkpt lat="46.18004" lon="6.55768">
        <ele>1655.53</ele>
        <time>2020-02-06T12:20:07Z</time>
      </trkpt>
      <trkpt lat="46.18005" lon="6.55764">
        <ele>1656.49</ele>
        <time>2020-02-06T12:20:22Z</time>
      </trkpt>
      <trkpt lat="46.18013" lon="6.55764">
        <ele>1655.53</ele>
        <time>2020-02-06T12:20:36Z</time>
      </trkpt>
      <trkpt lat="46.18013" lon="6.55763">
        <ele>1655.53</ele>
        <time>2020-02-06T12:21:36Z</time>
      </trkpt>
      <trkpt lat="46.18008" lon="6.55758">
        <ele>1655.53</ele>
        <time>2020-02-06T12:21:48Z</time>
      </trkpt>
      <trkpt lat="46.1801" lon="6.55744">
        <ele>1653.12</ele>
        <time>2020-02-06T12:21:59Z</time>
      </trkpt>
      <trkpt lat="46.18008" lon="6.55725">
        <ele>1652.64</ele>
        <time>2020-02-06T12:22:10Z</time>
      </trkpt>
      <trkpt lat="46.18009" lon="6.55725">
        <ele>1652.64</ele>
        <time>2020-02-06T12:22:11Z</time>
      </trkpt>
      <trkpt lat="46.18015" lon="6.55716">
        <ele>1652.64</ele>
        <time>2020-02-06T12:22:24Z</time>
      </trkpt>
      <trkpt lat="46.18021" lon="6.55713">
        <ele>1651.68</ele>
        <time>2020-02-06T12:22:36Z</time>
      </trkpt>
      <trkpt lat="46.1802" lon="6.55713">
        <ele>1651.2</ele>
        <time>2020-02-06T12:23:22Z</time>
      </trkpt>
      <trkpt lat="46.1802" lon="6.55713">
        <ele>1651.2</ele>
        <time>2020-02-06T12:23:46Z</time>
      </trkpt>
      <trkpt lat="46.1802" lon="6.55712">
        <ele>1651.2</ele>
        <time>2020-02-06T12:25:07Z</time>
      </trkpt>
      <trkpt lat="46.1802" lon="6.55711">
        <ele>1651.2</ele>
        <time>2020-02-06T12:26:13Z</time>
      </trkpt>
      <trkpt lat="46.1802" lon="6.55711">
        <ele>1649.76</ele>
        <time>2020-02-06T12:26:24Z</time>
      </trkpt>
      <trkpt lat="46.18022" lon="6.55712">
        <ele>1649.76</ele>
        <time>2020-02-06T12:29:23Z</time>
      </trkpt>
      <trkpt lat="46.18024" lon="6.55714">
        <ele>1650.24</ele>
        <time>2020-02-06T12:29:58Z</time>
      </trkpt>
      <trkpt lat="46.18023" lon="6.55712">
        <ele>1651.2</ele>
        <time>2020-02-06T12:30:14Z</time>
      </trkpt>
      <trkpt lat="46.18024" lon="6.55713">
        <ele>1650.72</ele>
        <time>2020-02-06T12:30:47Z</time>
      </trkpt>
      <trkpt lat="46.18028" lon="6.55719">
        <ele>1650.72</ele>
        <time>2020-02-06T12:31:09Z</time>
      </trkpt>
      <trkpt lat="46.18029" lon="6.55731">
        <ele>1651.2</ele>
        <time>2020-02-06T12:31:20Z</time>
      </trkpt>
      <trkpt lat="46.18032" lon="6.55738">
        <ele>1651.2</ele>
        <time>2020-02-06T12:31:34Z</time>
      </trkpt>
      <trkpt lat="46.18033" lon="6.55739">
        <ele>1650.72</ele>
        <time>2020-02-06T12:31:36Z</time>
      </trkpt>
      <trkpt lat="46.18038" lon="6.55751">
        <ele>1652.16</ele>
        <time>2020-02-06T12:31:50Z</time>
      </trkpt>
      <trkpt lat="46.18041" lon="6.55757">
        <ele>1653.12</ele>
        <time>2020-02-06T12:32:02Z</time>
      </trkpt>
      <trkpt lat="46.18044" lon="6.55767">
        <ele>1653.6</ele>
        <time>2020-02-06T12:32:14Z</time>
      </trkpt>
      <trkpt lat="46.18047" lon="6.55775">
        <ele>1654.09</ele>
        <time>2020-02-06T12:32:27Z</time>
      </trkpt>
      <trkpt lat="46.18048" lon="6.55779">
        <ele>1655.53</ele>
        <time>2020-02-06T12:32:40Z</time>
      </trkpt>
      <trkpt lat="46.18051" lon="6.55786">
        <ele>1656.49</ele>
        <time>2020-02-06T12:32:52Z</time>
      </trkpt>
      <trkpt lat="46.18053" lon="6.55794">
        <ele>1658.89</ele>
        <time>2020-02-06T12:33:04Z</time>
      </trkpt>
      <trkpt lat="46.18057" lon="6.55796">
        <ele>1659.37</ele>
        <time>2020-02-06T12:33:19Z</time>
      </trkpt>
      <trkpt lat="46.18059" lon="6.55802">
        <ele>1660.81</ele>
        <time>2020-02-06T12:33:31Z</time>
      </trkpt>
      <trkpt lat="46.18065" lon="6.55806">
        <ele>1662.26</ele>
        <time>2020-02-06T12:33:43Z</time>
      </trkpt>
      <trkpt lat="46.18068" lon="6.5581">
        <ele>1663.7</ele>
        <time>2020-02-06T12:34:01Z</time>
      </trkpt>
      <trkpt lat="46.1807" lon="6.55813">
        <ele>1666.1</ele>
        <time>2020-02-06T12:34:14Z</time>
      </trkpt>
      <trkpt lat="46.18074" lon="6.55819">
        <ele>1668.51</ele>
        <time>2020-02-06T12:34:26Z</time>
      </trkpt>
      <trkpt lat="46.18078" lon="6.55825">
        <ele>1669.95</ele>
        <time>2020-02-06T12:34:39Z</time>
      </trkpt>
      <trkpt lat="46.18081" lon="6.55831">
        <ele>1670.91</ele>
        <time>2020-02-06T12:34:53Z</time>
      </trkpt>
      <trkpt lat="46.18082" lon="6.55835">
        <ele>1671.39</ele>
        <time>2020-02-06T12:35:14Z</time>
      </trkpt>
      <trkpt lat="46.18086" lon="6.55838">
        <ele>1672.35</ele>
        <time>2020-02-06T12:35:28Z</time>
      </trkpt>
      <trkpt lat="46.18085" lon="6.55839">
        <ele>1672.35</ele>
        <time>2020-02-06T12:36:54Z</time>
      </trkpt>
      <trkpt lat="46.18085" lon="6.5584">
        <ele>1672.83</ele>
        <time>2020-02-06T12:37:48Z</time>
      </trkpt>
      <trkpt lat="46.18086" lon="6.55842">
        <ele>1672.83</ele>
        <time>2020-02-06T12:39:13Z</time>
      </trkpt>
      <trkpt lat="46.18086" lon="6.55844">
        <ele>1673.79</ele>
        <time>2020-02-06T12:41:16Z</time>
      </trkpt>
      <trkpt lat="46.18088" lon="6.55851">
        <ele>1673.79</ele>
        <time>2020-02-06T12:41:30Z</time>
      </trkpt>
      <trkpt lat="46.1809" lon="6.55859">
        <ele>1673.79</ele>
        <time>2020-02-06T12:41:41Z</time>
      </trkpt>
      <trkpt lat="46.18093" lon="6.55868">
        <ele>1675.23</ele>
        <time>2020-02-06T12:41:55Z</time>
      </trkpt>
      <trkpt lat="46.18095" lon="6.55877">
        <ele>1677.16</ele>
        <time>2020-02-06T12:42:07Z</time>
      </trkpt>
      <trkpt lat="46.18096" lon="6.55887">
        <ele>1678.12</ele>
        <time>2020-02-06T12:42:19Z</time>
      </trkpt>
      <trkpt lat="46.18099" lon="6.55894">
        <ele>1680.04</ele>
        <time>2020-02-06T12:42:32Z</time>
      </trkpt>
      <trkpt lat="46.18101" lon="6.55903">
        <ele>1681.48</ele>
        <time>2020-02-06T12:42:46Z</time>
      </trkpt>
      <trkpt lat="46.18104" lon="6.55911">
        <ele>1683.41</ele>
        <time>2020-02-06T12:42:58Z</time>
      </trkpt>
      <trkpt lat="46.18109" lon="6.55919">
        <ele>1684.37</ele>
        <time>2020-02-06T12:43:12Z</time>
      </trkpt>
      <trkpt lat="46.18112" lon="6.55924">
        <ele>1685.81</ele>
        <time>2020-02-06T12:43:23Z</time>
      </trkpt>
      <trkpt lat="46.18118" lon="6.55934">
        <ele>1686.77</ele>
        <time>2020-02-06T12:43:35Z</time>
      </trkpt>
      <trkpt lat="46.18122" lon="6.55944">
        <ele>1687.25</ele>
        <time>2020-02-06T12:43:47Z</time>
      </trkpt>
      <trkpt lat="46.18124" lon="6.55946">
        <ele>1686.29</ele>
        <time>2020-02-06T12:44:01Z</time>
      </trkpt>
      <trkpt lat="46.18124" lon="6.55946">
        <ele>1687.25</ele>
        <time>2020-02-06T12:44:45Z</time>
      </trkpt>
      <trkpt lat="46.18119" lon="6.55953">
        <ele>1686.29</ele>
        <time>2020-02-06T12:45:56Z</time>
      </trkpt>
      <trkpt lat="46.18116" lon="6.5596">
        <ele>1684.85</ele>
        <time>2020-02-06T12:46:03Z</time>
      </trkpt>
      <trkpt lat="46.18112" lon="6.55971">
        <ele>1681.48</ele>
        <time>2020-02-06T12:46:13Z</time>
      </trkpt>
      <trkpt lat="46.18111" lon="6.55976">
        <ele>1679.56</ele>
        <time>2020-02-06T12:46:17Z</time>
      </trkpt>
      <trkpt lat="46.1811" lon="6.55989">
        <ele>1676.2</ele>
        <time>2020-02-06T12:46:27Z</time>
      </trkpt>
      <trkpt lat="46.18109" lon="6.55998">
        <ele>1673.31</ele>
        <time>2020-02-06T12:46:34Z</time>
      </trkpt>
      <trkpt lat="46.18109" lon="6.56008">
        <ele>1669.95</ele>
        <time>2020-02-06T12:46:43Z</time>
      </trkpt>
      <trkpt lat="46.18109" lon="6.5602">
        <ele>1667.06</ele>
        <time>2020-02-06T12:46:54Z</time>
      </trkpt>
      <trkpt lat="46.18109" lon="6.56026">
        <ele>1665.62</ele>
        <time>2020-02-06T12:47:07Z</time>
      </trkpt>
      <trkpt lat="46.18109" lon="6.56026">
        <ele>1665.62</ele>
        <time>2020-02-06T12:47:44Z</time>
      </trkpt>
      <trkpt lat="46.18111" lon="6.56026">
        <ele>1664.18</ele>
        <time>2020-02-06T12:48:12Z</time>
      </trkpt>
      <trkpt lat="46.18111" lon="6.56026">
        <ele>1663.22</ele>
        <time>2020-02-06T12:48:32Z</time>
      </trkpt>
      <trkpt lat="46.18116" lon="6.56032">
        <ele>1660.81</ele>
        <time>2020-02-06T12:48:38Z</time>
      </trkpt>
      <trkpt lat="46.18124" lon="6.56042">
        <ele>1657.45</ele>
        <time>2020-02-06T12:48:47Z</time>
      </trkpt>
      <trkpt lat="46.18132" lon="6.56055">
        <ele>1654.57</ele>
        <time>2020-02-06T12:49:02Z</time>
      </trkpt>
      <trkpt lat="46.18129" lon="6.56059">
        <ele>1654.57</ele>
        <time>2020-02-06T12:49:23Z</time>
      </trkpt>
      <trkpt lat="46.18127" lon="6.56072">
        <ele>1651.2</ele>
        <time>2020-02-06T12:49:34Z</time>
      </trkpt>
      <trkpt lat="46.18127" lon="6.56076">
        <ele>1649.28</ele>
        <time>2020-02-06T12:49:39Z</time>
      </trkpt>
      <trkpt lat="46.18125" lon="6.5608">
        <ele>1647.36</ele>
        <time>2020-02-06T12:49:42Z</time>
      </trkpt>
      <trkpt lat="46.18124" lon="6.56092">
        <ele>1644.47</ele>
        <time>2020-02-06T12:49:53Z</time>
      </trkpt>
      <trkpt lat="46.18119" lon="6.56097">
        <ele>1643.03</ele>
        <time>2020-02-06T12:50:06Z</time>
      </trkpt>
      <trkpt lat="46.18115" lon="6.56104">
        <ele>1642.55</ele>
        <time>2020-02-06T12:50:19Z</time>
      </trkpt>
      <trkpt lat="46.18111" lon="6.56109">
        <ele>1643.51</ele>
        <time>2020-02-06T12:50:30Z</time>
      </trkpt>
      <trkpt lat="46.18109" lon="6.56112">
        <ele>1644.95</ele>
        <time>2020-02-06T12:50:42Z</time>
      </trkpt>
      <trkpt lat="46.18107" lon="6.5612">
        <ele>1644.95</ele>
        <time>2020-02-06T12:50:53Z</time>
      </trkpt>
      <trkpt lat="46.18107" lon="6.5612">
        <ele>1644.47</ele>
        <time>2020-02-06T12:51:24Z</time>
      </trkpt>
      <trkpt lat="46.18106" lon="6.5612">
        <ele>1644.47</ele>
        <time>2020-02-06T12:51:49Z</time>
      </trkpt>
      <trkpt lat="46.181" lon="6.56123">
        <ele>1643.99</ele>
        <time>2020-02-06T12:52:05Z</time>
      </trkpt>
      <trkpt lat="46.18093" lon="6.56127">
        <ele>1642.07</ele>
        <time>2020-02-06T12:52:12Z</time>
      </trkpt>
      <trkpt lat="46.18089" lon="6.56131">
        <ele>1641.59</ele>
        <time>2020-02-06T12:52:18Z</time>
      </trkpt>
      <trkpt lat="46.18087" lon="6.56132">
        <ele>1641.11</ele>
        <time>2020-02-06T12:52:20Z</time>
      </trkpt>
      <trkpt lat="46.18081" lon="6.56144">
        <ele>1642.07</ele>
        <time>2020-02-06T12:52:34Z</time>
      </trkpt>
      <trkpt lat="46.1808" lon="6.56146">
        <ele>1642.07</ele>
        <time>2020-02-06T12:52:47Z</time>
      </trkpt>
      <trkpt lat="46.1808" lon="6.56147">
        <ele>1642.07</ele>
        <time>2020-02-06T12:53:06Z</time>
      </trkpt>
      <trkpt lat="46.1808" lon="6.56147">
        <ele>1642.07</ele>
        <time>2020-02-06T12:53:26Z</time>
      </trkpt>
      <trkpt lat="46.18079" lon="6.56149">
        <ele>1639.19</ele>
        <time>2020-02-06T12:53:43Z</time>
      </trkpt>
      <trkpt lat="46.18079" lon="6.56151">
        <ele>1639.19</ele>
        <time>2020-02-06T12:53:44Z</time>
      </trkpt>
      <trkpt lat="46.18075" lon="6.56162">
        <ele>1635.82</ele>
        <time>2020-02-06T12:53:52Z</time>
      </trkpt>
      <trkpt lat="46.18074" lon="6.56163">
        <ele>1635.82</ele>
        <time>2020-02-06T12:53:53Z</time>
      </trkpt>
      <trkpt lat="46.18073" lon="6.56167">
        <ele>1634.38</ele>
        <time>2020-02-06T12:53:57Z</time>
      </trkpt>
      <trkpt lat="46.18071" lon="6.56178">
        <ele>1631.01</ele>
        <time>2020-02-06T12:54:06Z</time>
      </trkpt>
      <trkpt lat="46.18072" lon="6.56188">
        <ele>1627.65</ele>
        <time>2020-02-06T12:54:16Z</time>
      </trkpt>
      <trkpt lat="46.18073" lon="6.56189">
        <ele>1627.65</ele>
        <time>2020-02-06T12:54:23Z</time>
      </trkpt>
      <trkpt lat="46.18076" lon="6.56193">
        <ele>1627.17</ele>
        <time>2020-02-06T12:54:41Z</time>
      </trkpt>
      <trkpt lat="46.18075" lon="6.56193">
        <ele>1627.17</ele>
        <time>2020-02-06T12:55:47Z</time>
      </trkpt>
      <trkpt lat="46.18075" lon="6.56194">
        <ele>1628.13</ele>
        <time>2020-02-06T12:57:21Z</time>
      </trkpt>
      <trkpt lat="46.18072" lon="6.56207">
        <ele>1625.25</ele>
        <time>2020-02-06T12:57:35Z</time>
      </trkpt>
      <trkpt lat="46.18074" lon="6.56219">
        <ele>1621.88</ele>
        <time>2020-02-06T12:57:48Z</time>
      </trkpt>
      <trkpt lat="46.18078" lon="6.56228">
        <ele>1619.96</ele>
        <time>2020-02-06T12:57:57Z</time>
      </trkpt>
      <trkpt lat="46.18078" lon="6.56233">
        <ele>1619</ele>
        <time>2020-02-06T12:58:01Z</time>
      </trkpt>
      <trkpt lat="46.18079" lon="6.56238">
        <ele>1618.04</ele>
        <time>2020-02-06T12:58:05Z</time>
      </trkpt>
      <trkpt lat="46.18081" lon="6.56254">
        <ele>1616.11</ele>
        <time>2020-02-06T12:58:17Z</time>
      </trkpt>
      <trkpt lat="46.18081" lon="6.56262">
        <ele>1614.67</ele>
        <time>2020-02-06T12:58:23Z</time>
      </trkpt>
      <trkpt lat="46.18084" lon="6.56286">
        <ele>1611.31</ele>
        <time>2020-02-06T12:58:38Z</time>
      </trkpt>
      <trkpt lat="46.18085" lon="6.56288">
        <ele>1610.83</ele>
        <time>2020-02-06T12:58:41Z</time>
      </trkpt>
      <trkpt lat="46.18089" lon="6.563">
        <ele>1609.86</ele>
        <time>2020-02-06T12:58:51Z</time>
      </trkpt>
      <trkpt lat="46.18094" lon="6.56313">
        <ele>1606.5</ele>
        <time>2020-02-06T12:59:02Z</time>
      </trkpt>
      <trkpt lat="46.18096" lon="6.56315">
        <ele>1606.02</ele>
        <time>2020-02-06T12:59:04Z</time>
      </trkpt>
      <trkpt lat="46.18099" lon="6.56322">
        <ele>1604.1</ele>
        <time>2020-02-06T12:59:09Z</time>
      </trkpt>
      <trkpt lat="46.18099" lon="6.56323">
        <ele>1604.1</ele>
        <time>2020-02-06T12:59:10Z</time>
      </trkpt>
      <trkpt lat="46.18102" lon="6.5633">
        <ele>1602.17</ele>
        <time>2020-02-06T12:59:16Z</time>
      </trkpt>
      <trkpt lat="46.18106" lon="6.56338">
        <ele>1599.77</ele>
        <time>2020-02-06T12:59:23Z</time>
      </trkpt>
      <trkpt lat="46.18108" lon="6.56343">
        <ele>1597.85</ele>
        <time>2020-02-06T12:59:28Z</time>
      </trkpt>
      <trkpt lat="46.18115" lon="6.56357">
        <ele>1594.48</ele>
        <time>2020-02-06T12:59:40Z</time>
      </trkpt>
      <trkpt lat="46.18122" lon="6.56369">
        <ele>1591.12</ele>
        <time>2020-02-06T12:59:52Z</time>
      </trkpt>
      <trkpt lat="46.18124" lon="6.56371">
        <ele>1590.64</ele>
        <time>2020-02-06T12:59:54Z</time>
      </trkpt>
      <trkpt lat="46.18131" lon="6.56385">
        <ele>1587.27</ele>
        <time>2020-02-06T13:00:06Z</time>
      </trkpt>
      <trkpt lat="46.18136" lon="6.56395">
        <ele>1586.31</ele>
        <time>2020-02-06T13:00:15Z</time>
      </trkpt>
      <trkpt lat="46.18138" lon="6.564">
        <ele>1585.83</ele>
        <time>2020-02-06T13:00:19Z</time>
      </trkpt>
      <trkpt lat="46.18139" lon="6.56404">
        <ele>1586.31</ele>
        <time>2020-02-06T13:00:22Z</time>
      </trkpt>
      <trkpt lat="46.18148" lon="6.56421">
        <ele>1583.91</ele>
        <time>2020-02-06T13:00:36Z</time>
      </trkpt>
      <trkpt lat="46.18149" lon="6.56425">
        <ele>1583.43</ele>
        <time>2020-02-06T13:00:54Z</time>
      </trkpt>
      <trkpt lat="46.18149" lon="6.56426">
        <ele>1583.43</ele>
        <time>2020-02-06T13:01:48Z</time>
      </trkpt>
      <trkpt lat="46.18149" lon="6.56424">
        <ele>1582.47</ele>
        <time>2020-02-06T13:06:43Z</time>
      </trkpt>
      <trkpt lat="46.18153" lon="6.5642">
        <ele>1581.99</ele>
        <time>2020-02-06T13:06:50Z</time>
      </trkpt>
      <trkpt lat="46.18159" lon="6.56413">
        <ele>1582.47</ele>
        <time>2020-02-06T13:06:58Z</time>
      </trkpt>
      <trkpt lat="46.18166" lon="6.56403">
        <ele>1583.43</ele>
        <time>2020-02-06T13:07:11Z</time>
      </trkpt>
      <trkpt lat="46.18171" lon="6.56394">
        <ele>1583.91</ele>
        <time>2020-02-06T13:07:22Z</time>
      </trkpt>
      <trkpt lat="46.18173" lon="6.56388">
        <ele>1585.35</ele>
        <time>2020-02-06T13:07:29Z</time>
      </trkpt>
      <trkpt lat="46.18176" lon="6.56379">
        <ele>1584.39</ele>
        <time>2020-02-06T13:07:39Z</time>
      </trkpt>
      <trkpt lat="46.1818" lon="6.56369">
        <ele>1585.35</ele>
        <time>2020-02-06T13:07:50Z</time>
      </trkpt>
      <trkpt lat="46.18186" lon="6.56364">
        <ele>1586.31</ele>
        <time>2020-02-06T13:08:00Z</time>
      </trkpt>
      <trkpt lat="46.1819" lon="6.56363">
        <ele>1586.31</ele>
        <time>2020-02-06T13:08:04Z</time>
      </trkpt>
      <trkpt lat="46.18192" lon="6.56363">
        <ele>1585.83</ele>
        <time>2020-02-06T13:08:06Z</time>
      </trkpt>
      <trkpt lat="46.18203" lon="6.56364">
        <ele>1586.31</ele>
        <time>2020-02-06T13:08:18Z</time>
      </trkpt>
      <trkpt lat="46.18212" lon="6.56371">
        <ele>1585.83</ele>
        <time>2020-02-06T13:08:31Z</time>
      </trkpt>
      <trkpt lat="46.18215" lon="6.56378">
        <ele>1585.83</ele>
        <time>2020-02-06T13:08:37Z</time>
      </trkpt>
      <trkpt lat="46.18218" lon="6.56382">
        <ele>1584.39</ele>
        <time>2020-02-06T13:08:40Z</time>
      </trkpt>
      <trkpt lat="46.18229" lon="6.56396">
        <ele>1581.51</ele>
        <time>2020-02-06T13:08:55Z</time>
      </trkpt>
      <trkpt lat="46.18238" lon="6.56408">
        <ele>1579.1</ele>
        <time>2020-02-06T13:09:08Z</time>
      </trkpt>
      <trkpt lat="46.18242" lon="6.56412">
        <ele>1578.62</ele>
        <time>2020-02-06T13:09:13Z</time>
      </trkpt>
      <trkpt lat="46.18246" lon="6.56416">
        <ele>1578.14</ele>
        <time>2020-02-06T13:09:18Z</time>
      </trkpt>
      <trkpt lat="46.18261" lon="6.56428">
        <ele>1575.74</ele>
        <time>2020-02-06T13:09:34Z</time>
      </trkpt>
      <trkpt lat="46.18269" lon="6.56439">
        <ele>1573.33</ele>
        <time>2020-02-06T13:09:46Z</time>
      </trkpt>
      <trkpt lat="46.18274" lon="6.56444">
        <ele>1572.37</ele>
        <time>2020-02-06T13:09:52Z</time>
      </trkpt>
      <trkpt lat="46.18281" lon="6.5645">
        <ele>1571.41</ele>
        <time>2020-02-06T13:10:00Z</time>
      </trkpt>
      <trkpt lat="46.18283" lon="6.56452">
        <ele>1571.89</ele>
        <time>2020-02-06T13:10:03Z</time>
      </trkpt>
      <trkpt lat="46.18297" lon="6.56465">
        <ele>1570.45</ele>
        <time>2020-02-06T13:10:19Z</time>
      </trkpt>
      <trkpt lat="46.18304" lon="6.56476">
        <ele>1568.53</ele>
        <time>2020-02-06T13:10:34Z</time>
      </trkpt>
      <trkpt lat="46.18312" lon="6.56474">
        <ele>1566.61</ele>
        <time>2020-02-06T13:10:48Z</time>
      </trkpt>
      <trkpt lat="46.18324" lon="6.56471">
        <ele>1564.68</ele>
        <time>2020-02-06T13:11:04Z</time>
      </trkpt>
      <trkpt lat="46.18331" lon="6.56476">
        <ele>1562.28</ele>
        <time>2020-02-06T13:11:19Z</time>
      </trkpt>
      <trkpt lat="46.18334" lon="6.56484">
        <ele>1560.36</ele>
        <time>2020-02-06T13:11:27Z</time>
      </trkpt>
      <trkpt lat="46.18337" lon="6.5649">
        <ele>1557.47</ele>
        <time>2020-02-06T13:11:35Z</time>
      </trkpt>
      <trkpt lat="46.18339" lon="6.56491">
        <ele>1556.03</ele>
        <time>2020-02-06T13:12:06Z</time>
      </trkpt>
      <trkpt lat="46.1834" lon="6.56492">
        <ele>1554.59</ele>
        <time>2020-02-06T13:13:30Z</time>
      </trkpt>
      <trkpt lat="46.18344" lon="6.56492">
        <ele>1553.63</ele>
        <time>2020-02-06T13:13:46Z</time>
      </trkpt>
      <trkpt lat="46.18346" lon="6.5649">
        <ele>1553.15</ele>
        <time>2020-02-06T13:13:59Z</time>
      </trkpt>
      <trkpt lat="46.1835" lon="6.5649">
        <ele>1550.74</ele>
        <time>2020-02-06T13:14:18Z</time>
      </trkpt>
      <trkpt lat="46.18353" lon="6.56488">
        <ele>1549.78</ele>
        <time>2020-02-06T13:14:38Z</time>
      </trkpt>
      <trkpt lat="46.18359" lon="6.56488">
        <ele>1547.38</ele>
        <time>2020-02-06T13:14:53Z</time>
      </trkpt>
      <trkpt lat="46.18364" lon="6.56483">
        <ele>1546.9</ele>
        <time>2020-02-06T13:15:04Z</time>
      </trkpt>
      <trkpt lat="46.18369" lon="6.56489">
        <ele>1545.94</ele>
        <time>2020-02-06T13:15:40Z</time>
      </trkpt>
      <trkpt lat="46.18372" lon="6.56489">
        <ele>1544.98</ele>
        <time>2020-02-06T13:15:54Z</time>
      </trkpt>
      <trkpt lat="46.18376" lon="6.5649">
        <ele>1543.05</ele>
        <time>2020-02-06T13:16:15Z</time>
      </trkpt>
      <trkpt lat="46.18382" lon="6.56494">
        <ele>1541.61</ele>
        <time>2020-02-06T13:16:27Z</time>
      </trkpt>
      <trkpt lat="46.18389" lon="6.56502">
        <ele>1540.17</ele>
        <time>2020-02-06T13:16:39Z</time>
      </trkpt>
      <trkpt lat="46.18397" lon="6.565">
        <ele>1537.77</ele>
        <time>2020-02-06T13:16:56Z</time>
      </trkpt>
      <trkpt lat="46.18399" lon="6.56499">
        <ele>1537.29</ele>
        <time>2020-02-06T13:17:08Z</time>
      </trkpt>
      <trkpt lat="46.18402" lon="6.565">
        <ele>1536.8</ele>
        <time>2020-02-06T13:17:29Z</time>
      </trkpt>
      <trkpt lat="46.18408" lon="6.56507">
        <ele>1533.92</ele>
        <time>2020-02-06T13:17:45Z</time>
      </trkpt>
      <trkpt lat="46.18407" lon="6.5651">
        <ele>1532.96</ele>
        <time>2020-02-06T13:18:13Z</time>
      </trkpt>
      <trkpt lat="46.18407" lon="6.56515">
        <ele>1531.52</ele>
        <time>2020-02-06T13:18:25Z</time>
      </trkpt>
      <trkpt lat="46.18405" lon="6.56525">
        <ele>1529.11</ele>
        <time>2020-02-06T13:18:42Z</time>
      </trkpt>
      <trkpt lat="46.18405" lon="6.56528">
        <ele>1528.15</ele>
        <time>2020-02-06T13:18:56Z</time>
      </trkpt>
      <trkpt lat="46.18406" lon="6.56531">
        <ele>1526.23</ele>
        <time>2020-02-06T13:19:11Z</time>
      </trkpt>
      <trkpt lat="46.1841" lon="6.56535">
        <ele>1524.31</ele>
        <time>2020-02-06T13:19:25Z</time>
      </trkpt>
      <trkpt lat="46.18412" lon="6.56545">
        <ele>1521.9</ele>
        <time>2020-02-06T13:19:37Z</time>
      </trkpt>
      <trkpt lat="46.18412" lon="6.56555">
        <ele>1519.5</ele>
        <time>2020-02-06T13:19:54Z</time>
      </trkpt>
      <trkpt lat="46.18412" lon="6.56559">
        <ele>1518.06</ele>
        <time>2020-02-06T13:20:05Z</time>
      </trkpt>
      <trkpt lat="46.18412" lon="6.5656">
        <ele>1517.58</ele>
        <time>2020-02-06T13:20:08Z</time>
      </trkpt>
      <trkpt lat="46.18412" lon="6.56564">
        <ele>1515.66</ele>
        <time>2020-02-06T13:20:20Z</time>
      </trkpt>
      <trkpt lat="46.18417" lon="6.56573">
        <ele>1512.77</ele>
        <time>2020-02-06T13:20:40Z</time>
      </trkpt>
      <trkpt lat="46.18417" lon="6.56573">
        <ele>1513.25</ele>
        <time>2020-02-06T13:21:21Z</time>
      </trkpt>
      <trkpt lat="46.18421" lon="6.56575">
        <ele>1511.33</ele>
        <time>2020-02-06T13:21:58Z</time>
      </trkpt>
      <trkpt lat="46.18425" lon="6.56581">
        <ele>1510.37</ele>
        <time>2020-02-06T13:22:16Z</time>
      </trkpt>
      <trkpt lat="46.18427" lon="6.56579">
        <ele>1510.37</ele>
        <time>2020-02-06T13:22:39Z</time>
      </trkpt>
      <trkpt lat="46.1843" lon="6.56577">
        <ele>1511.33</ele>
        <time>2020-02-06T13:22:58Z</time>
      </trkpt>
      <trkpt lat="46.1843" lon="6.56578">
        <ele>1511.33</ele>
        <time>2020-02-06T13:23:48Z</time>
      </trkpt>
      <trkpt lat="46.1843" lon="6.56578">
        <ele>1511.33</ele>
        <time>2020-02-06T13:24:25Z</time>
      </trkpt>
      <trkpt lat="46.18435" lon="6.56577">
        <ele>1511.33</ele>
        <time>2020-02-06T13:24:47Z</time>
      </trkpt>
      <trkpt lat="46.18441" lon="6.5658">
        <ele>1510.85</ele>
        <time>2020-02-06T13:24:59Z</time>
      </trkpt>
      <trkpt lat="46.18445" lon="6.56584">
        <ele>1509.41</ele>
        <time>2020-02-06T13:25:13Z</time>
      </trkpt>
      <trkpt lat="46.18449" lon="6.56591">
        <ele>1507.97</ele>
        <time>2020-02-06T13:25:29Z</time>
      </trkpt>
      <trkpt lat="46.1845" lon="6.56599">
        <ele>1506.04</ele>
        <time>2020-02-06T13:25:44Z</time>
      </trkpt>
      <trkpt lat="46.18448" lon="6.56609">
        <ele>1503.16</ele>
        <time>2020-02-06T13:25:59Z</time>
      </trkpt>
      <trkpt lat="46.18445" lon="6.56619">
        <ele>1501.24</ele>
        <time>2020-02-06T13:26:10Z</time>
      </trkpt>
      <trkpt lat="46.18443" lon="6.56623">
        <ele>1500.27</ele>
        <time>2020-02-06T13:26:15Z</time>
      </trkpt>
      <trkpt lat="46.18442" lon="6.5663">
        <ele>1498.35</ele>
        <time>2020-02-06T13:26:28Z</time>
      </trkpt>
      <trkpt lat="46.18439" lon="6.5664">
        <ele>1495.47</ele>
        <time>2020-02-06T13:26:40Z</time>
      </trkpt>
      <trkpt lat="46.18437" lon="6.56651">
        <ele>1494.99</ele>
        <time>2020-02-06T13:26:53Z</time>
      </trkpt>
      <trkpt lat="46.1844" lon="6.56659">
        <ele>1493.06</ele>
        <time>2020-02-06T13:27:24Z</time>
      </trkpt>
      <trkpt lat="46.18441" lon="6.56661">
        <ele>1493.55</ele>
        <time>2020-02-06T13:27:56Z</time>
      </trkpt>
      <trkpt lat="46.18441" lon="6.56662">
        <ele>1493.55</ele>
        <time>2020-02-06T13:29:21Z</time>
      </trkpt>
      <trkpt lat="46.18443" lon="6.56664">
        <ele>1493.06</ele>
        <time>2020-02-06T13:31:33Z</time>
      </trkpt>
      <trkpt lat="46.18446" lon="6.56667">
        <ele>1491.62</ele>
        <time>2020-02-06T13:31:48Z</time>
      </trkpt>
      <trkpt lat="46.18451" lon="6.56671">
        <ele>1491.14</ele>
        <time>2020-02-06T13:31:52Z</time>
      </trkpt>
      <trkpt lat="46.1846" lon="6.56677">
        <ele>1491.62</ele>
        <time>2020-02-06T13:31:59Z</time>
      </trkpt>
      <trkpt lat="46.18463" lon="6.56677">
        <ele>1492.1</ele>
        <time>2020-02-06T13:32:02Z</time>
      </trkpt>
      <trkpt lat="46.18476" lon="6.56683">
        <ele>1492.58</ele>
        <time>2020-02-06T13:32:15Z</time>
      </trkpt>
      <trkpt lat="46.18483" lon="6.56687">
        <ele>1493.06</ele>
        <time>2020-02-06T13:32:27Z</time>
      </trkpt>
      <trkpt lat="46.18492" lon="6.56684">
        <ele>1494.51</ele>
        <time>2020-02-06T13:32:38Z</time>
      </trkpt>
      <trkpt lat="46.185" lon="6.56681">
        <ele>1494.03</ele>
        <time>2020-02-06T13:32:49Z</time>
      </trkpt>
      <trkpt lat="46.1851" lon="6.56685">
        <ele>1494.03</ele>
        <time>2020-02-06T13:32:57Z</time>
      </trkpt>
      <trkpt lat="46.18521" lon="6.56688">
        <ele>1494.03</ele>
        <time>2020-02-06T13:33:09Z</time>
      </trkpt>
      <trkpt lat="46.18532" lon="6.56692">
        <ele>1491.62</ele>
        <time>2020-02-06T13:33:22Z</time>
      </trkpt>
      <trkpt lat="46.18535" lon="6.56694">
        <ele>1491.14</ele>
        <time>2020-02-06T13:33:34Z</time>
      </trkpt>
      <trkpt lat="46.18548" lon="6.56701">
        <ele>1488.74</ele>
        <time>2020-02-06T13:33:47Z</time>
      </trkpt>
      <trkpt lat="46.18552" lon="6.56711">
        <ele>1485.37</ele>
        <time>2020-02-06T13:33:58Z</time>
      </trkpt>
      <trkpt lat="46.18558" lon="6.56721">
        <ele>1483.45</ele>
        <time>2020-02-06T13:34:10Z</time>
      </trkpt>
      <trkpt lat="46.18564" lon="6.56729">
        <ele>1480.09</ele>
        <time>2020-02-06T13:34:22Z</time>
      </trkpt>
      <trkpt lat="46.18571" lon="6.56735">
        <ele>1477.2</ele>
        <time>2020-02-06T13:34:36Z</time>
      </trkpt>
      <trkpt lat="46.18576" lon="6.56744">
        <ele>1474.32</ele>
        <time>2020-02-06T13:34:49Z</time>
      </trkpt>
      <trkpt lat="46.18574" lon="6.56752">
        <ele>1471.92</ele>
        <time>2020-02-06T13:35:03Z</time>
      </trkpt>
      <trkpt lat="46.18564" lon="6.56759">
        <ele>1469.03</ele>
        <time>2020-02-06T13:35:18Z</time>
      </trkpt>
      <trkpt lat="46.18564" lon="6.56766">
        <ele>1465.67</ele>
        <time>2020-02-06T13:35:28Z</time>
      </trkpt>
      <trkpt lat="46.18566" lon="6.56772">
        <ele>1463.26</ele>
        <time>2020-02-06T13:35:39Z</time>
      </trkpt>
      <trkpt lat="46.1856" lon="6.56788">
        <ele>1461.34</ele>
        <time>2020-02-06T13:35:51Z</time>
      </trkpt>
      <trkpt lat="46.18559" lon="6.56786">
        <ele>1460.38</ele>
        <time>2020-02-06T13:36:05Z</time>
      </trkpt>
      <trkpt lat="46.18554" lon="6.5679">
        <ele>1458.94</ele>
        <time>2020-02-06T13:36:21Z</time>
      </trkpt>
      <trkpt lat="46.18549" lon="6.56793">
        <ele>1457.02</ele>
        <time>2020-02-06T13:36:28Z</time>
      </trkpt>
      <trkpt lat="46.18544" lon="6.56797">
        <ele>1455.57</ele>
        <time>2020-02-06T13:36:44Z</time>
      </trkpt>
      <trkpt lat="46.1854" lon="6.56804">
        <ele>1454.61</ele>
        <time>2020-02-06T13:37:02Z</time>
      </trkpt>
      <trkpt lat="46.18536" lon="6.56813">
        <ele>1453.65</ele>
        <time>2020-02-06T13:37:13Z</time>
      </trkpt>
      <trkpt lat="46.18539" lon="6.5682">
        <ele>1453.65</ele>
        <time>2020-02-06T13:37:30Z</time>
      </trkpt>
      <trkpt lat="46.1854" lon="6.5682">
        <ele>1453.65</ele>
        <time>2020-02-06T13:38:01Z</time>
      </trkpt>
      <trkpt lat="46.18542" lon="6.5683">
        <ele>1453.17</ele>
        <time>2020-02-06T13:38:16Z</time>
      </trkpt>
      <trkpt lat="46.18548" lon="6.56837">
        <ele>1453.65</ele>
        <time>2020-02-06T13:38:27Z</time>
      </trkpt>
      <trkpt lat="46.18554" lon="6.56835">
        <ele>1453.17</ele>
        <time>2020-02-06T13:38:40Z</time>
      </trkpt>
      <trkpt lat="46.1856" lon="6.56842">
        <ele>1453.17</ele>
        <time>2020-02-06T13:38:54Z</time>
      </trkpt>
      <trkpt lat="46.18566" lon="6.56852">
        <ele>1452.21</ele>
        <time>2020-02-06T13:39:08Z</time>
      </trkpt>
      <trkpt lat="46.18568" lon="6.56853">
        <ele>1452.69</ele>
        <time>2020-02-06T13:39:22Z</time>
      </trkpt>
      <trkpt lat="46.18571" lon="6.56854">
        <ele>1452.21</ele>
        <time>2020-02-06T13:39:43Z</time>
      </trkpt>
      <trkpt lat="46.18574" lon="6.5686">
        <ele>1452.21</ele>
        <time>2020-02-06T13:39:58Z</time>
      </trkpt>
      <trkpt lat="46.18575" lon="6.5687">
        <ele>1450.77</ele>
        <time>2020-02-06T13:40:13Z</time>
      </trkpt>
      <trkpt lat="46.18574" lon="6.56876">
        <ele>1451.73</ele>
        <time>2020-02-06T13:40:26Z</time>
      </trkpt>
      <trkpt lat="46.18574" lon="6.56876">
        <ele>1452.21</ele>
        <time>2020-02-06T13:40:49Z</time>
      </trkpt>
      <trkpt lat="46.18572" lon="6.56877">
        <ele>1451.25</ele>
        <time>2020-02-06T13:41:10Z</time>
      </trkpt>
      <trkpt lat="46.18573" lon="6.56876">
        <ele>1451.25</ele>
        <time>2020-02-06T13:41:24Z</time>
      </trkpt>
      <trkpt lat="46.18575" lon="6.56874">
        <ele>1450.29</ele>
        <time>2020-02-06T13:41:49Z</time>
      </trkpt>
      <trkpt lat="46.18578" lon="6.56864">
        <ele>1450.29</ele>
        <time>2020-02-06T13:42:01Z</time>
      </trkpt>
      <trkpt lat="46.18581" lon="6.56857">
        <ele>1450.29</ele>
        <time>2020-02-06T13:42:11Z</time>
      </trkpt>
      <trkpt lat="46.18585" lon="6.56853">
        <ele>1449.81</ele>
        <time>2020-02-06T13:42:23Z</time>
      </trkpt>
      <trkpt lat="46.18587" lon="6.56852">
        <ele>1449.32</ele>
        <time>2020-02-06T13:42:31Z</time>
      </trkpt>
      <trkpt lat="46.18598" lon="6.56841">
        <ele>1449.32</ele>
        <time>2020-02-06T13:42:43Z</time>
      </trkpt>
      <trkpt lat="46.18601" lon="6.56836">
        <ele>1449.81</ele>
        <time>2020-02-06T13:42:46Z</time>
      </trkpt>
      <trkpt lat="46.18611" lon="6.56834">
        <ele>1449.81</ele>
        <time>2020-02-06T13:42:58Z</time>
      </trkpt>
      <trkpt lat="46.1862" lon="6.56834">
        <ele>1447.88</ele>
        <time>2020-02-06T13:43:11Z</time>
      </trkpt>
      <trkpt lat="46.18626" lon="6.56843">
        <ele>1447.88</ele>
        <time>2020-02-06T13:43:23Z</time>
      </trkpt>
      <trkpt lat="46.18633" lon="6.5685">
        <ele>1446.92</ele>
        <time>2020-02-06T13:43:34Z</time>
      </trkpt>
      <trkpt lat="46.18637" lon="6.56854">
        <ele>1447.4</ele>
        <time>2020-02-06T13:43:49Z</time>
      </trkpt>
      <trkpt lat="46.18638" lon="6.56853">
        <ele>1447.88</ele>
        <time>2020-02-06T13:44:17Z</time>
      </trkpt>
      <trkpt lat="46.18645" lon="6.56846">
        <ele>1447.4</ele>
        <time>2020-02-06T13:44:29Z</time>
      </trkpt>
      <trkpt lat="46.18653" lon="6.56847">
        <ele>1447.4</ele>
        <time>2020-02-06T13:44:39Z</time>
      </trkpt>
      <trkpt lat="46.18663" lon="6.56848">
        <ele>1447.88</ele>
        <time>2020-02-06T13:44:53Z</time>
      </trkpt>
      <trkpt lat="46.18674" lon="6.56844">
        <ele>1447.4</ele>
        <time>2020-02-06T13:45:06Z</time>
      </trkpt>
      <trkpt lat="46.18686" lon="6.56838">
        <ele>1446.92</ele>
        <time>2020-02-06T13:45:17Z</time>
      </trkpt>
      <trkpt lat="46.18694" lon="6.56838">
        <ele>1446.44</ele>
        <time>2020-02-06T13:45:29Z</time>
      </trkpt>
      <trkpt lat="46.18703" lon="6.56835">
        <ele>1445.48</ele>
        <time>2020-02-06T13:45:39Z</time>
      </trkpt>
      <trkpt lat="46.18715" lon="6.56827">
        <ele>1444.52</ele>
        <time>2020-02-06T13:45:50Z</time>
      </trkpt>
      <trkpt lat="46.18721" lon="6.56834">
        <ele>1445</ele>
        <time>2020-02-06T13:46:01Z</time>
      </trkpt>
      <trkpt lat="46.1873" lon="6.56837">
        <ele>1445</ele>
        <time>2020-02-06T13:46:13Z</time>
      </trkpt>
      <trkpt lat="46.18741" lon="6.56844">
        <ele>1445.96</ele>
        <time>2020-02-06T13:46:24Z</time>
      </trkpt>
      <trkpt lat="46.18744" lon="6.56845">
        <ele>1445</ele>
        <time>2020-02-06T13:46:38Z</time>
      </trkpt>
      <trkpt lat="46.18747" lon="6.56847">
        <ele>1444.04</ele>
        <time>2020-02-06T13:46:50Z</time>
      </trkpt>
      <trkpt lat="46.18768" lon="6.5683">
        <ele>1443.56</ele>
        <time>2020-02-06T13:47:04Z</time>
      </trkpt>
      <trkpt lat="46.18772" lon="6.56828">
        <ele>1442.6</ele>
        <time>2020-02-06T13:47:08Z</time>
      </trkpt>
      <trkpt lat="46.18782" lon="6.56826">
        <ele>1441.15</ele>
        <time>2020-02-06T13:47:20Z</time>
      </trkpt>
      <trkpt lat="46.1879" lon="6.56821">
        <ele>1439.23</ele>
        <time>2020-02-06T13:47:32Z</time>
      </trkpt>
      <trkpt lat="46.18795" lon="6.56817">
        <ele>1438.27</ele>
        <time>2020-02-06T13:47:44Z</time>
      </trkpt>
      <trkpt lat="46.18807" lon="6.56811">
        <ele>1436.35</ele>
        <time>2020-02-06T13:47:56Z</time>
      </trkpt>
      <trkpt lat="46.18812" lon="6.56812">
        <ele>1435.87</ele>
        <time>2020-02-06T13:48:08Z</time>
      </trkpt>
      <trkpt lat="46.18812" lon="6.56812">
        <ele>1436.83</ele>
        <time>2020-02-06T13:48:52Z</time>
      </trkpt>
      <trkpt lat="46.18812" lon="6.56812">
        <ele>1436.35</ele>
        <time>2020-02-06T13:49:06Z</time>
      </trkpt>
      <trkpt lat="46.18816" lon="6.5681">
        <ele>1436.35</ele>
        <time>2020-02-06T13:50:01Z</time>
      </trkpt>
      <trkpt lat="46.18817" lon="6.56811">
        <ele>1435.39</ele>
        <time>2020-02-06T13:51:33Z</time>
      </trkpt>
      <trkpt lat="46.18829" lon="6.56809">
        <ele>1434.42</ele>
        <time>2020-02-06T13:51:46Z</time>
      </trkpt>
      <trkpt lat="46.18836" lon="6.56809">
        <ele>1433.94</ele>
        <time>2020-02-06T13:51:58Z</time>
      </trkpt>
      <trkpt lat="46.18847" lon="6.56803">
        <ele>1433.46</ele>
        <time>2020-02-06T13:52:10Z</time>
      </trkpt>
      <trkpt lat="46.1885" lon="6.56799">
        <ele>1432.5</ele>
        <time>2020-02-06T13:52:13Z</time>
      </trkpt>
      <trkpt lat="46.18859" lon="6.56793">
        <ele>1429.62</ele>
        <time>2020-02-06T13:52:26Z</time>
      </trkpt>
      <trkpt lat="46.18862" lon="6.56787">
        <ele>1427.21</ele>
        <time>2020-02-06T13:52:38Z</time>
      </trkpt>
      <trkpt lat="46.18864" lon="6.56774">
        <ele>1424.33</ele>
        <time>2020-02-06T13:52:50Z</time>
      </trkpt>
      <trkpt lat="46.18865" lon="6.56768">
        <ele>1421.45</ele>
        <time>2020-02-06T13:53:01Z</time>
      </trkpt>
      <trkpt lat="46.18873" lon="6.56759">
        <ele>1419.04</ele>
        <time>2020-02-06T13:53:13Z</time>
      </trkpt>
      <trkpt lat="46.18881" lon="6.56752">
        <ele>1416.64</ele>
        <time>2020-02-06T13:53:25Z</time>
      </trkpt>
      <trkpt lat="46.18886" lon="6.56748">
        <ele>1413.28</ele>
        <time>2020-02-06T13:53:35Z</time>
      </trkpt>
      <trkpt lat="46.18892" lon="6.56745">
        <ele>1409.91</ele>
        <time>2020-02-06T13:53:46Z</time>
      </trkpt>
      <trkpt lat="46.18893" lon="6.56745">
        <ele>1407.99</ele>
        <time>2020-02-06T13:53:59Z</time>
      </trkpt>
      <trkpt lat="46.18894" lon="6.56745">
        <ele>1407.51</ele>
        <time>2020-02-06T13:54:29Z</time>
      </trkpt>
      <trkpt lat="46.18895" lon="6.56746">
        <ele>1406.55</ele>
        <time>2020-02-06T13:55:36Z</time>
      </trkpt>
      <trkpt lat="46.18897" lon="6.56738">
        <ele>1405.1</ele>
        <time>2020-02-06T13:55:48Z</time>
      </trkpt>
      <trkpt lat="46.18899" lon="6.5673">
        <ele>1404.14</ele>
        <time>2020-02-06T13:56:07Z</time>
      </trkpt>
      <trkpt lat="46.18901" lon="6.56729">
        <ele>1401.26</ele>
        <time>2020-02-06T13:56:24Z</time>
      </trkpt>
      <trkpt lat="46.18908" lon="6.56723">
        <ele>1399.34</ele>
        <time>2020-02-06T13:56:42Z</time>
      </trkpt>
      <trkpt lat="46.18912" lon="6.56719">
        <ele>1396.45</ele>
        <time>2020-02-06T13:56:54Z</time>
      </trkpt>
      <trkpt lat="46.18915" lon="6.56717">
        <ele>1394.53</ele>
        <time>2020-02-06T13:57:13Z</time>
      </trkpt>
      <trkpt lat="46.18915" lon="6.56717">
        <ele>1392.61</ele>
        <time>2020-02-06T13:57:36Z</time>
      </trkpt>
      <trkpt lat="46.18916" lon="6.56713">
        <ele>1391.65</ele>
        <time>2020-02-06T13:57:48Z</time>
      </trkpt>
      <trkpt lat="46.18923" lon="6.56703">
        <ele>1388.76</ele>
        <time>2020-02-06T13:58:04Z</time>
      </trkpt>
      <trkpt lat="46.18924" lon="6.56699">
        <ele>1388.28</ele>
        <time>2020-02-06T13:58:17Z</time>
      </trkpt>
      <trkpt lat="46.18924" lon="6.56698">
        <ele>1388.28</ele>
        <time>2020-02-06T13:58:18Z</time>
      </trkpt>
      <trkpt lat="46.18925" lon="6.56692">
        <ele>1386.36</ele>
        <time>2020-02-06T13:58:21Z</time>
      </trkpt>
      <trkpt lat="46.18925" lon="6.56691">
        <ele>1386.84</ele>
        <time>2020-02-06T13:58:49Z</time>
      </trkpt>
      <trkpt lat="46.18927" lon="6.56691">
        <ele>1385.4</ele>
        <time>2020-02-06T13:59:05Z</time>
      </trkpt>
      <trkpt lat="46.18931" lon="6.56685">
        <ele>1384.44</ele>
        <time>2020-02-06T13:59:16Z</time>
      </trkpt>
      <trkpt lat="46.1893" lon="6.56684">
        <ele>1382.99</ele>
        <time>2020-02-06T13:59:33Z</time>
      </trkpt>
      <trkpt lat="46.18933" lon="6.56681">
        <ele>1380.59</ele>
        <time>2020-02-06T14:00:00Z</time>
      </trkpt>
      <trkpt lat="46.18939" lon="6.56677">
        <ele>1378.67</ele>
        <time>2020-02-06T14:00:14Z</time>
      </trkpt>
      <trkpt lat="46.18939" lon="6.56675">
        <ele>1375.78</ele>
        <time>2020-02-06T14:00:27Z</time>
      </trkpt>
      <trkpt lat="46.18939" lon="6.56675">
        <ele>1376.26</ele>
        <time>2020-02-06T14:00:45Z</time>
      </trkpt>
      <trkpt lat="46.18937" lon="6.56676">
        <ele>1376.26</ele>
        <time>2020-02-06T14:01:11Z</time>
      </trkpt>
      <trkpt lat="46.18938" lon="6.56676">
        <ele>1375.3</ele>
        <time>2020-02-06T14:01:33Z</time>
      </trkpt>
      <trkpt lat="46.18943" lon="6.56673">
        <ele>1372.9</ele>
        <time>2020-02-06T14:01:44Z</time>
      </trkpt>
      <trkpt lat="46.18944" lon="6.56665">
        <ele>1370.98</ele>
        <time>2020-02-06T14:01:49Z</time>
      </trkpt>
      <trkpt lat="46.18945" lon="6.56655">
        <ele>1369.05</ele>
        <time>2020-02-06T14:02:02Z</time>
      </trkpt>
      <trkpt lat="46.18947" lon="6.56646">
        <ele>1368.57</ele>
        <time>2020-02-06T14:02:13Z</time>
      </trkpt>
      <trkpt lat="46.18946" lon="6.56646">
        <ele>1366.65</ele>
        <time>2020-02-06T14:02:35Z</time>
      </trkpt>
      <trkpt lat="46.18946" lon="6.56646">
        <ele>1366.65</ele>
        <time>2020-02-06T14:03:02Z</time>
      </trkpt>
      <trkpt lat="46.18947" lon="6.56647">
        <ele>1364.73</ele>
        <time>2020-02-06T14:03:38Z</time>
      </trkpt>
      <trkpt lat="46.1895" lon="6.56645">
        <ele>1363.29</ele>
        <time>2020-02-06T14:03:53Z</time>
      </trkpt>
      <trkpt lat="46.1895" lon="6.56644">
        <ele>1363.77</ele>
        <time>2020-02-06T14:04:16Z</time>
      </trkpt>
      <trkpt lat="46.1895" lon="6.56643">
        <ele>1363.29</ele>
        <time>2020-02-06T14:04:34Z</time>
      </trkpt>
      <trkpt lat="46.18951" lon="6.56642">
        <ele>1360.88</ele>
        <time>2020-02-06T14:04:54Z</time>
      </trkpt>
      <trkpt lat="46.18951" lon="6.56642">
        <ele>1360.4</ele>
        <time>2020-02-06T14:05:13Z</time>
      </trkpt>
      <trkpt lat="46.18951" lon="6.56643">
        <ele>1358.48</ele>
        <time>2020-02-06T14:05:32Z</time>
      </trkpt>
      <trkpt lat="46.18957" lon="6.56644">
        <ele>1355.6</ele>
        <time>2020-02-06T14:05:48Z</time>
      </trkpt>
      <trkpt lat="46.1896" lon="6.5664">
        <ele>1354.63</ele>
        <time>2020-02-06T14:06:05Z</time>
      </trkpt>
      <trkpt lat="46.18964" lon="6.56632">
        <ele>1353.19</ele>
        <time>2020-02-06T14:06:18Z</time>
      </trkpt>
      <trkpt lat="46.18972" lon="6.56617">
        <ele>1349.83</ele>
        <time>2020-02-06T14:06:35Z</time>
      </trkpt>
      <trkpt lat="46.18976" lon="6.56611">
        <ele>1348.87</ele>
        <time>2020-02-06T14:06:49Z</time>
      </trkpt>
      <trkpt lat="46.18976" lon="6.56609">
        <ele>1345.98</ele>
        <time>2020-02-06T14:07:13Z</time>
      </trkpt>
      <trkpt lat="46.18977" lon="6.56607">
        <ele>1345.5</ele>
        <time>2020-02-06T14:07:28Z</time>
      </trkpt>
      <trkpt lat="46.18979" lon="6.56594">
        <ele>1342.62</ele>
        <time>2020-02-06T14:07:55Z</time>
      </trkpt>
      <trkpt lat="46.18975" lon="6.56596">
        <ele>1341.18</ele>
        <time>2020-02-06T14:08:11Z</time>
      </trkpt>
      <trkpt lat="46.18982" lon="6.56587">
        <ele>1340.22</ele>
        <time>2020-02-06T14:08:25Z</time>
      </trkpt>
      <trkpt lat="46.18985" lon="6.56589">
        <ele>1338.29</ele>
        <time>2020-02-06T14:08:36Z</time>
      </trkpt>
      <trkpt lat="46.18988" lon="6.5659">
        <ele>1335.41</ele>
        <time>2020-02-06T14:08:57Z</time>
      </trkpt>
      <trkpt lat="46.18996" lon="6.56577">
        <ele>1334.45</ele>
        <time>2020-02-06T14:09:11Z</time>
      </trkpt>
      <trkpt lat="46.18995" lon="6.56576">
        <ele>1335.89</ele>
        <time>2020-02-06T14:09:33Z</time>
      </trkpt>
      <trkpt lat="46.18995" lon="6.56575">
        <ele>1337.33</ele>
        <time>2020-02-06T14:09:39Z</time>
      </trkpt>
      <trkpt lat="46.18994" lon="6.56577">
        <ele>1338.29</ele>
        <time>2020-02-06T14:09:53Z</time>
      </trkpt>
      <trkpt lat="46.18994" lon="6.56576">
        <ele>1339.25</ele>
        <time>2020-02-06T14:11:04Z</time>
      </trkpt>
      <trkpt lat="46.18998" lon="6.56573">
        <ele>1339.25</ele>
        <time>2020-02-06T14:11:42Z</time>
      </trkpt>
      <trkpt lat="46.19" lon="6.56572">
        <ele>1336.37</ele>
        <time>2020-02-06T14:11:58Z</time>
      </trkpt>
      <trkpt lat="46.19001" lon="6.56572">
        <ele>1334.93</ele>
        <time>2020-02-06T14:12:39Z</time>
      </trkpt>
      <trkpt lat="46.19007" lon="6.56574">
        <ele>1331.56</ele>
        <time>2020-02-06T14:12:52Z</time>
      </trkpt>
      <trkpt lat="46.19009" lon="6.56576">
        <ele>1328.68</ele>
        <time>2020-02-06T14:13:03Z</time>
      </trkpt>
      <trkpt lat="46.19012" lon="6.56577">
        <ele>1325.31</ele>
        <time>2020-02-06T14:13:17Z</time>
      </trkpt>
      <trkpt lat="46.19012" lon="6.56577">
        <ele>1323.39</ele>
        <time>2020-02-06T14:13:25Z</time>
      </trkpt>
      <trkpt lat="46.19014" lon="6.56579">
        <ele>1322.91</ele>
        <time>2020-02-06T14:13:27Z</time>
      </trkpt>
      <trkpt lat="46.19021" lon="6.56586">
        <ele>1320.03</ele>
        <time>2020-02-06T14:13:38Z</time>
      </trkpt>
      <trkpt lat="46.19031" lon="6.5659">
        <ele>1316.66</ele>
        <time>2020-02-06T14:13:53Z</time>
      </trkpt>
      <trkpt lat="46.19037" lon="6.56594">
        <ele>1314.26</ele>
        <time>2020-02-06T14:14:05Z</time>
      </trkpt>
      <trkpt lat="46.19041" lon="6.56595">
        <ele>1311.38</ele>
        <time>2020-02-06T14:14:15Z</time>
      </trkpt>
      <trkpt lat="46.19043" lon="6.56595">
        <ele>1308.49</ele>
        <time>2020-02-06T14:14:28Z</time>
      </trkpt>
      <trkpt lat="46.1907" lon="6.56591">
        <ele>1305.13</ele>
        <time>2020-02-06T14:14:41Z</time>
      </trkpt>
      <trkpt lat="46.19076" lon="6.56593">
        <ele>1302.72</ele>
        <time>2020-02-06T14:14:56Z</time>
      </trkpt>
      <trkpt lat="46.19078" lon="6.56584">
        <ele>1299.84</ele>
        <time>2020-02-06T14:15:09Z</time>
      </trkpt>
      <trkpt lat="46.1908" lon="6.56583">
        <ele>1299.36</ele>
        <time>2020-02-06T14:15:24Z</time>
      </trkpt>
      <trkpt lat="46.19093" lon="6.56587">
        <ele>1299.36</ele>
        <time>2020-02-06T14:15:36Z</time>
      </trkpt>
      <trkpt lat="46.19096" lon="6.5659">
        <ele>1298.88</ele>
        <time>2020-02-06T14:15:52Z</time>
      </trkpt>
      <trkpt lat="46.19093" lon="6.56595">
        <ele>1300.32</ele>
        <time>2020-02-06T14:16:03Z</time>
      </trkpt>
      <trkpt lat="46.19085" lon="6.56607">
        <ele>1296.96</ele>
        <time>2020-02-06T14:16:15Z</time>
      </trkpt>
      <trkpt lat="46.19084" lon="6.56608">
        <ele>1296.48</ele>
        <time>2020-02-06T14:16:16Z</time>
      </trkpt>
      <trkpt lat="46.19084" lon="6.56611">
        <ele>1295.03</ele>
        <time>2020-02-06T14:16:23Z</time>
      </trkpt>
      <trkpt lat="46.19104" lon="6.56592">
        <ele>1291.67</ele>
        <time>2020-02-06T14:16:32Z</time>
      </trkpt>
      <trkpt lat="46.19107" lon="6.56588">
        <ele>1291.19</ele>
        <time>2020-02-06T14:16:35Z</time>
      </trkpt>
      <trkpt lat="46.19133" lon="6.56566">
        <ele>1287.82</ele>
        <time>2020-02-06T14:16:50Z</time>
      </trkpt>
      <trkpt lat="46.19133" lon="6.56565">
        <ele>1287.82</ele>
        <time>2020-02-06T14:17:11Z</time>
      </trkpt>
      <trkpt lat="46.19137" lon="6.5656">
        <ele>1287.34</ele>
        <time>2020-02-06T14:17:26Z</time>
      </trkpt>
      <trkpt lat="46.1915" lon="6.56549">
        <ele>1287.34</ele>
        <time>2020-02-06T14:17:51Z</time>
      </trkpt>
      <trkpt lat="46.1915" lon="6.56548">
        <ele>1287.82</ele>
        <time>2020-02-06T14:18:20Z</time>
      </trkpt>
      <trkpt lat="46.1915" lon="6.56551">
        <ele>1287.82</ele>
        <time>2020-02-06T14:18:58Z</time>
      </trkpt>
      <trkpt lat="46.1915" lon="6.56552">
        <ele>1287.34</ele>
        <time>2020-02-06T14:19:35Z</time>
      </trkpt>
      <trkpt lat="46.1915" lon="6.56552">
        <ele>1288.78</ele>
        <time>2020-02-06T14:19:42Z</time>
      </trkpt>
      <trkpt lat="46.19139" lon="6.5656">
        <ele>1288.3</ele>
        <time>2020-02-06T14:20:17Z</time>
      </trkpt>
      <trkpt lat="46.19124" lon="6.56573">
        <ele>1288.78</ele>
        <time>2020-02-06T14:20:36Z</time>
      </trkpt>
      <trkpt lat="46.19117" lon="6.56584">
        <ele>1289.27</ele>
        <time>2020-02-06T14:21:04Z</time>
      </trkpt>
      <trkpt lat="46.19116" lon="6.56588">
        <ele>1288.78</ele>
        <time>2020-02-06T14:21:18Z</time>
      </trkpt>
      <trkpt lat="46.19092" lon="6.566">
        <ele>1288.3</ele>
        <time>2020-02-06T14:21:37Z</time>
      </trkpt>
      <trkpt lat="46.19087" lon="6.56605">
        <ele>1288.78</ele>
        <time>2020-02-06T14:21:58Z</time>
      </trkpt>
      <trkpt lat="46.19088" lon="6.56604">
        <ele>1288.78</ele>
        <time>2020-02-06T14:22:51Z</time>
      </trkpt>
      <trkpt lat="46.19093" lon="6.56598">
        <ele>1288.78</ele>
        <time>2020-02-06T14:23:21Z</time>
      </trkpt>
      <trkpt lat="46.191" lon="6.56593">
        <ele>1288.78</ele>
        <time>2020-02-06T14:24:25Z</time>
      </trkpt>
      <trkpt lat="46.19129" lon="6.56584">
        <ele>1288.3</ele>
        <time>2020-02-06T14:24:37Z</time>
      </trkpt>
      <trkpt lat="46.19135" lon="6.56588">
        <ele>1287.34</ele>
        <time>2020-02-06T14:24:47Z</time>
      </trkpt>
      <trkpt lat="46.19148" lon="6.56602">
        <ele>1285.42</ele>
        <time>2020-02-06T14:25:04Z</time>
      </trkpt>
      <trkpt lat="46.19158" lon="6.56612">
        <ele>1283.5</ele>
        <time>2020-02-06T14:25:17Z</time>
      </trkpt>
      <trkpt lat="46.19158" lon="6.56613">
        <ele>1281.57</ele>
        <time>2020-02-06T14:25:18Z</time>
      </trkpt>
      <trkpt lat="46.19172" lon="6.56627">
        <ele>1280.13</ele>
        <time>2020-02-06T14:25:34Z</time>
      </trkpt>
      <trkpt lat="46.19182" lon="6.56638">
        <ele>1278.69</ele>
        <time>2020-02-06T14:25:48Z</time>
      </trkpt>
      <trkpt lat="46.19184" lon="6.56638">
        <ele>1278.21</ele>
        <time>2020-02-06T14:25:49Z</time>
      </trkpt>
      <trkpt lat="46.19187" lon="6.56642">
        <ele>1278.69</ele>
        <time>2020-02-06T14:25:53Z</time>
      </trkpt>
      <trkpt lat="46.19197" lon="6.5665">
        <ele>1276.77</ele>
        <time>2020-02-06T14:26:03Z</time>
      </trkpt>
      <trkpt lat="46.19204" lon="6.56654">
        <ele>1276.29</ele>
        <time>2020-02-06T14:26:10Z</time>
      </trkpt>
      <trkpt lat="46.19206" lon="6.56654">
        <ele>1276.29</ele>
        <time>2020-02-06T14:26:11Z</time>
      </trkpt>
      <trkpt lat="46.19208" lon="6.56661">
        <ele>1275.33</ele>
        <time>2020-02-06T14:26:15Z</time>
      </trkpt>
      <trkpt lat="46.19211" lon="6.56667">
        <ele>1274.85</ele>
        <time>2020-02-06T14:26:19Z</time>
      </trkpt>
      <trkpt lat="46.19218" lon="6.56678">
        <ele>1273.88</ele>
        <time>2020-02-06T14:26:30Z</time>
      </trkpt>
      <trkpt lat="46.19218" lon="6.56684">
        <ele>1273.88</ele>
        <time>2020-02-06T14:26:34Z</time>
      </trkpt>
      <trkpt lat="46.19222" lon="6.56688">
        <ele>1273.4</ele>
        <time>2020-02-06T14:26:38Z</time>
      </trkpt>
      <trkpt lat="46.19229" lon="6.56693">
        <ele>1272.44</ele>
        <time>2020-02-06T14:26:52Z</time>
      </trkpt>
      <trkpt lat="46.19223" lon="6.56679">
        <ele>1270.04</ele>
        <time>2020-02-06T14:27:05Z</time>
      </trkpt>
      <trkpt lat="46.19223" lon="6.56678">
        <ele>1270.52</ele>
        <time>2020-02-06T14:27:06Z</time>
      </trkpt>
      <trkpt lat="46.19217" lon="6.5666">
        <ele>1268.12</ele>
        <time>2020-02-06T14:27:21Z</time>
      </trkpt>
      <trkpt lat="46.19214" lon="6.56649">
        <ele>1266.67</ele>
        <time>2020-02-06T14:27:31Z</time>
      </trkpt>
      <trkpt lat="46.19214" lon="6.5663">
        <ele>1265.71</ele>
        <time>2020-02-06T14:27:44Z</time>
      </trkpt>
      <trkpt lat="46.1921" lon="6.56616">
        <ele>1265.71</ele>
        <time>2020-02-06T14:27:55Z</time>
      </trkpt>
      <trkpt lat="46.19206" lon="6.56607">
        <ele>1265.23</ele>
        <time>2020-02-06T14:28:04Z</time>
      </trkpt>
      <trkpt lat="46.19195" lon="6.56599">
        <ele>1264.27</ele>
        <time>2020-02-06T14:28:14Z</time>
      </trkpt>
      <trkpt lat="46.19193" lon="6.56587">
        <ele>1263.31</ele>
        <time>2020-02-06T14:28:24Z</time>
      </trkpt>
      <trkpt lat="46.19187" lon="6.56581">
        <ele>1262.35</ele>
        <time>2020-02-06T14:28:31Z</time>
      </trkpt>
      <trkpt lat="46.19186" lon="6.56577">
        <ele>1261.87</ele>
        <time>2020-02-06T14:28:33Z</time>
      </trkpt>
      <trkpt lat="46.19186" lon="6.56565">
        <ele>1260.43</ele>
        <time>2020-02-06T14:28:41Z</time>
      </trkpt>
      <trkpt lat="46.19198" lon="6.5656">
        <ele>1259.46</ele>
        <time>2020-02-06T14:28:54Z</time>
      </trkpt>
      <trkpt lat="46.19204" lon="6.5656">
        <ele>1258.98</ele>
        <time>2020-02-06T14:28:58Z</time>
      </trkpt>
      <trkpt lat="46.19224" lon="6.56565">
        <ele>1257.54</ele>
        <time>2020-02-06T14:29:11Z</time>
      </trkpt>
      <trkpt lat="46.19232" lon="6.56565">
        <ele>1257.54</ele>
        <time>2020-02-06T14:29:15Z</time>
      </trkpt>
      <trkpt lat="46.19238" lon="6.56569">
        <ele>1257.06</ele>
        <time>2020-02-06T14:29:19Z</time>
      </trkpt>
      <trkpt lat="46.1924" lon="6.56571">
        <ele>1257.06</ele>
        <time>2020-02-06T14:29:21Z</time>
      </trkpt>
      <trkpt lat="46.19249" lon="6.56575">
        <ele>1256.1</ele>
        <time>2020-02-06T14:29:27Z</time>
      </trkpt>
      <trkpt lat="46.1926" lon="6.56581">
        <ele>1254.66</ele>
        <time>2020-02-06T14:29:37Z</time>
      </trkpt>
      <trkpt lat="46.19266" lon="6.56584">
        <ele>1254.66</ele>
        <time>2020-02-06T14:29:41Z</time>
      </trkpt>
      <trkpt lat="46.19275" lon="6.56597">
        <ele>1253.22</ele>
        <time>2020-02-06T14:29:53Z</time>
      </trkpt>
      <trkpt lat="46.19285" lon="6.56602">
        <ele>1252.25</ele>
        <time>2020-02-06T14:30:05Z</time>
      </trkpt>
      <trkpt lat="46.19294" lon="6.56604">
        <ele>1251.77</ele>
        <time>2020-02-06T14:30:17Z</time>
      </trkpt>
      <trkpt lat="46.19297" lon="6.56604">
        <ele>1251.77</ele>
        <time>2020-02-06T14:30:21Z</time>
      </trkpt>
      <trkpt lat="46.19305" lon="6.56606">
        <ele>1251.29</ele>
        <time>2020-02-06T14:30:31Z</time>
      </trkpt>
      <trkpt lat="46.19309" lon="6.56611">
        <ele>1250.33</ele>
        <time>2020-02-06T14:30:42Z</time>
      </trkpt>
      <trkpt lat="46.1931" lon="6.56611">
        <ele>1250.33</ele>
        <time>2020-02-06T14:30:44Z</time>
      </trkpt>
      <trkpt lat="46.19316" lon="6.5661">
        <ele>1250.33</ele>
        <time>2020-02-06T14:30:49Z</time>
      </trkpt>
      <trkpt lat="46.19336" lon="6.566">
        <ele>1249.37</ele>
        <time>2020-02-06T14:30:59Z</time>
      </trkpt>
      <trkpt lat="46.19348" lon="6.56597">
        <ele>1247.93</ele>
        <time>2020-02-06T14:31:13Z</time>
      </trkpt>
      <trkpt lat="46.19362" lon="6.56593">
        <ele>1246.49</ele>
        <time>2020-02-06T14:31:26Z</time>
      </trkpt>
      <trkpt lat="46.1938" lon="6.56589">
        <ele>1244.56</ele>
        <time>2020-02-06T14:31:38Z</time>
      </trkpt>
      <trkpt lat="46.19397" lon="6.56593">
        <ele>1243.6</ele>
        <time>2020-02-06T14:31:52Z</time>
      </trkpt>
      <trkpt lat="46.194" lon="6.56596">
        <ele>1243.12</ele>
        <time>2020-02-06T14:31:57Z</time>
      </trkpt>
      <trkpt lat="46.19402" lon="6.56596">
        <ele>1242.64</ele>
        <time>2020-02-06T14:32:00Z</time>
      </trkpt>
      <trkpt lat="46.19406" lon="6.56596">
        <ele>1242.64</ele>
        <time>2020-02-06T14:32:03Z</time>
      </trkpt>
      <trkpt lat="46.19413" lon="6.56596">
        <ele>1241.68</ele>
        <time>2020-02-06T14:32:09Z</time>
      </trkpt>
      <trkpt lat="46.19419" lon="6.566">
        <ele>1241.2</ele>
        <time>2020-02-06T14:32:14Z</time>
      </trkpt>
      <trkpt lat="46.19425" lon="6.56603">
        <ele>1240.24</ele>
        <time>2020-02-06T14:32:19Z</time>
      </trkpt>
      <trkpt lat="46.19427" lon="6.56604">
        <ele>1240.24</ele>
        <time>2020-02-06T14:32:21Z</time>
      </trkpt>
      <trkpt lat="46.19431" lon="6.56608">
        <ele>1239.76</ele>
        <time>2020-02-06T14:32:25Z</time>
      </trkpt>
      <trkpt lat="46.1944" lon="6.56615">
        <ele>1238.8</ele>
        <time>2020-02-06T14:32:35Z</time>
      </trkpt>
      <trkpt lat="46.19441" lon="6.56621">
        <ele>1238.8</ele>
        <time>2020-02-06T14:32:39Z</time>
      </trkpt>
      <trkpt lat="46.1944" lon="6.56629">
        <ele>1237.83</ele>
        <time>2020-02-06T14:32:44Z</time>
      </trkpt>
      <trkpt lat="46.19443" lon="6.56632">
        <ele>1237.35</ele>
        <time>2020-02-06T14:32:47Z</time>
      </trkpt>
      <trkpt lat="46.19445" lon="6.56635">
        <ele>1236.87</ele>
        <time>2020-02-06T14:32:49Z</time>
      </trkpt>
      <trkpt lat="46.19447" lon="6.56638">
        <ele>1237.35</ele>
        <time>2020-02-06T14:32:52Z</time>
      </trkpt>
      <trkpt lat="46.1945" lon="6.56638">
        <ele>1236.87</ele>
        <time>2020-02-06T14:32:55Z</time>
      </trkpt>
      <trkpt lat="46.19457" lon="6.56643">
        <ele>1235.91</ele>
        <time>2020-02-06T14:33:00Z</time>
      </trkpt>
      <trkpt lat="46.19476" lon="6.56651">
        <ele>1234.95</ele>
        <time>2020-02-06T14:33:14Z</time>
      </trkpt>
      <trkpt lat="46.19477" lon="6.56653">
        <ele>1234.47</ele>
        <time>2020-02-06T14:33:16Z</time>
      </trkpt>
      <trkpt lat="46.19478" lon="6.56656">
        <ele>1234.47</ele>
        <time>2020-02-06T14:33:18Z</time>
      </trkpt>
      <trkpt lat="46.19479" lon="6.56657">
        <ele>1233.99</ele>
        <time>2020-02-06T14:33:19Z</time>
      </trkpt>
      <trkpt lat="46.1948" lon="6.56658">
        <ele>1234.47</ele>
        <time>2020-02-06T14:33:20Z</time>
      </trkpt>
      <trkpt lat="46.19491" lon="6.56665">
        <ele>1233.03</ele>
        <time>2020-02-06T14:33:31Z</time>
      </trkpt>
      <trkpt lat="46.19492" lon="6.56666">
        <ele>1233.03</ele>
        <time>2020-02-06T14:33:32Z</time>
      </trkpt>
      <trkpt lat="46.19502" lon="6.56666">
        <ele>1232.07</ele>
        <time>2020-02-06T14:33:39Z</time>
      </trkpt>
      <trkpt lat="46.19506" lon="6.56669">
        <ele>1231.59</ele>
        <time>2020-02-06T14:33:42Z</time>
      </trkpt>
      <trkpt lat="46.19507" lon="6.5667">
        <ele>1231.59</ele>
        <time>2020-02-06T14:33:43Z</time>
      </trkpt>
      <trkpt lat="46.19518" lon="6.56684">
        <ele>1230.14</ele>
        <time>2020-02-06T14:33:56Z</time>
      </trkpt>
      <trkpt lat="46.19524" lon="6.56688">
        <ele>1230.14</ele>
        <time>2020-02-06T14:34:01Z</time>
      </trkpt>
      <trkpt lat="46.19537" lon="6.56698">
        <ele>1228.7</ele>
        <time>2020-02-06T14:34:14Z</time>
      </trkpt>
      <trkpt lat="46.19542" lon="6.56704">
        <ele>1228.22</ele>
        <time>2020-02-06T14:34:21Z</time>
      </trkpt>
      <trkpt lat="46.19549" lon="6.56714">
        <ele>1227.74</ele>
        <time>2020-02-06T14:34:29Z</time>
      </trkpt>
      <trkpt lat="46.19551" lon="6.56714">
        <ele>1226.78</ele>
        <time>2020-02-06T14:34:30Z</time>
      </trkpt>
      <trkpt lat="46.19561" lon="6.56724">
        <ele>1226.78</ele>
        <time>2020-02-06T14:34:42Z</time>
      </trkpt>
      <trkpt lat="46.19562" lon="6.56726">
        <ele>1226.3</ele>
        <time>2020-02-06T14:34:43Z</time>
      </trkpt>
      <trkpt lat="46.19571" lon="6.56733">
        <ele>1226.3</ele>
        <time>2020-02-06T14:34:54Z</time>
      </trkpt>
      <trkpt lat="46.19574" lon="6.56735">
        <ele>1226.3</ele>
        <time>2020-02-06T14:34:57Z</time>
      </trkpt>
      <trkpt lat="46.19584" lon="6.56749">
        <ele>1225.34</ele>
        <time>2020-02-06T14:35:12Z</time>
      </trkpt>
      <trkpt lat="46.19593" lon="6.56753">
        <ele>1225.34</ele>
        <time>2020-02-06T14:35:22Z</time>
      </trkpt>
      <trkpt lat="46.19595" lon="6.56756">
        <ele>1225.34</ele>
        <time>2020-02-06T14:35:39Z</time>
      </trkpt>
      <trkpt lat="46.19596" lon="6.5676">
        <ele>1224.86</ele>
        <time>2020-02-06T14:35:59Z</time>
      </trkpt>
      <trkpt lat="46.19595" lon="6.56761">
        <ele>1225.34</ele>
        <time>2020-02-06T14:36:24Z</time>
      </trkpt>
      <trkpt lat="46.19595" lon="6.56761">
        <ele>1225.34</ele>
        <time>2020-02-06T14:37:19Z</time>
      </trkpt>
      <trkpt lat="46.19595" lon="6.56761">
        <ele>1225.34</ele>
        <time>2020-02-06T14:37:22Z</time>
      </trkpt>
      <trkpt lat="46.19599" lon="6.5677">
        <ele>1225.34</ele>
        <time>2020-02-06T14:37:28Z</time>
      </trkpt>
      <trkpt lat="46.19606" lon="6.56772">
        <ele>1224.86</ele>
        <time>2020-02-06T14:37:36Z</time>
      </trkpt>
      <trkpt lat="46.19611" lon="6.56781">
        <ele>1224.38</ele>
        <time>2020-02-06T14:37:43Z</time>
      </trkpt>
      <trkpt lat="46.19614" lon="6.56782">
        <ele>1223.9</ele>
        <time>2020-02-06T14:37:46Z</time>
      </trkpt>
      <trkpt lat="46.19622" lon="6.56787">
        <ele>1224.38</ele>
        <time>2020-02-06T14:37:54Z</time>
      </trkpt>
      <trkpt lat="46.19624" lon="6.56791">
        <ele>1224.38</ele>
        <time>2020-02-06T14:37:57Z</time>
      </trkpt>
      <trkpt lat="46.19628" lon="6.56795">
        <ele>1223.42</ele>
        <time>2020-02-06T14:38:02Z</time>
      </trkpt>
      <trkpt lat="46.19628" lon="6.56796">
        <ele>1223.42</ele>
        <time>2020-02-06T14:38:03Z</time>
      </trkpt>
      <trkpt lat="46.19632" lon="6.56806">
        <ele>1222.93</ele>
        <time>2020-02-06T14:38:10Z</time>
      </trkpt>
      <trkpt lat="46.19639" lon="6.5681">
        <ele>1221.49</ele>
        <time>2020-02-06T14:38:17Z</time>
      </trkpt>
      <trkpt lat="46.19641" lon="6.5681">
        <ele>1221.97</ele>
        <time>2020-02-06T14:38:19Z</time>
      </trkpt>
      <trkpt lat="46.19647" lon="6.56825">
        <ele>1221.01</ele>
        <time>2020-02-06T14:38:31Z</time>
      </trkpt>
      <trkpt lat="46.19647" lon="6.56826">
        <ele>1220.53</ele>
        <time>2020-02-06T14:38:32Z</time>
      </trkpt>
      <trkpt lat="46.19653" lon="6.56838">
        <ele>1219.57</ele>
        <time>2020-02-06T14:38:45Z</time>
      </trkpt>
      <trkpt lat="46.19661" lon="6.5684">
        <ele>1218.61</ele>
        <time>2020-02-06T14:38:52Z</time>
      </trkpt>
      <trkpt lat="46.19664" lon="6.56843">
        <ele>1218.13</ele>
        <time>2020-02-06T14:38:55Z</time>
      </trkpt>
      <trkpt lat="46.19671" lon="6.56851">
        <ele>1217.17</ele>
        <time>2020-02-06T14:39:04Z</time>
      </trkpt>
      <trkpt lat="46.19687" lon="6.56856">
        <ele>1215.72</ele>
        <time>2020-02-06T14:39:17Z</time>
      </trkpt>
      <trkpt lat="46.19694" lon="6.5686">
        <ele>1214.76</ele>
        <time>2020-02-06T14:39:25Z</time>
      </trkpt>
      <trkpt lat="46.19702" lon="6.5686">
        <ele>1213.8</ele>
        <time>2020-02-06T14:39:31Z</time>
      </trkpt>
      <trkpt lat="46.19718" lon="6.56859">
        <ele>1212.84</ele>
        <time>2020-02-06T14:39:44Z</time>
      </trkpt>
      <trkpt lat="46.19723" lon="6.56858">
        <ele>1211.88</ele>
        <time>2020-02-06T14:39:48Z</time>
      </trkpt>
      <trkpt lat="46.19732" lon="6.56861">
        <ele>1210.92</ele>
        <time>2020-02-06T14:39:55Z</time>
      </trkpt>
      <trkpt lat="46.19736" lon="6.56861">
        <ele>1210.92</ele>
        <time>2020-02-06T14:39:59Z</time>
      </trkpt>
      <trkpt lat="46.19743" lon="6.56866">
        <ele>1209</ele>
        <time>2020-02-06T14:40:11Z</time>
      </trkpt>
      <trkpt lat="46.19748" lon="6.56867">
        <ele>1207.55</ele>
        <time>2020-02-06T14:40:22Z</time>
      </trkpt>
      <trkpt lat="46.19761" lon="6.56871">
        <ele>1206.11</ele>
        <time>2020-02-06T14:40:34Z</time>
      </trkpt>
      <trkpt lat="46.1977" lon="6.56871">
        <ele>1206.11</ele>
        <time>2020-02-06T14:40:41Z</time>
      </trkpt>
      <trkpt lat="46.19785" lon="6.56875">
        <ele>1204.19</ele>
        <time>2020-02-06T14:40:55Z</time>
      </trkpt>
      <trkpt lat="46.19799" lon="6.56883">
        <ele>1203.23</ele>
        <time>2020-02-06T14:41:06Z</time>
      </trkpt>
      <trkpt lat="46.19812" lon="6.56888">
        <ele>1202.27</ele>
        <time>2020-02-06T14:41:18Z</time>
      </trkpt>
      <trkpt lat="46.19823" lon="6.56891">
        <ele>1200.82</ele>
        <time>2020-02-06T14:41:30Z</time>
      </trkpt>
      <trkpt lat="46.19835" lon="6.56896">
        <ele>1199.86</ele>
        <time>2020-02-06T14:41:44Z</time>
      </trkpt>
      <trkpt lat="46.19845" lon="6.56902">
        <ele>1198.42</ele>
        <time>2020-02-06T14:41:57Z</time>
      </trkpt>
      <trkpt lat="46.19862" lon="6.56906">
        <ele>1198.42</ele>
        <time>2020-02-06T14:42:08Z</time>
      </trkpt>
      <trkpt lat="46.19876" lon="6.56908">
        <ele>1197.94</ele>
        <time>2020-02-06T14:42:19Z</time>
      </trkpt>
      <trkpt lat="46.19882" lon="6.56908">
        <ele>1196.98</ele>
        <time>2020-02-06T14:42:27Z</time>
      </trkpt>
      <trkpt lat="46.19894" lon="6.56913">
        <ele>1196.02</ele>
        <time>2020-02-06T14:42:39Z</time>
      </trkpt>
      <trkpt lat="46.19905" lon="6.5692">
        <ele>1196.02</ele>
        <time>2020-02-06T14:42:50Z</time>
      </trkpt>
      <trkpt lat="46.19915" lon="6.56927">
        <ele>1195.06</ele>
        <time>2020-02-06T14:43:01Z</time>
      </trkpt>
      <trkpt lat="46.19927" lon="6.56938">
        <ele>1195.06</ele>
        <time>2020-02-06T14:43:14Z</time>
      </trkpt>
      <trkpt lat="46.19941" lon="6.56949">
        <ele>1194.09</ele>
        <time>2020-02-06T14:43:27Z</time>
      </trkpt>
      <trkpt lat="46.19954" lon="6.56959">
        <ele>1193.61</ele>
        <time>2020-02-06T14:43:39Z</time>
      </trkpt>
      <trkpt lat="46.19963" lon="6.56967">
        <ele>1193.13</ele>
        <time>2020-02-06T14:43:47Z</time>
      </trkpt>
      <trkpt lat="46.19966" lon="6.5697">
        <ele>1192.65</ele>
        <time>2020-02-06T14:43:50Z</time>
      </trkpt>
      <trkpt lat="46.19975" lon="6.56977">
        <ele>1193.13</ele>
        <time>2020-02-06T14:43:59Z</time>
      </trkpt>
      <trkpt lat="46.19987" lon="6.56988">
        <ele>1191.21</ele>
        <time>2020-02-06T14:44:12Z</time>
      </trkpt>
      <trkpt lat="46.19992" lon="6.56993">
        <ele>1190.73</ele>
        <time>2020-02-06T14:44:18Z</time>
      </trkpt>
      <trkpt lat="46.19995" lon="6.56996">
        <ele>1190.73</ele>
        <time>2020-02-06T14:44:21Z</time>
      </trkpt>
      <trkpt lat="46.19999" lon="6.56999">
        <ele>1190.25</ele>
        <time>2020-02-06T14:44:32Z</time>
      </trkpt>
      <trkpt lat="46.20003" lon="6.57004">
        <ele>1189.77</ele>
        <time>2020-02-06T14:45:46Z</time>
      </trkpt>
      <trkpt lat="46.20011" lon="6.57013">
        <ele>1189.77</ele>
        <time>2020-02-06T14:45:59Z</time>
      </trkpt>
      <trkpt lat="46.20022" lon="6.5702">
        <ele>1189.29</ele>
        <time>2020-02-06T14:46:13Z</time>
      </trkpt>
      <trkpt lat="46.20028" lon="6.57022">
        <ele>1188.33</ele>
        <time>2020-02-06T14:46:19Z</time>
      </trkpt>
      <trkpt lat="46.20031" lon="6.57024">
        <ele>1188.33</ele>
        <time>2020-02-06T14:46:22Z</time>
      </trkpt>
      <trkpt lat="46.20033" lon="6.57024">
        <ele>1188.33</ele>
        <time>2020-02-06T14:46:24Z</time>
      </trkpt>
      <trkpt lat="46.20035" lon="6.57025">
        <ele>1188.33</ele>
        <time>2020-02-06T14:46:26Z</time>
      </trkpt>
      <trkpt lat="46.20047" lon="6.57034">
        <ele>1187.37</ele>
        <time>2020-02-06T14:46:39Z</time>
      </trkpt>
      <trkpt lat="46.2006" lon="6.57045">
        <ele>1186.4</ele>
        <time>2020-02-06T14:46:51Z</time>
      </trkpt>
      <trkpt lat="46.20068" lon="6.57053">
        <ele>1185.92</ele>
        <time>2020-02-06T14:47:01Z</time>
      </trkpt>
      <trkpt lat="46.20071" lon="6.5706">
        <ele>1186.4</ele>
        <time>2020-02-06T14:47:14Z</time>
      </trkpt>
      <trkpt lat="46.20078" lon="6.57069">
        <ele>1185.44</ele>
        <time>2020-02-06T14:47:25Z</time>
      </trkpt>
      <trkpt lat="46.20079" lon="6.5707">
        <ele>1184.96</ele>
        <time>2020-02-06T14:47:26Z</time>
      </trkpt>
      <trkpt lat="46.20091" lon="6.57078">
        <ele>1184.96</ele>
        <time>2020-02-06T14:47:40Z</time>
      </trkpt>
      <trkpt lat="46.2009" lon="6.5708">
        <ele>1184.48</ele>
        <time>2020-02-06T14:47:59Z</time>
      </trkpt>
      <trkpt lat="46.20091" lon="6.57079">
        <ele>1183.52</ele>
        <time>2020-02-06T14:49:08Z</time>
      </trkpt>
      <trkpt lat="46.20101" lon="6.5708">
        <ele>1183.04</ele>
        <time>2020-02-06T14:49:20Z</time>
      </trkpt>
      <trkpt lat="46.20104" lon="6.5708">
        <ele>1183.04</ele>
        <time>2020-02-06T14:49:32Z</time>
      </trkpt>
      <trkpt lat="46.20107" lon="6.57081">
        <ele>1182.56</ele>
        <time>2020-02-06T14:49:49Z</time>
      </trkpt>
      <trkpt lat="46.20113" lon="6.57082">
        <ele>1182.56</ele>
        <time>2020-02-06T14:49:55Z</time>
      </trkpt>
      <trkpt lat="46.20124" lon="6.57083">
        <ele>1181.12</ele>
        <time>2020-02-06T14:50:07Z</time>
      </trkpt>
      <trkpt lat="46.20135" lon="6.57085">
        <ele>1181.12</ele>
        <time>2020-02-06T14:50:20Z</time>
      </trkpt>
      <trkpt lat="46.20146" lon="6.57087">
        <ele>1181.12</ele>
        <time>2020-02-06T14:50:27Z</time>
      </trkpt>
      <trkpt lat="46.20162" lon="6.57092">
        <ele>1180.16</ele>
        <time>2020-02-06T14:50:41Z</time>
      </trkpt>
      <trkpt lat="46.20175" lon="6.57096">
        <ele>1179.67</ele>
        <time>2020-02-06T14:50:54Z</time>
      </trkpt>
      <trkpt lat="46.20187" lon="6.57099">
        <ele>1178.23</ele>
        <time>2020-02-06T14:51:06Z</time>
      </trkpt>
      <trkpt lat="46.20196" lon="6.57103">
        <ele>1178.23</ele>
        <time>2020-02-06T14:51:18Z</time>
      </trkpt>
      <trkpt lat="46.20208" lon="6.57106">
        <ele>1177.75</ele>
        <time>2020-02-06T14:51:31Z</time>
      </trkpt>
      <trkpt lat="46.20217" lon="6.57108">
        <ele>1177.75</ele>
        <time>2020-02-06T14:51:41Z</time>
      </trkpt>
      <trkpt lat="46.20223" lon="6.57113">
        <ele>1177.27</ele>
        <time>2020-02-06T14:51:52Z</time>
      </trkpt>
      <trkpt lat="46.20236" lon="6.5712">
        <ele>1177.27</ele>
        <time>2020-02-06T14:52:04Z</time>
      </trkpt>
      <trkpt lat="46.20243" lon="6.57123">
        <ele>1176.79</ele>
        <time>2020-02-06T14:52:15Z</time>
      </trkpt>
      <trkpt lat="46.2026" lon="6.5713">
        <ele>1175.83</ele>
        <time>2020-02-06T14:52:25Z</time>
      </trkpt>
      <trkpt lat="46.20277" lon="6.57135">
        <ele>1175.83</ele>
        <time>2020-02-06T14:52:39Z</time>
      </trkpt>
      <trkpt lat="46.20294" lon="6.57142">
        <ele>1175.83</ele>
        <time>2020-02-06T14:52:53Z</time>
      </trkpt>
      <trkpt lat="46.20305" lon="6.57146">
        <ele>1175.35</ele>
        <time>2020-02-06T14:53:04Z</time>
      </trkpt>
      <trkpt lat="46.20312" lon="6.57149">
        <ele>1174.87</ele>
        <time>2020-02-06T14:53:10Z</time>
      </trkpt>
      <trkpt lat="46.20329" lon="6.57158">
        <ele>1174.39</ele>
        <time>2020-02-06T14:53:26Z</time>
      </trkpt>
      <trkpt lat="46.20336" lon="6.57163">
        <ele>1173.91</ele>
        <time>2020-02-06T14:53:33Z</time>
      </trkpt>
      <trkpt lat="46.20349" lon="6.57173">
        <ele>1172.95</ele>
        <time>2020-02-06T14:53:46Z</time>
      </trkpt>
      <trkpt lat="46.20352" lon="6.57177">
        <ele>1172.47</ele>
        <time>2020-02-06T14:53:50Z</time>
      </trkpt>
      <trkpt lat="46.20363" lon="6.57193">
        <ele>1171.98</ele>
        <time>2020-02-06T14:54:04Z</time>
      </trkpt>
      <trkpt lat="46.20372" lon="6.57204">
        <ele>1170.54</ele>
        <time>2020-02-06T14:54:14Z</time>
      </trkpt>
      <trkpt lat="46.20375" lon="6.57209">
        <ele>1170.54</ele>
        <time>2020-02-06T14:54:18Z</time>
      </trkpt>
      <trkpt lat="46.20378" lon="6.57212">
        <ele>1171.02</ele>
        <time>2020-02-06T14:54:21Z</time>
      </trkpt>
      <trkpt lat="46.20386" lon="6.57224">
        <ele>1170.06</ele>
        <time>2020-02-06T14:54:31Z</time>
      </trkpt>
      <trkpt lat="46.20395" lon="6.57244">
        <ele>1169.1</ele>
        <time>2020-02-06T14:54:46Z</time>
      </trkpt>
      <trkpt lat="46.20405" lon="6.57261">
        <ele>1167.18</ele>
        <time>2020-02-06T14:55:00Z</time>
      </trkpt>
      <trkpt lat="46.20412" lon="6.57274">
        <ele>1166.22</ele>
        <time>2020-02-06T14:55:14Z</time>
      </trkpt>
      <trkpt lat="46.20417" lon="6.57281">
        <ele>1165.74</ele>
        <time>2020-02-06T14:55:29Z</time>
      </trkpt>
      <trkpt lat="46.20418" lon="6.57282">
        <ele>1165.26</ele>
        <time>2020-02-06T14:56:02Z</time>
      </trkpt>
      <trkpt lat="46.20427" lon="6.57289">
        <ele>1164.77</ele>
        <time>2020-02-06T14:57:33Z</time>
      </trkpt>
      <trkpt lat="46.2044" lon="6.57296">
        <ele>1164.29</ele>
        <time>2020-02-06T14:57:42Z</time>
      </trkpt>
      <trkpt lat="46.20453" lon="6.57303">
        <ele>1163.81</ele>
        <time>2020-02-06T14:57:55Z</time>
      </trkpt>
      <trkpt lat="46.20462" lon="6.57311">
        <ele>1163.33</ele>
        <time>2020-02-06T14:58:07Z</time>
      </trkpt>
      <trkpt lat="46.20471" lon="6.57319">
        <ele>1162.85</ele>
        <time>2020-02-06T14:58:17Z</time>
      </trkpt>
      <trkpt lat="46.20478" lon="6.57323">
        <ele>1162.37</ele>
        <time>2020-02-06T14:58:24Z</time>
      </trkpt>
      <trkpt lat="46.20485" lon="6.57329">
        <ele>1162.37</ele>
        <time>2020-02-06T14:58:32Z</time>
      </trkpt>
      <trkpt lat="46.20492" lon="6.57333">
        <ele>1161.89</ele>
        <time>2020-02-06T14:58:39Z</time>
      </trkpt>
      <trkpt lat="46.20503" lon="6.57342">
        <ele>1161.41</ele>
        <time>2020-02-06T14:58:52Z</time>
      </trkpt>
      <trkpt lat="46.20505" lon="6.57344">
        <ele>1161.41</ele>
        <time>2020-02-06T14:58:55Z</time>
      </trkpt>
      <trkpt lat="46.20516" lon="6.57351">
        <ele>1160.93</ele>
        <time>2020-02-06T14:59:07Z</time>
      </trkpt>
      <trkpt lat="46.2053" lon="6.57361">
        <ele>1160.45</ele>
        <time>2020-02-06T14:59:21Z</time>
      </trkpt>
      <trkpt lat="46.2053" lon="6.57362">
        <ele>1159.97</ele>
        <time>2020-02-06T14:59:22Z</time>
      </trkpt>
      <trkpt lat="46.20533" lon="6.57364">
        <ele>1159.49</ele>
        <time>2020-02-06T14:59:25Z</time>
      </trkpt>
      <trkpt lat="46.20539" lon="6.57369">
        <ele>1159.01</ele>
        <time>2020-02-06T14:59:32Z</time>
      </trkpt>
      <trkpt lat="46.20542" lon="6.57372">
        <ele>1159.01</ele>
        <time>2020-02-06T14:59:36Z</time>
      </trkpt>
      <trkpt lat="46.20545" lon="6.57374">
        <ele>1159.01</ele>
        <time>2020-02-06T14:59:38Z</time>
      </trkpt>
      <trkpt lat="46.20556" lon="6.57383">
        <ele>1158.05</ele>
        <time>2020-02-06T14:59:51Z</time>
      </trkpt>
      <trkpt lat="46.20568" lon="6.57394">
        <ele>1157.56</ele>
        <time>2020-02-06T15:00:04Z</time>
      </trkpt>
      <trkpt lat="46.20581" lon="6.57403">
        <ele>1157.08</ele>
        <time>2020-02-06T15:00:18Z</time>
      </trkpt>
      <trkpt lat="46.20585" lon="6.57406">
        <ele>1156.6</ele>
        <time>2020-02-06T15:00:22Z</time>
      </trkpt>
      <trkpt lat="46.20588" lon="6.57408">
        <ele>1156.6</ele>
        <time>2020-02-06T15:00:25Z</time>
      </trkpt>
      <trkpt lat="46.20599" lon="6.57416">
        <ele>1156.12</ele>
        <time>2020-02-06T15:00:38Z</time>
      </trkpt>
      <trkpt lat="46.20612" lon="6.57422">
        <ele>1155.64</ele>
        <time>2020-02-06T15:00:51Z</time>
      </trkpt>
      <trkpt lat="46.20629" lon="6.5743">
        <ele>1155.16</ele>
        <time>2020-02-06T15:01:07Z</time>
      </trkpt>
      <trkpt lat="46.20635" lon="6.57433">
        <ele>1154.68</ele>
        <time>2020-02-06T15:01:14Z</time>
      </trkpt>
      <trkpt lat="46.20644" lon="6.57439">
        <ele>1154.2</ele>
        <time>2020-02-06T15:01:23Z</time>
      </trkpt>
      <trkpt lat="46.20649" lon="6.57442">
        <ele>1153.72</ele>
        <time>2020-02-06T15:01:27Z</time>
      </trkpt>
      <trkpt lat="46.20657" lon="6.57449">
        <ele>1153.24</ele>
        <time>2020-02-06T15:01:36Z</time>
      </trkpt>
      <trkpt lat="46.20669" lon="6.57463">
        <ele>1152.28</ele>
        <time>2020-02-06T15:01:50Z</time>
      </trkpt>
      <trkpt lat="46.20674" lon="6.57472">
        <ele>1151.32</ele>
        <time>2020-02-06T15:01:58Z</time>
      </trkpt>
      <trkpt lat="46.20684" lon="6.57486">
        <ele>1150.35</ele>
        <time>2020-02-06T15:02:12Z</time>
      </trkpt>
      <trkpt lat="46.20688" lon="6.57489">
        <ele>1149.87</ele>
        <time>2020-02-06T15:02:17Z</time>
      </trkpt>
      <trkpt lat="46.20692" lon="6.57493">
        <ele>1149.39</ele>
        <time>2020-02-06T15:02:21Z</time>
      </trkpt>
      <trkpt lat="46.20705" lon="6.57506">
        <ele>1148.91</ele>
        <time>2020-02-06T15:02:34Z</time>
      </trkpt>
      <trkpt lat="46.20716" lon="6.57516">
        <ele>1147.95</ele>
        <time>2020-02-06T15:02:45Z</time>
      </trkpt>
      <trkpt lat="46.20726" lon="6.57525">
        <ele>1147.47</ele>
        <time>2020-02-06T15:02:57Z</time>
      </trkpt>
      <trkpt lat="46.20735" lon="6.57531">
        <ele>1146.51</ele>
        <time>2020-02-06T15:03:07Z</time>
      </trkpt>
      <trkpt lat="46.20747" lon="6.57543">
        <ele>1145.55</ele>
        <time>2020-02-06T15:03:20Z</time>
      </trkpt>
      <trkpt lat="46.20755" lon="6.5755">
        <ele>1145.55</ele>
        <time>2020-02-06T15:03:28Z</time>
      </trkpt>
      <trkpt lat="46.20766" lon="6.57559">
        <ele>1145.07</ele>
        <time>2020-02-06T15:03:40Z</time>
      </trkpt>
      <trkpt lat="46.2078" lon="6.57569">
        <ele>1144.59</ele>
        <time>2020-02-06T15:03:55Z</time>
      </trkpt>
      <trkpt lat="46.20797" lon="6.57584">
        <ele>1143.63</ele>
        <time>2020-02-06T15:04:10Z</time>
      </trkpt>
      <trkpt lat="46.20799" lon="6.57586">
        <ele>1143.14</ele>
        <time>2020-02-06T15:04:12Z</time>
      </trkpt>
      <trkpt lat="46.20803" lon="6.57592">
        <ele>1143.14</ele>
        <time>2020-02-06T15:04:17Z</time>
      </trkpt>
      <trkpt lat="46.20804" lon="6.57595">
        <ele>1142.66</ele>
        <time>2020-02-06T15:04:20Z</time>
      </trkpt>
      <trkpt lat="46.20805" lon="6.57598">
        <ele>1142.18</ele>
        <time>2020-02-06T15:04:22Z</time>
      </trkpt>
      <trkpt lat="46.20811" lon="6.57609">
        <ele>1142.18</ele>
        <time>2020-02-06T15:04:32Z</time>
      </trkpt>
      <trkpt lat="46.20816" lon="6.5763">
        <ele>1140.26</ele>
        <time>2020-02-06T15:04:47Z</time>
      </trkpt>
      <trkpt lat="46.2082" lon="6.57647">
        <ele>1137.86</ele>
        <time>2020-02-06T15:05:01Z</time>
      </trkpt>
      <trkpt lat="46.20825" lon="6.57659">
        <ele>1136.42</ele>
        <time>2020-02-06T15:05:15Z</time>
      </trkpt>
      <trkpt lat="46.20828" lon="6.57666">
        <ele>1135.94</ele>
        <time>2020-02-06T15:05:22Z</time>
      </trkpt>
      <trkpt lat="46.2083" lon="6.57668">
        <ele>1134.97</ele>
        <time>2020-02-06T15:05:25Z</time>
      </trkpt>
      <trkpt lat="46.20839" lon="6.57685">
        <ele>1133.53</ele>
        <time>2020-02-06T15:05:41Z</time>
      </trkpt>
      <trkpt lat="46.20841" lon="6.57693">
        <ele>1132.57</ele>
        <time>2020-02-06T15:05:47Z</time>
      </trkpt>
      <trkpt lat="46.20846" lon="6.57701">
        <ele>1132.09</ele>
        <time>2020-02-06T15:05:54Z</time>
      </trkpt>
      <trkpt lat="46.2085" lon="6.57703">
        <ele>1131.13</ele>
        <time>2020-02-06T15:05:58Z</time>
      </trkpt>
      <trkpt lat="46.20853" lon="6.57705">
        <ele>1130.65</ele>
        <time>2020-02-06T15:06:02Z</time>
      </trkpt>
      <trkpt lat="46.20864" lon="6.57705">
        <ele>1128.73</ele>
        <time>2020-02-06T15:06:12Z</time>
      </trkpt>
      <trkpt lat="46.20866" lon="6.57703">
        <ele>1128.24</ele>
        <time>2020-02-06T15:06:15Z</time>
      </trkpt>
      <trkpt lat="46.20872" lon="6.57701">
        <ele>1127.76</ele>
        <time>2020-02-06T15:06:20Z</time>
      </trkpt>
      <trkpt lat="46.20876" lon="6.57693">
        <ele>1126.8</ele>
        <time>2020-02-06T15:06:32Z</time>
      </trkpt>
      <trkpt lat="46.20881" lon="6.57685">
        <ele>1125.84</ele>
        <time>2020-02-06T15:06:47Z</time>
      </trkpt>
      <trkpt lat="46.20887" lon="6.57677">
        <ele>1125.84</ele>
        <time>2020-02-06T15:06:59Z</time>
      </trkpt>
      <trkpt lat="46.20892" lon="6.57671">
        <ele>1125.36</ele>
        <time>2020-02-06T15:07:12Z</time>
      </trkpt>
      <trkpt lat="46.20892" lon="6.57667">
        <ele>1125.84</ele>
        <time>2020-02-06T15:07:26Z</time>
      </trkpt>
      <trkpt lat="46.20892" lon="6.5766">
        <ele>1125.36</ele>
        <time>2020-02-06T15:07:40Z</time>
      </trkpt>
      <trkpt lat="46.20884" lon="6.57655">
        <ele>1124.4</ele>
        <time>2020-02-06T15:07:53Z</time>
      </trkpt>
      <trkpt lat="46.20878" lon="6.57649">
        <ele>1124.88</ele>
        <time>2020-02-06T15:08:06Z</time>
      </trkpt>
      <trkpt lat="46.20878" lon="6.57651">
        <ele>1123.92</ele>
        <time>2020-02-06T15:08:19Z</time>
      </trkpt>
      <trkpt lat="46.20875" lon="6.57649">
        <ele>1123.92</ele>
        <time>2020-02-06T15:08:41Z</time>
      </trkpt>
      <trkpt lat="46.20873" lon="6.57649">
        <ele>1123.92</ele>
        <time>2020-02-06T15:09:07Z</time>
      </trkpt>
      <trkpt lat="46.20873" lon="6.57649">
        <ele>1123.92</ele>
        <time>2020-02-06T15:09:26Z</time>
      </trkpt>
      <trkpt lat="46.20872" lon="6.57647">
        <ele>1123.44</ele>
        <time>2020-02-06T15:09:54Z</time>
      </trkpt>
      <trkpt lat="46.20872" lon="6.57647">
        <ele>1124.4</ele>
        <time>2020-02-06T15:10:21Z</time>
      </trkpt>
      <trkpt lat="46.20872" lon="6.57647">
        <ele>1123.92</ele>
        <time>2020-02-06T15:11:00Z</time>
      </trkpt>
      <trkpt lat="46.20872" lon="6.57649">
        <ele>1123.44</ele>
        <time>2020-02-06T15:11:12Z</time>
      </trkpt>
      <trkpt lat="46.20872" lon="6.57648">
        <ele>1123.44</ele>
        <time>2020-02-06T15:11:23Z</time>
      </trkpt>
      <trkpt lat="46.20872" lon="6.57648">
        <ele>1123.44</ele>
        <time>2020-02-06T15:11:36Z</time>
      </trkpt>
      <trkpt lat="46.20872" lon="6.57648">
        <ele>1123.92</ele>
        <time>2020-02-06T15:11:59Z</time>
      </trkpt>
      <trkpt lat="46.2087" lon="6.57648">
        <ele>1122.96</ele>
        <time>2020-02-06T15:12:12Z</time>
      </trkpt>
    </trkseg>
  </trk>
</gpx>